<?xml version="1.0" encoding="UTF-8" standalone="no" ?>
<gpx xmlns="http://www.topografix.com/GPX/1/1" xmlns:xsi="http://www.w3.org/2001/XMLSchema-instance" xsi:schemaLocation="http://www.topografix.com/GPX/1/1 http://www.topografix.com/GPX/1/1/gpx.xsd" version="1.1" creator="VisuGPX - https://www.visugpx.com">
  <metadata>
    <name>Crabioules</name>
    <desc><![CDATA[Crabioules desde refugio Espingo. Descripción en www.subircumbres.wordpress.com]]></desc>
  </metadata>
  <trk>
    <name><![CDATA[Crabioules]]></name>
    <cmt><![CDATA[Pico Crabioules desde el Refugio de Espingo. Descripción en www.subircumbres.wordpress.com]]></cmt>
    <desc><![CDATA[Pico Crabioules desde el Refugio de Espingo. Descripción en www.subircumbres.wordpress.com]]></desc>
    <trkseg>
      <trkpt lat="42.73052" lon="0.49949">
        <ele>1925.2</ele>
        <time>2012-07-03T05:07:14Z</time>
      </trkpt>
      <trkpt lat="42.73048" lon="0.4995">
        <ele>1926.1</ele>
        <time>2012-07-03T05:07:39Z</time>
      </trkpt>
      <trkpt lat="42.73046" lon="0.49948">
        <ele>1925.7</ele>
        <time>2012-07-03T05:08:05Z</time>
      </trkpt>
      <trkpt lat="42.73049" lon="0.49954">
        <ele>1921.3</ele>
        <time>2012-07-03T05:08:14Z</time>
      </trkpt>
      <trkpt lat="42.73049" lon="0.49954">
        <ele>1929</ele>
        <time>2012-07-03T05:08:15Z</time>
      </trkpt>
      <trkpt lat="42.73049" lon="0.49954">
        <ele>1927.6</ele>
        <time>2012-07-03T05:08:16Z</time>
      </trkpt>
      <trkpt lat="42.73048" lon="0.49952">
        <ele>1931</ele>
        <time>2012-07-03T05:08:20Z</time>
      </trkpt>
      <trkpt lat="42.73048" lon="0.49952">
        <ele>1934.3</ele>
        <time>2012-07-03T05:08:23Z</time>
      </trkpt>
      <trkpt lat="42.73048" lon="0.49951">
        <ele>1937.2</ele>
        <time>2012-07-03T05:08:27Z</time>
      </trkpt>
      <trkpt lat="42.73048" lon="0.49953">
        <ele>1941</ele>
        <time>2012-07-03T05:08:32Z</time>
      </trkpt>
      <trkpt lat="42.73048" lon="0.49953">
        <ele>1944.4</ele>
        <time>2012-07-03T05:08:40Z</time>
      </trkpt>
      <trkpt lat="42.73048" lon="0.49953">
        <ele>1947.8</ele>
        <time>2012-07-03T05:08:48Z</time>
      </trkpt>
      <trkpt lat="42.73048" lon="0.49953">
        <ele>1950.7</ele>
        <time>2012-07-03T05:09:03Z</time>
      </trkpt>
      <trkpt lat="42.73049" lon="0.49952">
        <ele>1953.1</ele>
        <time>2012-07-03T05:09:29Z</time>
      </trkpt>
      <trkpt lat="42.73048" lon="0.49952">
        <ele>1953.5</ele>
        <time>2012-07-03T05:09:33Z</time>
      </trkpt>
      <trkpt lat="42.73047" lon="0.4995">
        <ele>1954</ele>
        <time>2012-07-03T05:09:45Z</time>
      </trkpt>
      <trkpt lat="42.73047" lon="0.4995">
        <ele>1954</ele>
        <time>2012-07-03T05:10:13Z</time>
      </trkpt>
      <trkpt lat="42.73045" lon="0.4995">
        <ele>1953.5</ele>
        <time>2012-07-03T05:10:27Z</time>
      </trkpt>
      <trkpt lat="42.73045" lon="0.49948">
        <ele>1953.5</ele>
        <time>2012-07-03T05:10:38Z</time>
      </trkpt>
      <trkpt lat="42.73043" lon="0.4995">
        <ele>1953.5</ele>
        <time>2012-07-03T05:10:55Z</time>
      </trkpt>
      <trkpt lat="42.73043" lon="0.4995">
        <ele>1954</ele>
        <time>2012-07-03T05:11:17Z</time>
      </trkpt>
      <trkpt lat="42.73042" lon="0.4995">
        <ele>1954</ele>
        <time>2012-07-03T05:11:40Z</time>
      </trkpt>
      <trkpt lat="42.73042" lon="0.4995">
        <ele>1954</ele>
        <time>2012-07-03T05:12:04Z</time>
      </trkpt>
      <trkpt lat="42.73042" lon="0.49949">
        <ele>1954</ele>
        <time>2012-07-03T05:12:30Z</time>
      </trkpt>
      <trkpt lat="42.73042" lon="0.4995">
        <ele>1953.5</ele>
        <time>2012-07-03T05:12:50Z</time>
      </trkpt>
      <trkpt lat="42.73042" lon="0.4995">
        <ele>1955</ele>
        <time>2012-07-03T05:12:51Z</time>
      </trkpt>
      <trkpt lat="42.73043" lon="0.49956">
        <ele>1953.5</ele>
        <time>2012-07-03T05:13:01Z</time>
      </trkpt>
      <trkpt lat="42.73046" lon="0.49966">
        <ele>1953.5</ele>
        <time>2012-07-03T05:13:16Z</time>
      </trkpt>
      <trkpt lat="42.73053" lon="0.49969">
        <ele>1954</ele>
        <time>2012-07-03T05:13:29Z</time>
      </trkpt>
      <trkpt lat="42.73057" lon="0.49976">
        <ele>1954.5</ele>
        <time>2012-07-03T05:13:48Z</time>
      </trkpt>
      <trkpt lat="42.73059" lon="0.49978">
        <ele>1954.5</ele>
        <time>2012-07-03T05:14:14Z</time>
      </trkpt>
      <trkpt lat="42.73055" lon="0.49981">
        <ele>1953.5</ele>
        <time>2012-07-03T05:14:20Z</time>
      </trkpt>
      <trkpt lat="42.73053" lon="0.49984">
        <ele>1952.6</ele>
        <time>2012-07-03T05:14:24Z</time>
      </trkpt>
      <trkpt lat="42.73052" lon="0.49988">
        <ele>1951.6</ele>
        <time>2012-07-03T05:14:28Z</time>
      </trkpt>
      <trkpt lat="42.73046" lon="0.49994">
        <ele>1949.2</ele>
        <time>2012-07-03T05:14:40Z</time>
      </trkpt>
      <trkpt lat="42.73044" lon="0.50004">
        <ele>1947.3</ele>
        <time>2012-07-03T05:14:50Z</time>
      </trkpt>
      <trkpt lat="42.73036" lon="0.50019">
        <ele>1944.9</ele>
        <time>2012-07-03T05:15:05Z</time>
      </trkpt>
      <trkpt lat="42.73032" lon="0.50025">
        <ele>1943.9</ele>
        <time>2012-07-03T05:15:12Z</time>
      </trkpt>
      <trkpt lat="42.73023" lon="0.50034">
        <ele>1941.5</ele>
        <time>2012-07-03T05:15:25Z</time>
      </trkpt>
      <trkpt lat="42.73011" lon="0.50041">
        <ele>1938.6</ele>
        <time>2012-07-03T05:15:39Z</time>
      </trkpt>
      <trkpt lat="42.7301" lon="0.50042">
        <ele>1938.2</ele>
        <time>2012-07-03T05:15:41Z</time>
      </trkpt>
      <trkpt lat="42.73001" lon="0.50044">
        <ele>1935.8</ele>
        <time>2012-07-03T05:15:55Z</time>
      </trkpt>
      <trkpt lat="42.73" lon="0.50044">
        <ele>1935.3</ele>
        <time>2012-07-03T05:15:56Z</time>
      </trkpt>
      <trkpt lat="42.72997" lon="0.50045">
        <ele>1934.8</ele>
        <time>2012-07-03T05:16:00Z</time>
      </trkpt>
      <trkpt lat="42.72992" lon="0.50049">
        <ele>1933.8</ele>
        <time>2012-07-03T05:16:06Z</time>
      </trkpt>
      <trkpt lat="42.7299" lon="0.50051">
        <ele>1933.8</ele>
        <time>2012-07-03T05:16:08Z</time>
      </trkpt>
      <trkpt lat="42.72985" lon="0.50067">
        <ele>1932.9</ele>
        <time>2012-07-03T05:16:21Z</time>
      </trkpt>
      <trkpt lat="42.72977" lon="0.50083">
        <ele>1932.4</ele>
        <time>2012-07-03T05:16:36Z</time>
      </trkpt>
      <trkpt lat="42.72976" lon="0.50084">
        <ele>1932.4</ele>
        <time>2012-07-03T05:16:37Z</time>
      </trkpt>
      <trkpt lat="42.72971" lon="0.50093">
        <ele>1931.9</ele>
        <time>2012-07-03T05:16:45Z</time>
      </trkpt>
      <trkpt lat="42.7297" lon="0.50096">
        <ele>1931.4</ele>
        <time>2012-07-03T05:16:47Z</time>
      </trkpt>
      <trkpt lat="42.72962" lon="0.50106">
        <ele>1931.9</ele>
        <time>2012-07-03T05:16:59Z</time>
      </trkpt>
      <trkpt lat="42.72956" lon="0.50108">
        <ele>1932.4</ele>
        <time>2012-07-03T05:17:06Z</time>
      </trkpt>
      <trkpt lat="42.72947" lon="0.5011">
        <ele>1932.4</ele>
        <time>2012-07-03T05:17:15Z</time>
      </trkpt>
      <trkpt lat="42.72944" lon="0.50111">
        <ele>1932.4</ele>
        <time>2012-07-03T05:17:18Z</time>
      </trkpt>
      <trkpt lat="42.72936" lon="0.50113">
        <ele>1931.9</ele>
        <time>2012-07-03T05:17:27Z</time>
      </trkpt>
      <trkpt lat="42.72923" lon="0.50121">
        <ele>1931</ele>
        <time>2012-07-03T05:17:41Z</time>
      </trkpt>
      <trkpt lat="42.72923" lon="0.50121">
        <ele>1931</ele>
        <time>2012-07-03T05:17:59Z</time>
      </trkpt>
      <trkpt lat="42.72923" lon="0.5012">
        <ele>1930.5</ele>
        <time>2012-07-03T05:18:04Z</time>
      </trkpt>
      <trkpt lat="42.7292" lon="0.50122">
        <ele>1930.5</ele>
        <time>2012-07-03T05:18:07Z</time>
      </trkpt>
      <trkpt lat="42.72917" lon="0.50124">
        <ele>1930.5</ele>
        <time>2012-07-03T05:18:11Z</time>
      </trkpt>
      <trkpt lat="42.72905" lon="0.50138">
        <ele>1929.5</ele>
        <time>2012-07-03T05:18:26Z</time>
      </trkpt>
      <trkpt lat="42.72904" lon="0.50143">
        <ele>1930</ele>
        <time>2012-07-03T05:18:30Z</time>
      </trkpt>
      <trkpt lat="42.72903" lon="0.50144">
        <ele>1930</ele>
        <time>2012-07-03T05:18:32Z</time>
      </trkpt>
      <trkpt lat="42.72891" lon="0.5015">
        <ele>1928.5</ele>
        <time>2012-07-03T05:18:45Z</time>
      </trkpt>
      <trkpt lat="42.7289" lon="0.50153">
        <ele>1928.5</ele>
        <time>2012-07-03T05:18:48Z</time>
      </trkpt>
      <trkpt lat="42.72887" lon="0.50159">
        <ele>1929</ele>
        <time>2012-07-03T05:18:53Z</time>
      </trkpt>
      <trkpt lat="42.72886" lon="0.5016">
        <ele>1929.5</ele>
        <time>2012-07-03T05:18:55Z</time>
      </trkpt>
      <trkpt lat="42.72885" lon="0.50162">
        <ele>1928.5</ele>
        <time>2012-07-03T05:18:57Z</time>
      </trkpt>
      <trkpt lat="42.72882" lon="0.5017">
        <ele>1928.5</ele>
        <time>2012-07-03T05:19:06Z</time>
      </trkpt>
      <trkpt lat="42.72875" lon="0.50173">
        <ele>1927.1</ele>
        <time>2012-07-03T05:19:14Z</time>
      </trkpt>
      <trkpt lat="42.72865" lon="0.50183">
        <ele>1925.7</ele>
        <time>2012-07-03T05:19:25Z</time>
      </trkpt>
      <trkpt lat="42.72857" lon="0.50184">
        <ele>1925.2</ele>
        <time>2012-07-03T05:19:33Z</time>
      </trkpt>
      <trkpt lat="42.72844" lon="0.50192">
        <ele>1925.2</ele>
        <time>2012-07-03T05:19:47Z</time>
      </trkpt>
      <trkpt lat="42.72838" lon="0.50195">
        <ele>1925.2</ele>
        <time>2012-07-03T05:19:53Z</time>
      </trkpt>
      <trkpt lat="42.72827" lon="0.50205">
        <ele>1924.7</ele>
        <time>2012-07-03T05:20:06Z</time>
      </trkpt>
      <trkpt lat="42.72826" lon="0.50206">
        <ele>1924.7</ele>
        <time>2012-07-03T05:20:07Z</time>
      </trkpt>
      <trkpt lat="42.72821" lon="0.50211">
        <ele>1924.7</ele>
        <time>2012-07-03T05:20:12Z</time>
      </trkpt>
      <trkpt lat="42.72818" lon="0.50213">
        <ele>1924.7</ele>
        <time>2012-07-03T05:20:15Z</time>
      </trkpt>
      <trkpt lat="42.7281" lon="0.50215">
        <ele>1925.7</ele>
        <time>2012-07-03T05:20:23Z</time>
      </trkpt>
      <trkpt lat="42.72806" lon="0.50218">
        <ele>1925.7</ele>
        <time>2012-07-03T05:20:39Z</time>
      </trkpt>
      <trkpt lat="42.728" lon="0.50219">
        <ele>1925.7</ele>
        <time>2012-07-03T05:20:51Z</time>
      </trkpt>
      <trkpt lat="42.72798" lon="0.50219">
        <ele>1925.7</ele>
        <time>2012-07-03T05:20:53Z</time>
      </trkpt>
      <trkpt lat="42.7279" lon="0.50223">
        <ele>1926.1</ele>
        <time>2012-07-03T05:21:00Z</time>
      </trkpt>
      <trkpt lat="42.72775" lon="0.50226">
        <ele>1928.1</ele>
        <time>2012-07-03T05:21:16Z</time>
      </trkpt>
      <trkpt lat="42.72773" lon="0.50228">
        <ele>1928.5</ele>
        <time>2012-07-03T05:21:29Z</time>
      </trkpt>
      <trkpt lat="42.72773" lon="0.50228">
        <ele>1928.5</ele>
        <time>2012-07-03T05:21:57Z</time>
      </trkpt>
      <trkpt lat="42.72772" lon="0.50228">
        <ele>1928.5</ele>
        <time>2012-07-03T05:22:26Z</time>
      </trkpt>
      <trkpt lat="42.72773" lon="0.50228">
        <ele>1928.5</ele>
        <time>2012-07-03T05:22:43Z</time>
      </trkpt>
      <trkpt lat="42.72773" lon="0.50228">
        <ele>1928.5</ele>
        <time>2012-07-03T05:23:03Z</time>
      </trkpt>
      <trkpt lat="42.72772" lon="0.50228">
        <ele>1928.5</ele>
        <time>2012-07-03T05:23:05Z</time>
      </trkpt>
      <trkpt lat="42.7277" lon="0.50229">
        <ele>1928.1</ele>
        <time>2012-07-03T05:23:07Z</time>
      </trkpt>
      <trkpt lat="42.72767" lon="0.50227">
        <ele>1928.5</ele>
        <time>2012-07-03T05:23:10Z</time>
      </trkpt>
      <trkpt lat="42.72761" lon="0.50228">
        <ele>1929.5</ele>
        <time>2012-07-03T05:23:17Z</time>
      </trkpt>
      <trkpt lat="42.72751" lon="0.50228">
        <ele>1930.5</ele>
        <time>2012-07-03T05:23:29Z</time>
      </trkpt>
      <trkpt lat="42.7275" lon="0.50228">
        <ele>1931</ele>
        <time>2012-07-03T05:23:30Z</time>
      </trkpt>
      <trkpt lat="42.72742" lon="0.50231">
        <ele>1931.9</ele>
        <time>2012-07-03T05:23:40Z</time>
      </trkpt>
      <trkpt lat="42.72729" lon="0.50236">
        <ele>1931.9</ele>
        <time>2012-07-03T05:23:55Z</time>
      </trkpt>
      <trkpt lat="42.72724" lon="0.50236">
        <ele>1931</ele>
        <time>2012-07-03T05:24:01Z</time>
      </trkpt>
      <trkpt lat="42.72722" lon="0.50238">
        <ele>1930.5</ele>
        <time>2012-07-03T05:24:03Z</time>
      </trkpt>
      <trkpt lat="42.72712" lon="0.50243">
        <ele>1930</ele>
        <time>2012-07-03T05:24:14Z</time>
      </trkpt>
      <trkpt lat="42.72707" lon="0.50245">
        <ele>1930</ele>
        <time>2012-07-03T05:24:18Z</time>
      </trkpt>
      <trkpt lat="42.72699" lon="0.50248">
        <ele>1930</ele>
        <time>2012-07-03T05:24:27Z</time>
      </trkpt>
      <trkpt lat="42.72691" lon="0.5025">
        <ele>1929.5</ele>
        <time>2012-07-03T05:24:34Z</time>
      </trkpt>
      <trkpt lat="42.72681" lon="0.50254">
        <ele>1928.1</ele>
        <time>2012-07-03T05:24:45Z</time>
      </trkpt>
      <trkpt lat="42.72678" lon="0.50255">
        <ele>1928.1</ele>
        <time>2012-07-03T05:24:48Z</time>
      </trkpt>
      <trkpt lat="42.72675" lon="0.50256">
        <ele>1928.1</ele>
        <time>2012-07-03T05:24:50Z</time>
      </trkpt>
      <trkpt lat="42.72666" lon="0.50258">
        <ele>1928.1</ele>
        <time>2012-07-03T05:24:57Z</time>
      </trkpt>
      <trkpt lat="42.7266" lon="0.50268">
        <ele>1928.1</ele>
        <time>2012-07-03T05:25:08Z</time>
      </trkpt>
      <trkpt lat="42.72657" lon="0.50269">
        <ele>1928.1</ele>
        <time>2012-07-03T05:25:11Z</time>
      </trkpt>
      <trkpt lat="42.72656" lon="0.50271">
        <ele>1928.1</ele>
        <time>2012-07-03T05:25:14Z</time>
      </trkpt>
      <trkpt lat="42.72653" lon="0.50274">
        <ele>1928.1</ele>
        <time>2012-07-03T05:25:18Z</time>
      </trkpt>
      <trkpt lat="42.72651" lon="0.50274">
        <ele>1928.5</ele>
        <time>2012-07-03T05:25:20Z</time>
      </trkpt>
      <trkpt lat="42.72638" lon="0.50281">
        <ele>1927.6</ele>
        <time>2012-07-03T05:25:34Z</time>
      </trkpt>
      <trkpt lat="42.72637" lon="0.50282">
        <ele>1927.6</ele>
        <time>2012-07-03T05:25:35Z</time>
      </trkpt>
      <trkpt lat="42.72633" lon="0.50286">
        <ele>1927.1</ele>
        <time>2012-07-03T05:25:41Z</time>
      </trkpt>
      <trkpt lat="42.72625" lon="0.50287">
        <ele>1926.1</ele>
        <time>2012-07-03T05:25:49Z</time>
      </trkpt>
      <trkpt lat="42.72621" lon="0.50288">
        <ele>1925.7</ele>
        <time>2012-07-03T05:25:53Z</time>
      </trkpt>
      <trkpt lat="42.72617" lon="0.50291">
        <ele>1925.2</ele>
        <time>2012-07-03T05:25:57Z</time>
      </trkpt>
      <trkpt lat="42.72615" lon="0.50292">
        <ele>1925.2</ele>
        <time>2012-07-03T05:25:59Z</time>
      </trkpt>
      <trkpt lat="42.72604" lon="0.50295">
        <ele>1924.7</ele>
        <time>2012-07-03T05:26:09Z</time>
      </trkpt>
      <trkpt lat="42.72599" lon="0.50298">
        <ele>1924.7</ele>
        <time>2012-07-03T05:26:16Z</time>
      </trkpt>
      <trkpt lat="42.72595" lon="0.50302">
        <ele>1924.7</ele>
        <time>2012-07-03T05:26:29Z</time>
      </trkpt>
      <trkpt lat="42.72595" lon="0.50302">
        <ele>1925.2</ele>
        <time>2012-07-03T05:26:56Z</time>
      </trkpt>
      <trkpt lat="42.72588" lon="0.50301">
        <ele>1924.2</ele>
        <time>2012-07-03T05:27:09Z</time>
      </trkpt>
      <trkpt lat="42.72585" lon="0.50301">
        <ele>1924.2</ele>
        <time>2012-07-03T05:27:12Z</time>
      </trkpt>
      <trkpt lat="42.72572" lon="0.50294">
        <ele>1923.3</ele>
        <time>2012-07-03T05:27:24Z</time>
      </trkpt>
      <trkpt lat="42.72571" lon="0.50293">
        <ele>1923.3</ele>
        <time>2012-07-03T05:27:26Z</time>
      </trkpt>
      <trkpt lat="42.72563" lon="0.50286">
        <ele>1923.3</ele>
        <time>2012-07-03T05:27:33Z</time>
      </trkpt>
      <trkpt lat="42.7256" lon="0.50284">
        <ele>1923.7</ele>
        <time>2012-07-03T05:27:35Z</time>
      </trkpt>
      <trkpt lat="42.72558" lon="0.50283">
        <ele>1923.7</ele>
        <time>2012-07-03T05:27:37Z</time>
      </trkpt>
      <trkpt lat="42.72551" lon="0.50282">
        <ele>1925.2</ele>
        <time>2012-07-03T05:27:45Z</time>
      </trkpt>
      <trkpt lat="42.72543" lon="0.50284">
        <ele>1926.1</ele>
        <time>2012-07-03T05:27:52Z</time>
      </trkpt>
      <trkpt lat="42.72538" lon="0.50289">
        <ele>1926.6</ele>
        <time>2012-07-03T05:27:58Z</time>
      </trkpt>
      <trkpt lat="42.72535" lon="0.5029">
        <ele>1926.6</ele>
        <time>2012-07-03T05:28:00Z</time>
      </trkpt>
      <trkpt lat="42.72525" lon="0.50298">
        <ele>1928.5</ele>
        <time>2012-07-03T05:28:14Z</time>
      </trkpt>
      <trkpt lat="42.72522" lon="0.50297">
        <ele>1928.5</ele>
        <time>2012-07-03T05:28:18Z</time>
      </trkpt>
      <trkpt lat="42.72514" lon="0.50295">
        <ele>1930</ele>
        <time>2012-07-03T05:28:30Z</time>
      </trkpt>
      <trkpt lat="42.72512" lon="0.50294">
        <ele>1930.5</ele>
        <time>2012-07-03T05:28:32Z</time>
      </trkpt>
      <trkpt lat="42.72509" lon="0.50291">
        <ele>1930</ele>
        <time>2012-07-03T05:28:36Z</time>
      </trkpt>
      <trkpt lat="42.72508" lon="0.50289">
        <ele>1930</ele>
        <time>2012-07-03T05:28:38Z</time>
      </trkpt>
      <trkpt lat="42.725" lon="0.50282">
        <ele>1929.5</ele>
        <time>2012-07-03T05:28:46Z</time>
      </trkpt>
      <trkpt lat="42.72497" lon="0.50273">
        <ele>1930</ele>
        <time>2012-07-03T05:29:01Z</time>
      </trkpt>
      <trkpt lat="42.72497" lon="0.50273">
        <ele>1930</ele>
        <time>2012-07-03T05:29:20Z</time>
      </trkpt>
      <trkpt lat="42.72495" lon="0.50266">
        <ele>1930</ele>
        <time>2012-07-03T05:29:26Z</time>
      </trkpt>
      <trkpt lat="42.72488" lon="0.5024">
        <ele>1930</ele>
        <time>2012-07-03T05:29:43Z</time>
      </trkpt>
      <trkpt lat="42.72487" lon="0.50225">
        <ele>1930</ele>
        <time>2012-07-03T05:29:54Z</time>
      </trkpt>
      <trkpt lat="42.72485" lon="0.50204">
        <ele>1928.5</ele>
        <time>2012-07-03T05:30:08Z</time>
      </trkpt>
      <trkpt lat="42.72488" lon="0.50178">
        <ele>1928.5</ele>
        <time>2012-07-03T05:30:24Z</time>
      </trkpt>
      <trkpt lat="42.72491" lon="0.50162">
        <ele>1928.1</ele>
        <time>2012-07-03T05:30:34Z</time>
      </trkpt>
      <trkpt lat="42.72496" lon="0.5014">
        <ele>1927.6</ele>
        <time>2012-07-03T05:30:49Z</time>
      </trkpt>
      <trkpt lat="42.72496" lon="0.50124">
        <ele>1927.1</ele>
        <time>2012-07-03T05:30:58Z</time>
      </trkpt>
      <trkpt lat="42.72495" lon="0.50099">
        <ele>1927.1</ele>
        <time>2012-07-03T05:31:13Z</time>
      </trkpt>
      <trkpt lat="42.72491" lon="0.50075">
        <ele>1926.6</ele>
        <time>2012-07-03T05:31:28Z</time>
      </trkpt>
      <trkpt lat="42.72489" lon="0.50062">
        <ele>1926.1</ele>
        <time>2012-07-03T05:31:36Z</time>
      </trkpt>
      <trkpt lat="42.72488" lon="0.50056">
        <ele>1926.6</ele>
        <time>2012-07-03T05:31:41Z</time>
      </trkpt>
      <trkpt lat="42.7248" lon="0.5005">
        <ele>1927.1</ele>
        <time>2012-07-03T05:31:50Z</time>
      </trkpt>
      <trkpt lat="42.72459" lon="0.50046">
        <ele>1926.6</ele>
        <time>2012-07-03T05:32:07Z</time>
      </trkpt>
      <trkpt lat="42.72445" lon="0.50044">
        <ele>1926.6</ele>
        <time>2012-07-03T05:32:20Z</time>
      </trkpt>
      <trkpt lat="42.72442" lon="0.50044">
        <ele>1926.1</ele>
        <time>2012-07-03T05:32:22Z</time>
      </trkpt>
      <trkpt lat="42.72426" lon="0.5004">
        <ele>1926.1</ele>
        <time>2012-07-03T05:32:37Z</time>
      </trkpt>
      <trkpt lat="42.72412" lon="0.50038">
        <ele>1925.7</ele>
        <time>2012-07-03T05:32:50Z</time>
      </trkpt>
      <trkpt lat="42.72411" lon="0.50038">
        <ele>1926.1</ele>
        <time>2012-07-03T05:32:51Z</time>
      </trkpt>
      <trkpt lat="42.72408" lon="0.50039">
        <ele>1926.1</ele>
        <time>2012-07-03T05:32:54Z</time>
      </trkpt>
      <trkpt lat="42.72406" lon="0.50039">
        <ele>1926.1</ele>
        <time>2012-07-03T05:32:56Z</time>
      </trkpt>
      <trkpt lat="42.72391" lon="0.50041">
        <ele>1927.6</ele>
        <time>2012-07-03T05:33:09Z</time>
      </trkpt>
      <trkpt lat="42.72389" lon="0.50042">
        <ele>1928.1</ele>
        <time>2012-07-03T05:33:13Z</time>
      </trkpt>
      <trkpt lat="42.72381" lon="0.50044">
        <ele>1928.5</ele>
        <time>2012-07-03T05:33:20Z</time>
      </trkpt>
      <trkpt lat="42.7237" lon="0.50045">
        <ele>1930</ele>
        <time>2012-07-03T05:33:35Z</time>
      </trkpt>
      <trkpt lat="42.7237" lon="0.50045">
        <ele>1929.5</ele>
        <time>2012-07-03T05:34:01Z</time>
      </trkpt>
      <trkpt lat="42.7237" lon="0.50045">
        <ele>1929.5</ele>
        <time>2012-07-03T05:34:29Z</time>
      </trkpt>
      <trkpt lat="42.7237" lon="0.50045">
        <ele>1929.5</ele>
        <time>2012-07-03T05:34:50Z</time>
      </trkpt>
      <trkpt lat="42.7237" lon="0.50045">
        <ele>1929</ele>
        <time>2012-07-03T05:35:17Z</time>
      </trkpt>
      <trkpt lat="42.7237" lon="0.50044">
        <ele>1929.5</ele>
        <time>2012-07-03T05:35:37Z</time>
      </trkpt>
      <trkpt lat="42.72368" lon="0.50045">
        <ele>1929.5</ele>
        <time>2012-07-03T05:35:53Z</time>
      </trkpt>
      <trkpt lat="42.72356" lon="0.50041">
        <ele>1930</ele>
        <time>2012-07-03T05:36:05Z</time>
      </trkpt>
      <trkpt lat="42.72346" lon="0.5004">
        <ele>1931.9</ele>
        <time>2012-07-03T05:36:18Z</time>
      </trkpt>
      <trkpt lat="42.72338" lon="0.50039">
        <ele>1934.3</ele>
        <time>2012-07-03T05:36:30Z</time>
      </trkpt>
      <trkpt lat="42.72334" lon="0.50034">
        <ele>1936.7</ele>
        <time>2012-07-03T05:36:42Z</time>
      </trkpt>
      <trkpt lat="42.72327" lon="0.50026">
        <ele>1938.6</ele>
        <time>2012-07-03T05:36:56Z</time>
      </trkpt>
      <trkpt lat="42.72326" lon="0.50025">
        <ele>1939.6</ele>
        <time>2012-07-03T05:36:58Z</time>
      </trkpt>
      <trkpt lat="42.72319" lon="0.50022">
        <ele>1940.1</ele>
        <time>2012-07-03T05:37:05Z</time>
      </trkpt>
      <trkpt lat="42.72316" lon="0.5002">
        <ele>1940.1</ele>
        <time>2012-07-03T05:37:10Z</time>
      </trkpt>
      <trkpt lat="42.72315" lon="0.50019">
        <ele>1940.1</ele>
        <time>2012-07-03T05:37:12Z</time>
      </trkpt>
      <trkpt lat="42.72302" lon="0.50009">
        <ele>1938.2</ele>
        <time>2012-07-03T05:37:28Z</time>
      </trkpt>
      <trkpt lat="42.72293" lon="0.50009">
        <ele>1936.2</ele>
        <time>2012-07-03T05:37:37Z</time>
      </trkpt>
      <trkpt lat="42.72279" lon="0.50008">
        <ele>1934.3</ele>
        <time>2012-07-03T05:37:50Z</time>
      </trkpt>
      <trkpt lat="42.72275" lon="0.5001">
        <ele>1934.3</ele>
        <time>2012-07-03T05:37:54Z</time>
      </trkpt>
      <trkpt lat="42.72268" lon="0.50009">
        <ele>1934.3</ele>
        <time>2012-07-03T05:38:00Z</time>
      </trkpt>
      <trkpt lat="42.72253" lon="0.50007">
        <ele>1932.9</ele>
        <time>2012-07-03T05:38:14Z</time>
      </trkpt>
      <trkpt lat="42.72242" lon="0.50004">
        <ele>1932.4</ele>
        <time>2012-07-03T05:38:26Z</time>
      </trkpt>
      <trkpt lat="42.7224" lon="0.50003">
        <ele>1931.9</ele>
        <time>2012-07-03T05:38:28Z</time>
      </trkpt>
      <trkpt lat="42.72238" lon="0.50004">
        <ele>1931.4</ele>
        <time>2012-07-03T05:38:30Z</time>
      </trkpt>
      <trkpt lat="42.7223" lon="0.5">
        <ele>1929.5</ele>
        <time>2012-07-03T05:38:39Z</time>
      </trkpt>
      <trkpt lat="42.72228" lon="0.49999">
        <ele>1929</ele>
        <time>2012-07-03T05:38:42Z</time>
      </trkpt>
      <trkpt lat="42.72213" lon="0.5">
        <ele>1929</ele>
        <time>2012-07-03T05:38:56Z</time>
      </trkpt>
      <trkpt lat="42.72199" lon="0.50004">
        <ele>1930</ele>
        <time>2012-07-03T05:39:10Z</time>
      </trkpt>
      <trkpt lat="42.72199" lon="0.50003">
        <ele>1930</ele>
        <time>2012-07-03T05:39:11Z</time>
      </trkpt>
      <trkpt lat="42.7219" lon="0.50003">
        <ele>1930</ele>
        <time>2012-07-03T05:39:20Z</time>
      </trkpt>
      <trkpt lat="42.72173" lon="0.50006">
        <ele>1931</ele>
        <time>2012-07-03T05:39:37Z</time>
      </trkpt>
      <trkpt lat="42.72165" lon="0.50001">
        <ele>1933.4</ele>
        <time>2012-07-03T05:39:48Z</time>
      </trkpt>
      <trkpt lat="42.72156" lon="0.50003">
        <ele>1934.3</ele>
        <time>2012-07-03T05:39:58Z</time>
      </trkpt>
      <trkpt lat="42.72145" lon="0.5">
        <ele>1933.8</ele>
        <time>2012-07-03T05:40:07Z</time>
      </trkpt>
      <trkpt lat="42.72137" lon="0.49999">
        <ele>1934.3</ele>
        <time>2012-07-03T05:40:16Z</time>
      </trkpt>
      <trkpt lat="42.72133" lon="0.49999">
        <ele>1934.8</ele>
        <time>2012-07-03T05:40:20Z</time>
      </trkpt>
      <trkpt lat="42.72117" lon="0.49992">
        <ele>1933.8</ele>
        <time>2012-07-03T05:40:34Z</time>
      </trkpt>
      <trkpt lat="42.72109" lon="0.49992">
        <ele>1934.3</ele>
        <time>2012-07-03T05:40:43Z</time>
      </trkpt>
      <trkpt lat="42.72107" lon="0.49994">
        <ele>1934.3</ele>
        <time>2012-07-03T05:40:46Z</time>
      </trkpt>
      <trkpt lat="42.72099" lon="0.49999">
        <ele>1935.3</ele>
        <time>2012-07-03T05:40:56Z</time>
      </trkpt>
      <trkpt lat="42.72092" lon="0.49997">
        <ele>1936.2</ele>
        <time>2012-07-03T05:41:03Z</time>
      </trkpt>
      <trkpt lat="42.72087" lon="0.49995">
        <ele>1937.2</ele>
        <time>2012-07-03T05:41:09Z</time>
      </trkpt>
      <trkpt lat="42.72076" lon="0.49994">
        <ele>1938.6</ele>
        <time>2012-07-03T05:41:22Z</time>
      </trkpt>
      <trkpt lat="42.72067" lon="0.49994">
        <ele>1939.6</ele>
        <time>2012-07-03T05:41:32Z</time>
      </trkpt>
      <trkpt lat="42.72059" lon="0.49998">
        <ele>1940.6</ele>
        <time>2012-07-03T05:41:40Z</time>
      </trkpt>
      <trkpt lat="42.72047" lon="0.49995">
        <ele>1941.5</ele>
        <time>2012-07-03T05:41:53Z</time>
      </trkpt>
      <trkpt lat="42.72039" lon="0.49989">
        <ele>1943.4</ele>
        <time>2012-07-03T05:42:06Z</time>
      </trkpt>
      <trkpt lat="42.72031" lon="0.49989">
        <ele>1945.4</ele>
        <time>2012-07-03T05:42:18Z</time>
      </trkpt>
      <trkpt lat="42.72021" lon="0.49991">
        <ele>1946.3</ele>
        <time>2012-07-03T05:42:30Z</time>
      </trkpt>
      <trkpt lat="42.72013" lon="0.49986">
        <ele>1947.3</ele>
        <time>2012-07-03T05:42:42Z</time>
      </trkpt>
      <trkpt lat="42.7201" lon="0.49984">
        <ele>1948.7</ele>
        <time>2012-07-03T05:42:50Z</time>
      </trkpt>
      <trkpt lat="42.72005" lon="0.49986">
        <ele>1949.2</ele>
        <time>2012-07-03T05:42:56Z</time>
      </trkpt>
      <trkpt lat="42.71996" lon="0.49989">
        <ele>1950.2</ele>
        <time>2012-07-03T05:43:08Z</time>
      </trkpt>
      <trkpt lat="42.71999" lon="0.4998">
        <ele>1952.6</ele>
        <time>2012-07-03T05:43:21Z</time>
      </trkpt>
      <trkpt lat="42.71994" lon="0.49977">
        <ele>1954</ele>
        <time>2012-07-03T05:43:34Z</time>
      </trkpt>
      <trkpt lat="42.71991" lon="0.49976">
        <ele>1954.5</ele>
        <time>2012-07-03T05:43:55Z</time>
      </trkpt>
      <trkpt lat="42.71986" lon="0.49973">
        <ele>1955.5</ele>
        <time>2012-07-03T05:44:06Z</time>
      </trkpt>
      <trkpt lat="42.71982" lon="0.49967">
        <ele>1956.4</ele>
        <time>2012-07-03T05:44:14Z</time>
      </trkpt>
      <trkpt lat="42.71976" lon="0.49968">
        <ele>1958.3</ele>
        <time>2012-07-03T05:44:25Z</time>
      </trkpt>
      <trkpt lat="42.71968" lon="0.49974">
        <ele>1959.8</ele>
        <time>2012-07-03T05:44:38Z</time>
      </trkpt>
      <trkpt lat="42.71963" lon="0.49966">
        <ele>1962.2</ele>
        <time>2012-07-03T05:44:51Z</time>
      </trkpt>
      <trkpt lat="42.71958" lon="0.49962">
        <ele>1963.2</ele>
        <time>2012-07-03T05:45:00Z</time>
      </trkpt>
      <trkpt lat="42.71952" lon="0.49953">
        <ele>1964.6</ele>
        <time>2012-07-03T05:45:13Z</time>
      </trkpt>
      <trkpt lat="42.71949" lon="0.49954">
        <ele>1966</ele>
        <time>2012-07-03T05:45:21Z</time>
      </trkpt>
      <trkpt lat="42.7194" lon="0.49962">
        <ele>1968</ele>
        <time>2012-07-03T05:45:35Z</time>
      </trkpt>
      <trkpt lat="42.71935" lon="0.4997">
        <ele>1968.9</ele>
        <time>2012-07-03T05:45:46Z</time>
      </trkpt>
      <trkpt lat="42.71933" lon="0.4997">
        <ele>1969.9</ele>
        <time>2012-07-03T05:46:00Z</time>
      </trkpt>
      <trkpt lat="42.71933" lon="0.4997">
        <ele>1968.9</ele>
        <time>2012-07-03T05:46:13Z</time>
      </trkpt>
      <trkpt lat="42.71933" lon="0.4997">
        <ele>1969.4</ele>
        <time>2012-07-03T05:46:29Z</time>
      </trkpt>
      <trkpt lat="42.7193" lon="0.49966">
        <ele>1969.9</ele>
        <time>2012-07-03T05:46:43Z</time>
      </trkpt>
      <trkpt lat="42.71931" lon="0.49952">
        <ele>1971.8</ele>
        <time>2012-07-03T05:46:56Z</time>
      </trkpt>
      <trkpt lat="42.71927" lon="0.49949">
        <ele>1974.7</ele>
        <time>2012-07-03T05:47:07Z</time>
      </trkpt>
      <trkpt lat="42.71921" lon="0.49952">
        <ele>1975.7</ele>
        <time>2012-07-03T05:47:19Z</time>
      </trkpt>
      <trkpt lat="42.71916" lon="0.49956">
        <ele>1976.6</ele>
        <time>2012-07-03T05:47:25Z</time>
      </trkpt>
      <trkpt lat="42.71911" lon="0.4995">
        <ele>1977.6</ele>
        <time>2012-07-03T05:47:35Z</time>
      </trkpt>
      <trkpt lat="42.71906" lon="0.49943">
        <ele>1980</ele>
        <time>2012-07-03T05:47:46Z</time>
      </trkpt>
      <trkpt lat="42.71903" lon="0.49942">
        <ele>1981.4</ele>
        <time>2012-07-03T05:47:55Z</time>
      </trkpt>
      <trkpt lat="42.71901" lon="0.49945">
        <ele>1981.9</ele>
        <time>2012-07-03T05:47:58Z</time>
      </trkpt>
      <trkpt lat="42.71893" lon="0.49942">
        <ele>1983.8</ele>
        <time>2012-07-03T05:48:12Z</time>
      </trkpt>
      <trkpt lat="42.71888" lon="0.4994">
        <ele>1985.7</ele>
        <time>2012-07-03T05:48:25Z</time>
      </trkpt>
      <trkpt lat="42.7188" lon="0.49942">
        <ele>1987.7</ele>
        <time>2012-07-03T05:48:38Z</time>
      </trkpt>
      <trkpt lat="42.71871" lon="0.49936">
        <ele>1990.1</ele>
        <time>2012-07-03T05:48:53Z</time>
      </trkpt>
      <trkpt lat="42.71864" lon="0.49929">
        <ele>1991.5</ele>
        <time>2012-07-03T05:49:07Z</time>
      </trkpt>
      <trkpt lat="42.71861" lon="0.49923">
        <ele>1993.9</ele>
        <time>2012-07-03T05:49:19Z</time>
      </trkpt>
      <trkpt lat="42.71851" lon="0.49921">
        <ele>1995.8</ele>
        <time>2012-07-03T05:49:33Z</time>
      </trkpt>
      <trkpt lat="42.71842" lon="0.49921">
        <ele>1997.8</ele>
        <time>2012-07-03T05:49:47Z</time>
      </trkpt>
      <trkpt lat="42.71837" lon="0.49915">
        <ele>1999.2</ele>
        <time>2012-07-03T05:49:59Z</time>
      </trkpt>
      <trkpt lat="42.71837" lon="0.49909">
        <ele>1999.7</ele>
        <time>2012-07-03T05:50:06Z</time>
      </trkpt>
      <trkpt lat="42.71833" lon="0.49904">
        <ele>2001.6</ele>
        <time>2012-07-03T05:50:16Z</time>
      </trkpt>
      <trkpt lat="42.71826" lon="0.49906">
        <ele>2003.5</ele>
        <time>2012-07-03T05:50:28Z</time>
      </trkpt>
      <trkpt lat="42.71822" lon="0.49897">
        <ele>2005.5</ele>
        <time>2012-07-03T05:50:40Z</time>
      </trkpt>
      <trkpt lat="42.7182" lon="0.49887">
        <ele>2007.9</ele>
        <time>2012-07-03T05:50:53Z</time>
      </trkpt>
      <trkpt lat="42.71812" lon="0.4989">
        <ele>2009.8</ele>
        <time>2012-07-03T05:51:07Z</time>
      </trkpt>
      <trkpt lat="42.71804" lon="0.49892">
        <ele>2011.2</ele>
        <time>2012-07-03T05:51:22Z</time>
      </trkpt>
      <trkpt lat="42.71797" lon="0.49894">
        <ele>2013.6</ele>
        <time>2012-07-03T05:51:34Z</time>
      </trkpt>
      <trkpt lat="42.71796" lon="0.4989">
        <ele>2014.1</ele>
        <time>2012-07-03T05:51:37Z</time>
      </trkpt>
      <trkpt lat="42.71794" lon="0.49881">
        <ele>2016</ele>
        <time>2012-07-03T05:51:50Z</time>
      </trkpt>
      <trkpt lat="42.71787" lon="0.49883">
        <ele>2017.9</ele>
        <time>2012-07-03T05:52:02Z</time>
      </trkpt>
      <trkpt lat="42.71784" lon="0.49875">
        <ele>2019.4</ele>
        <time>2012-07-03T05:52:14Z</time>
      </trkpt>
      <trkpt lat="42.71779" lon="0.4987">
        <ele>2022.3</ele>
        <time>2012-07-03T05:52:27Z</time>
      </trkpt>
      <trkpt lat="42.71771" lon="0.4987">
        <ele>2024.2</ele>
        <time>2012-07-03T05:52:41Z</time>
      </trkpt>
      <trkpt lat="42.71763" lon="0.49871">
        <ele>2025.6</ele>
        <time>2012-07-03T05:52:53Z</time>
      </trkpt>
      <trkpt lat="42.71753" lon="0.49871">
        <ele>2028</ele>
        <time>2012-07-03T05:53:07Z</time>
      </trkpt>
      <trkpt lat="42.71744" lon="0.49868">
        <ele>2030.4</ele>
        <time>2012-07-03T05:53:20Z</time>
      </trkpt>
      <trkpt lat="42.71745" lon="0.49856">
        <ele>2032.4</ele>
        <time>2012-07-03T05:53:33Z</time>
      </trkpt>
      <trkpt lat="42.71747" lon="0.49845">
        <ele>2034.8</ele>
        <time>2012-07-03T05:53:46Z</time>
      </trkpt>
      <trkpt lat="42.71742" lon="0.4984">
        <ele>2037.2</ele>
        <time>2012-07-03T05:54:00Z</time>
      </trkpt>
      <trkpt lat="42.71736" lon="0.49839">
        <ele>2038.1</ele>
        <time>2012-07-03T05:54:08Z</time>
      </trkpt>
      <trkpt lat="42.71732" lon="0.49832">
        <ele>2040.1</ele>
        <time>2012-07-03T05:54:21Z</time>
      </trkpt>
      <trkpt lat="42.71734" lon="0.49827">
        <ele>2040.5</ele>
        <time>2012-07-03T05:54:27Z</time>
      </trkpt>
      <trkpt lat="42.71736" lon="0.49824">
        <ele>2041.5</ele>
        <time>2012-07-03T05:54:31Z</time>
      </trkpt>
      <trkpt lat="42.71739" lon="0.49818">
        <ele>2042.9</ele>
        <time>2012-07-03T05:54:44Z</time>
      </trkpt>
      <trkpt lat="42.71739" lon="0.49812">
        <ele>2044.4</ele>
        <time>2012-07-03T05:54:54Z</time>
      </trkpt>
      <trkpt lat="42.71732" lon="0.49812">
        <ele>2046.8</ele>
        <time>2012-07-03T05:55:07Z</time>
      </trkpt>
      <trkpt lat="42.7173" lon="0.49805">
        <ele>2048.2</ele>
        <time>2012-07-03T05:55:18Z</time>
      </trkpt>
      <trkpt lat="42.7173" lon="0.49797">
        <ele>2050.2</ele>
        <time>2012-07-03T05:55:30Z</time>
      </trkpt>
      <trkpt lat="42.7173" lon="0.49791">
        <ele>2052.6</ele>
        <time>2012-07-03T05:55:44Z</time>
      </trkpt>
      <trkpt lat="42.71723" lon="0.49789">
        <ele>2054</ele>
        <time>2012-07-03T05:55:56Z</time>
      </trkpt>
      <trkpt lat="42.71719" lon="0.4979">
        <ele>2055</ele>
        <time>2012-07-03T05:56:02Z</time>
      </trkpt>
      <trkpt lat="42.71713" lon="0.49785">
        <ele>2056.4</ele>
        <time>2012-07-03T05:56:16Z</time>
      </trkpt>
      <trkpt lat="42.71707" lon="0.49784">
        <ele>2058.8</ele>
        <time>2012-07-03T05:56:30Z</time>
      </trkpt>
      <trkpt lat="42.71701" lon="0.49786">
        <ele>2060.7</ele>
        <time>2012-07-03T05:56:41Z</time>
      </trkpt>
      <trkpt lat="42.71695" lon="0.49786">
        <ele>2062.7</ele>
        <time>2012-07-03T05:56:55Z</time>
      </trkpt>
      <trkpt lat="42.71684" lon="0.49789">
        <ele>2065.1</ele>
        <time>2012-07-03T05:57:09Z</time>
      </trkpt>
      <trkpt lat="42.71672" lon="0.49786">
        <ele>2067</ele>
        <time>2012-07-03T05:57:24Z</time>
      </trkpt>
      <trkpt lat="42.71666" lon="0.49785">
        <ele>2068.4</ele>
        <time>2012-07-03T05:57:32Z</time>
      </trkpt>
      <trkpt lat="42.71657" lon="0.49785">
        <ele>2069.9</ele>
        <time>2012-07-03T05:57:44Z</time>
      </trkpt>
      <trkpt lat="42.71651" lon="0.49785">
        <ele>2070.8</ele>
        <time>2012-07-03T05:57:52Z</time>
      </trkpt>
      <trkpt lat="42.71642" lon="0.49783">
        <ele>2072.7</ele>
        <time>2012-07-03T05:58:05Z</time>
      </trkpt>
      <trkpt lat="42.71635" lon="0.49779">
        <ele>2075.1</ele>
        <time>2012-07-03T05:58:19Z</time>
      </trkpt>
      <trkpt lat="42.71631" lon="0.49773">
        <ele>2077.1</ele>
        <time>2012-07-03T05:58:32Z</time>
      </trkpt>
      <trkpt lat="42.7162" lon="0.4977">
        <ele>2079.5</ele>
        <time>2012-07-03T05:58:48Z</time>
      </trkpt>
      <trkpt lat="42.71611" lon="0.49768">
        <ele>2081.4</ele>
        <time>2012-07-03T05:59:02Z</time>
      </trkpt>
      <trkpt lat="42.71603" lon="0.49763">
        <ele>2082.8</ele>
        <time>2012-07-03T05:59:14Z</time>
      </trkpt>
      <trkpt lat="42.71598" lon="0.49758">
        <ele>2083.8</ele>
        <time>2012-07-03T05:59:21Z</time>
      </trkpt>
      <trkpt lat="42.7159" lon="0.49757">
        <ele>2085.7</ele>
        <time>2012-07-03T05:59:34Z</time>
      </trkpt>
      <trkpt lat="42.71582" lon="0.49758">
        <ele>2087.6</ele>
        <time>2012-07-03T05:59:47Z</time>
      </trkpt>
      <trkpt lat="42.71577" lon="0.49759">
        <ele>2089.6</ele>
        <time>2012-07-03T05:59:58Z</time>
      </trkpt>
      <trkpt lat="42.7157" lon="0.49766">
        <ele>2091.5</ele>
        <time>2012-07-03T06:00:12Z</time>
      </trkpt>
      <trkpt lat="42.7157" lon="0.49766">
        <ele>2091.5</ele>
        <time>2012-07-03T06:00:36Z</time>
      </trkpt>
      <trkpt lat="42.7157" lon="0.49768">
        <ele>2092</ele>
        <time>2012-07-03T06:00:55Z</time>
      </trkpt>
      <trkpt lat="42.71569" lon="0.4977">
        <ele>2092.5</ele>
        <time>2012-07-03T06:00:57Z</time>
      </trkpt>
      <trkpt lat="42.71565" lon="0.49786">
        <ele>2092.5</ele>
        <time>2012-07-03T06:01:10Z</time>
      </trkpt>
      <trkpt lat="42.71559" lon="0.49797">
        <ele>2093.4</ele>
        <time>2012-07-03T06:01:23Z</time>
      </trkpt>
      <trkpt lat="42.71556" lon="0.49808">
        <ele>2094.4</ele>
        <time>2012-07-03T06:01:36Z</time>
      </trkpt>
      <trkpt lat="42.7155" lon="0.49824">
        <ele>2093.4</ele>
        <time>2012-07-03T06:01:50Z</time>
      </trkpt>
      <trkpt lat="42.71549" lon="0.4983">
        <ele>2092.9</ele>
        <time>2012-07-03T06:01:54Z</time>
      </trkpt>
      <trkpt lat="42.71546" lon="0.49834">
        <ele>2092.5</ele>
        <time>2012-07-03T06:01:58Z</time>
      </trkpt>
      <trkpt lat="42.71543" lon="0.49842">
        <ele>2092.9</ele>
        <time>2012-07-03T06:02:04Z</time>
      </trkpt>
      <trkpt lat="42.71542" lon="0.4985">
        <ele>2092.9</ele>
        <time>2012-07-03T06:02:10Z</time>
      </trkpt>
      <trkpt lat="42.71542" lon="0.49852">
        <ele>2092.9</ele>
        <time>2012-07-03T06:02:12Z</time>
      </trkpt>
      <trkpt lat="42.71539" lon="0.4987">
        <ele>2092.9</ele>
        <time>2012-07-03T06:02:25Z</time>
      </trkpt>
      <trkpt lat="42.71539" lon="0.4988">
        <ele>2093.9</ele>
        <time>2012-07-03T06:02:37Z</time>
      </trkpt>
      <trkpt lat="42.71539" lon="0.4988">
        <ele>2094.4</ele>
        <time>2012-07-03T06:02:59Z</time>
      </trkpt>
      <trkpt lat="42.71539" lon="0.4988">
        <ele>2093.9</ele>
        <time>2012-07-03T06:03:23Z</time>
      </trkpt>
      <trkpt lat="42.71539" lon="0.4988">
        <ele>2094.4</ele>
        <time>2012-07-03T06:03:45Z</time>
      </trkpt>
      <trkpt lat="42.71539" lon="0.4988">
        <ele>2094.4</ele>
        <time>2012-07-03T06:04:03Z</time>
      </trkpt>
      <trkpt lat="42.71539" lon="0.4988">
        <ele>2094.4</ele>
        <time>2012-07-03T06:04:28Z</time>
      </trkpt>
      <trkpt lat="42.71538" lon="0.4988">
        <ele>2094.4</ele>
        <time>2012-07-03T06:04:50Z</time>
      </trkpt>
      <trkpt lat="42.71538" lon="0.49882">
        <ele>2094.9</ele>
        <time>2012-07-03T06:05:10Z</time>
      </trkpt>
      <trkpt lat="42.71533" lon="0.49885">
        <ele>2096.8</ele>
        <time>2012-07-03T06:05:23Z</time>
      </trkpt>
      <trkpt lat="42.71528" lon="0.49884">
        <ele>2097.7</ele>
        <time>2012-07-03T06:05:30Z</time>
      </trkpt>
      <trkpt lat="42.71516" lon="0.49882">
        <ele>2099.7</ele>
        <time>2012-07-03T06:05:43Z</time>
      </trkpt>
      <trkpt lat="42.71507" lon="0.49878">
        <ele>2102.1</ele>
        <time>2012-07-03T06:05:57Z</time>
      </trkpt>
      <trkpt lat="42.71507" lon="0.49884">
        <ele>2104</ele>
        <time>2012-07-03T06:06:08Z</time>
      </trkpt>
      <trkpt lat="42.71508" lon="0.49892">
        <ele>2105.9</ele>
        <time>2012-07-03T06:06:20Z</time>
      </trkpt>
      <trkpt lat="42.71511" lon="0.49905">
        <ele>2107.4</ele>
        <time>2012-07-03T06:06:34Z</time>
      </trkpt>
      <trkpt lat="42.71513" lon="0.49917">
        <ele>2108.8</ele>
        <time>2012-07-03T06:06:46Z</time>
      </trkpt>
      <trkpt lat="42.71512" lon="0.49922">
        <ele>2109.3</ele>
        <time>2012-07-03T06:06:50Z</time>
      </trkpt>
      <trkpt lat="42.71508" lon="0.49931">
        <ele>2111.2</ele>
        <time>2012-07-03T06:07:01Z</time>
      </trkpt>
      <trkpt lat="42.71505" lon="0.49944">
        <ele>2113.1</ele>
        <time>2012-07-03T06:07:14Z</time>
      </trkpt>
      <trkpt lat="42.71504" lon="0.49948">
        <ele>2113.6</ele>
        <time>2012-07-03T06:07:19Z</time>
      </trkpt>
      <trkpt lat="42.715" lon="0.49963">
        <ele>2114.1</ele>
        <time>2012-07-03T06:07:32Z</time>
      </trkpt>
      <trkpt lat="42.71496" lon="0.49974">
        <ele>2115</ele>
        <time>2012-07-03T06:07:43Z</time>
      </trkpt>
      <trkpt lat="42.71496" lon="0.49976">
        <ele>2115</ele>
        <time>2012-07-03T06:07:45Z</time>
      </trkpt>
      <trkpt lat="42.71494" lon="0.49982">
        <ele>2115.5</ele>
        <time>2012-07-03T06:07:49Z</time>
      </trkpt>
      <trkpt lat="42.71492" lon="0.49986">
        <ele>2115.5</ele>
        <time>2012-07-03T06:07:52Z</time>
      </trkpt>
      <trkpt lat="42.71483" lon="0.49999">
        <ele>2116.5</ele>
        <time>2012-07-03T06:08:06Z</time>
      </trkpt>
      <trkpt lat="42.71477" lon="0.50009">
        <ele>2117.9</ele>
        <time>2012-07-03T06:08:18Z</time>
      </trkpt>
      <trkpt lat="42.71478" lon="0.50017">
        <ele>2119.4</ele>
        <time>2012-07-03T06:08:30Z</time>
      </trkpt>
      <trkpt lat="42.71478" lon="0.50022">
        <ele>2119.8</ele>
        <time>2012-07-03T06:08:34Z</time>
      </trkpt>
      <trkpt lat="42.71477" lon="0.50025">
        <ele>2120.8</ele>
        <time>2012-07-03T06:08:37Z</time>
      </trkpt>
      <trkpt lat="42.7147" lon="0.50038">
        <ele>2122.3</ele>
        <time>2012-07-03T06:08:52Z</time>
      </trkpt>
      <trkpt lat="42.7146" lon="0.5005">
        <ele>2123.7</ele>
        <time>2012-07-03T06:09:07Z</time>
      </trkpt>
      <trkpt lat="42.71459" lon="0.50058">
        <ele>2124.7</ele>
        <time>2012-07-03T06:09:17Z</time>
      </trkpt>
      <trkpt lat="42.71461" lon="0.50062">
        <ele>2125.1</ele>
        <time>2012-07-03T06:09:24Z</time>
      </trkpt>
      <trkpt lat="42.71466" lon="0.50069">
        <ele>2127.5</ele>
        <time>2012-07-03T06:09:36Z</time>
      </trkpt>
      <trkpt lat="42.71466" lon="0.5008">
        <ele>2129.9</ele>
        <time>2012-07-03T06:09:49Z</time>
      </trkpt>
      <trkpt lat="42.71463" lon="0.50086">
        <ele>2130.4</ele>
        <time>2012-07-03T06:09:56Z</time>
      </trkpt>
      <trkpt lat="42.71454" lon="0.50097">
        <ele>2131.9</ele>
        <time>2012-07-03T06:10:10Z</time>
      </trkpt>
      <trkpt lat="42.71446" lon="0.50101">
        <ele>2132.8</ele>
        <time>2012-07-03T06:10:21Z</time>
      </trkpt>
      <trkpt lat="42.71439" lon="0.50108">
        <ele>2133.8</ele>
        <time>2012-07-03T06:10:33Z</time>
      </trkpt>
      <trkpt lat="42.71436" lon="0.50112">
        <ele>2134.7</ele>
        <time>2012-07-03T06:10:38Z</time>
      </trkpt>
      <trkpt lat="42.7143" lon="0.50118">
        <ele>2135.7</ele>
        <time>2012-07-03T06:10:49Z</time>
      </trkpt>
      <trkpt lat="42.71426" lon="0.50127">
        <ele>2137.6</ele>
        <time>2012-07-03T06:11:01Z</time>
      </trkpt>
      <trkpt lat="42.71423" lon="0.50134">
        <ele>2140</ele>
        <time>2012-07-03T06:11:14Z</time>
      </trkpt>
      <trkpt lat="42.71423" lon="0.5014">
        <ele>2141</ele>
        <time>2012-07-03T06:11:25Z</time>
      </trkpt>
      <trkpt lat="42.7142" lon="0.50139">
        <ele>2142</ele>
        <time>2012-07-03T06:11:32Z</time>
      </trkpt>
      <trkpt lat="42.71418" lon="0.50138">
        <ele>2141.5</ele>
        <time>2012-07-03T06:11:34Z</time>
      </trkpt>
      <trkpt lat="42.71411" lon="0.50128">
        <ele>2142.4</ele>
        <time>2012-07-03T06:11:47Z</time>
      </trkpt>
      <trkpt lat="42.71405" lon="0.50114">
        <ele>2144.4</ele>
        <time>2012-07-03T06:12:02Z</time>
      </trkpt>
      <trkpt lat="42.714" lon="0.50105">
        <ele>2146.3</ele>
        <time>2012-07-03T06:12:15Z</time>
      </trkpt>
      <trkpt lat="42.71394" lon="0.50099">
        <ele>2147.2</ele>
        <time>2012-07-03T06:12:26Z</time>
      </trkpt>
      <trkpt lat="42.71387" lon="0.50091">
        <ele>2149.2</ele>
        <time>2012-07-03T06:12:39Z</time>
      </trkpt>
      <trkpt lat="42.71385" lon="0.5009">
        <ele>2149.7</ele>
        <time>2012-07-03T06:12:55Z</time>
      </trkpt>
      <trkpt lat="42.71384" lon="0.5009">
        <ele>2149.7</ele>
        <time>2012-07-03T06:12:56Z</time>
      </trkpt>
      <trkpt lat="42.7138" lon="0.50086">
        <ele>2150.6</ele>
        <time>2012-07-03T06:13:10Z</time>
      </trkpt>
      <trkpt lat="42.71373" lon="0.50084">
        <ele>2152.1</ele>
        <time>2012-07-03T06:13:20Z</time>
      </trkpt>
      <trkpt lat="42.71373" lon="0.50084">
        <ele>2152.5</ele>
        <time>2012-07-03T06:13:46Z</time>
      </trkpt>
      <trkpt lat="42.71373" lon="0.50084">
        <ele>2152.1</ele>
        <time>2012-07-03T06:14:15Z</time>
      </trkpt>
      <trkpt lat="42.71373" lon="0.50084">
        <ele>2152.5</ele>
        <time>2012-07-03T06:14:44Z</time>
      </trkpt>
      <trkpt lat="42.71369" lon="0.50082">
        <ele>2152.5</ele>
        <time>2012-07-03T06:15:00Z</time>
      </trkpt>
      <trkpt lat="42.71363" lon="0.5008">
        <ele>2153.5</ele>
        <time>2012-07-03T06:15:08Z</time>
      </trkpt>
      <trkpt lat="42.71354" lon="0.50075">
        <ele>2155.4</ele>
        <time>2012-07-03T06:15:22Z</time>
      </trkpt>
      <trkpt lat="42.71347" lon="0.5007">
        <ele>2156.9</ele>
        <time>2012-07-03T06:15:33Z</time>
      </trkpt>
      <trkpt lat="42.71339" lon="0.50068">
        <ele>2158.8</ele>
        <time>2012-07-03T06:15:44Z</time>
      </trkpt>
      <trkpt lat="42.71336" lon="0.50066">
        <ele>2159.3</ele>
        <time>2012-07-03T06:15:49Z</time>
      </trkpt>
      <trkpt lat="42.71333" lon="0.50064">
        <ele>2159.7</ele>
        <time>2012-07-03T06:15:53Z</time>
      </trkpt>
      <trkpt lat="42.71329" lon="0.50063">
        <ele>2159.7</ele>
        <time>2012-07-03T06:15:57Z</time>
      </trkpt>
      <trkpt lat="42.7132" lon="0.50057">
        <ele>2160.7</ele>
        <time>2012-07-03T06:16:09Z</time>
      </trkpt>
      <trkpt lat="42.71312" lon="0.50056">
        <ele>2162.6</ele>
        <time>2012-07-03T06:16:20Z</time>
      </trkpt>
      <trkpt lat="42.7131" lon="0.50058">
        <ele>2162.6</ele>
        <time>2012-07-03T06:16:22Z</time>
      </trkpt>
      <trkpt lat="42.71299" lon="0.50059">
        <ele>2164.1</ele>
        <time>2012-07-03T06:16:32Z</time>
      </trkpt>
      <trkpt lat="42.71293" lon="0.50053">
        <ele>2165</ele>
        <time>2012-07-03T06:16:42Z</time>
      </trkpt>
      <trkpt lat="42.71287" lon="0.50046">
        <ele>2166.5</ele>
        <time>2012-07-03T06:16:54Z</time>
      </trkpt>
      <trkpt lat="42.71283" lon="0.50041">
        <ele>2167.9</ele>
        <time>2012-07-03T06:17:06Z</time>
      </trkpt>
      <trkpt lat="42.71281" lon="0.50039">
        <ele>2168.9</ele>
        <time>2012-07-03T06:17:18Z</time>
      </trkpt>
      <trkpt lat="42.71279" lon="0.50038">
        <ele>2168.4</ele>
        <time>2012-07-03T06:17:20Z</time>
      </trkpt>
      <trkpt lat="42.71276" lon="0.50033">
        <ele>2169.4</ele>
        <time>2012-07-03T06:17:33Z</time>
      </trkpt>
      <trkpt lat="42.71267" lon="0.5003">
        <ele>2170.3</ele>
        <time>2012-07-03T06:17:43Z</time>
      </trkpt>
      <trkpt lat="42.71262" lon="0.50027">
        <ele>2172.7</ele>
        <time>2012-07-03T06:17:54Z</time>
      </trkpt>
      <trkpt lat="42.7126" lon="0.50018">
        <ele>2173.7</ele>
        <time>2012-07-03T06:18:05Z</time>
      </trkpt>
      <trkpt lat="42.71254" lon="0.50015">
        <ele>2175.6</ele>
        <time>2012-07-03T06:18:18Z</time>
      </trkpt>
      <trkpt lat="42.71252" lon="0.50015">
        <ele>2176.1</ele>
        <time>2012-07-03T06:18:20Z</time>
      </trkpt>
      <trkpt lat="42.71251" lon="0.50016">
        <ele>2176.1</ele>
        <time>2012-07-03T06:18:22Z</time>
      </trkpt>
      <trkpt lat="42.71244" lon="0.50011">
        <ele>2178</ele>
        <time>2012-07-03T06:18:35Z</time>
      </trkpt>
      <trkpt lat="42.71241" lon="0.50008">
        <ele>2179.5</ele>
        <time>2012-07-03T06:18:46Z</time>
      </trkpt>
      <trkpt lat="42.7124" lon="0.50006">
        <ele>2181.4</ele>
        <time>2012-07-03T06:18:59Z</time>
      </trkpt>
      <trkpt lat="42.71235" lon="0.49999">
        <ele>2183.3</ele>
        <time>2012-07-03T06:19:12Z</time>
      </trkpt>
      <trkpt lat="42.71233" lon="0.49995">
        <ele>2185.2</ele>
        <time>2012-07-03T06:19:24Z</time>
      </trkpt>
      <trkpt lat="42.71228" lon="0.49993">
        <ele>2185.7</ele>
        <time>2012-07-03T06:19:37Z</time>
      </trkpt>
      <trkpt lat="42.71228" lon="0.49994">
        <ele>2187.6</ele>
        <time>2012-07-03T06:19:49Z</time>
      </trkpt>
      <trkpt lat="42.71228" lon="0.49995">
        <ele>2189.5</ele>
        <time>2012-07-03T06:20:02Z</time>
      </trkpt>
      <trkpt lat="42.71227" lon="0.50005">
        <ele>2190.5</ele>
        <time>2012-07-03T06:20:16Z</time>
      </trkpt>
      <trkpt lat="42.71226" lon="0.50008">
        <ele>2192.4</ele>
        <time>2012-07-03T06:20:27Z</time>
      </trkpt>
      <trkpt lat="42.71227" lon="0.50018">
        <ele>2193.9</ele>
        <time>2012-07-03T06:20:40Z</time>
      </trkpt>
      <trkpt lat="42.71227" lon="0.50032">
        <ele>2194.8</ele>
        <time>2012-07-03T06:20:50Z</time>
      </trkpt>
      <trkpt lat="42.71229" lon="0.50041">
        <ele>2196.3</ele>
        <time>2012-07-03T06:21:03Z</time>
      </trkpt>
      <trkpt lat="42.7123" lon="0.50051">
        <ele>2197.7</ele>
        <time>2012-07-03T06:21:16Z</time>
      </trkpt>
      <trkpt lat="42.71228" lon="0.50058">
        <ele>2199.2</ele>
        <time>2012-07-03T06:21:26Z</time>
      </trkpt>
      <trkpt lat="42.71229" lon="0.50068">
        <ele>2200.6</ele>
        <time>2012-07-03T06:21:38Z</time>
      </trkpt>
      <trkpt lat="42.71228" lon="0.50077">
        <ele>2202.5</ele>
        <time>2012-07-03T06:21:51Z</time>
      </trkpt>
      <trkpt lat="42.71231" lon="0.50085">
        <ele>2204</ele>
        <time>2012-07-03T06:22:05Z</time>
      </trkpt>
      <trkpt lat="42.71233" lon="0.5009">
        <ele>2205.9</ele>
        <time>2012-07-03T06:22:18Z</time>
      </trkpt>
      <trkpt lat="42.71238" lon="0.50095">
        <ele>2207.8</ele>
        <time>2012-07-03T06:22:28Z</time>
      </trkpt>
      <trkpt lat="42.71247" lon="0.501">
        <ele>2209.3</ele>
        <time>2012-07-03T06:22:43Z</time>
      </trkpt>
      <trkpt lat="42.71247" lon="0.50107">
        <ele>2210.7</ele>
        <time>2012-07-03T06:22:56Z</time>
      </trkpt>
      <trkpt lat="42.71241" lon="0.50111">
        <ele>2213.6</ele>
        <time>2012-07-03T06:23:12Z</time>
      </trkpt>
      <trkpt lat="42.71241" lon="0.50111">
        <ele>2214.1</ele>
        <time>2012-07-03T06:23:16Z</time>
      </trkpt>
      <trkpt lat="42.71236" lon="0.50115">
        <ele>2216.5</ele>
        <time>2012-07-03T06:23:29Z</time>
      </trkpt>
      <trkpt lat="42.71233" lon="0.50115">
        <ele>2216.9</ele>
        <time>2012-07-03T06:23:39Z</time>
      </trkpt>
      <trkpt lat="42.71222" lon="0.50118">
        <ele>2218.9</ele>
        <time>2012-07-03T06:23:50Z</time>
      </trkpt>
      <trkpt lat="42.71213" lon="0.50121">
        <ele>2220.8</ele>
        <time>2012-07-03T06:24:02Z</time>
      </trkpt>
      <trkpt lat="42.71216" lon="0.5012">
        <ele>2222.7</ele>
        <time>2012-07-03T06:24:15Z</time>
      </trkpt>
      <trkpt lat="42.71215" lon="0.50124">
        <ele>2224.6</ele>
        <time>2012-07-03T06:24:27Z</time>
      </trkpt>
      <trkpt lat="42.71211" lon="0.50127">
        <ele>2226.1</ele>
        <time>2012-07-03T06:24:39Z</time>
      </trkpt>
      <trkpt lat="42.71208" lon="0.50131">
        <ele>2228</ele>
        <time>2012-07-03T06:24:51Z</time>
      </trkpt>
      <trkpt lat="42.71207" lon="0.50132">
        <ele>2229</ele>
        <time>2012-07-03T06:25:03Z</time>
      </trkpt>
      <trkpt lat="42.71216" lon="0.50137">
        <ele>2231.4</ele>
        <time>2012-07-03T06:25:17Z</time>
      </trkpt>
      <trkpt lat="42.71223" lon="0.50137">
        <ele>2233.3</ele>
        <time>2012-07-03T06:25:30Z</time>
      </trkpt>
      <trkpt lat="42.71227" lon="0.50138">
        <ele>2234.7</ele>
        <time>2012-07-03T06:25:42Z</time>
      </trkpt>
      <trkpt lat="42.71231" lon="0.50139">
        <ele>2235.7</ele>
        <time>2012-07-03T06:25:53Z</time>
      </trkpt>
      <trkpt lat="42.71232" lon="0.50139">
        <ele>2235.7</ele>
        <time>2012-07-03T06:25:56Z</time>
      </trkpt>
      <trkpt lat="42.71239" lon="0.5014">
        <ele>2237.6</ele>
        <time>2012-07-03T06:26:09Z</time>
      </trkpt>
      <trkpt lat="42.71242" lon="0.50142">
        <ele>2238.6</ele>
        <time>2012-07-03T06:26:25Z</time>
      </trkpt>
      <trkpt lat="42.71241" lon="0.50144">
        <ele>2240.5</ele>
        <time>2012-07-03T06:26:35Z</time>
      </trkpt>
      <trkpt lat="42.71232" lon="0.50154">
        <ele>2242.4</ele>
        <time>2012-07-03T06:26:49Z</time>
      </trkpt>
      <trkpt lat="42.71235" lon="0.50152">
        <ele>2243.9</ele>
        <time>2012-07-03T06:27:00Z</time>
      </trkpt>
      <trkpt lat="42.7124" lon="0.50152">
        <ele>2245.3</ele>
        <time>2012-07-03T06:27:11Z</time>
      </trkpt>
      <trkpt lat="42.71243" lon="0.50151">
        <ele>2245.8</ele>
        <time>2012-07-03T06:27:18Z</time>
      </trkpt>
      <trkpt lat="42.71249" lon="0.50143">
        <ele>2246.3</ele>
        <time>2012-07-03T06:27:29Z</time>
      </trkpt>
      <trkpt lat="42.71257" lon="0.50139">
        <ele>2244.8</ele>
        <time>2012-07-03T06:27:41Z</time>
      </trkpt>
      <trkpt lat="42.71262" lon="0.50138">
        <ele>2244.3</ele>
        <time>2012-07-03T06:27:45Z</time>
      </trkpt>
      <trkpt lat="42.71264" lon="0.50137">
        <ele>2244.3</ele>
        <time>2012-07-03T06:27:47Z</time>
      </trkpt>
      <trkpt lat="42.71271" lon="0.50141">
        <ele>2244.8</ele>
        <time>2012-07-03T06:27:57Z</time>
      </trkpt>
      <trkpt lat="42.71277" lon="0.50148">
        <ele>2247.2</ele>
        <time>2012-07-03T06:28:10Z</time>
      </trkpt>
      <trkpt lat="42.71282" lon="0.50155">
        <ele>2249.6</ele>
        <time>2012-07-03T06:28:23Z</time>
      </trkpt>
      <trkpt lat="42.71288" lon="0.50164">
        <ele>2252</ele>
        <time>2012-07-03T06:28:38Z</time>
      </trkpt>
      <trkpt lat="42.71288" lon="0.50164">
        <ele>2252.5</ele>
        <time>2012-07-03T06:28:57Z</time>
      </trkpt>
      <trkpt lat="42.71288" lon="0.50166">
        <ele>2253</ele>
        <time>2012-07-03T06:29:21Z</time>
      </trkpt>
      <trkpt lat="42.71282" lon="0.50169">
        <ele>2253</ele>
        <time>2012-07-03T06:29:35Z</time>
      </trkpt>
      <trkpt lat="42.71279" lon="0.50171">
        <ele>2255.9</ele>
        <time>2012-07-03T06:29:48Z</time>
      </trkpt>
      <trkpt lat="42.71285" lon="0.50176">
        <ele>2257.3</ele>
        <time>2012-07-03T06:30:01Z</time>
      </trkpt>
      <trkpt lat="42.71289" lon="0.50181">
        <ele>2259.2</ele>
        <time>2012-07-03T06:30:12Z</time>
      </trkpt>
      <trkpt lat="42.7129" lon="0.50183">
        <ele>2259.7</ele>
        <time>2012-07-03T06:30:14Z</time>
      </trkpt>
      <trkpt lat="42.71291" lon="0.50186">
        <ele>2259.7</ele>
        <time>2012-07-03T06:30:16Z</time>
      </trkpt>
      <trkpt lat="42.71291" lon="0.50202">
        <ele>2259.7</ele>
        <time>2012-07-03T06:30:31Z</time>
      </trkpt>
      <trkpt lat="42.71293" lon="0.50209">
        <ele>2259.7</ele>
        <time>2012-07-03T06:30:38Z</time>
      </trkpt>
      <trkpt lat="42.71295" lon="0.50213">
        <ele>2259.7</ele>
        <time>2012-07-03T06:30:42Z</time>
      </trkpt>
      <trkpt lat="42.71296" lon="0.50221">
        <ele>2261.6</ele>
        <time>2012-07-03T06:30:53Z</time>
      </trkpt>
      <trkpt lat="42.713" lon="0.50229">
        <ele>2262.6</ele>
        <time>2012-07-03T06:31:04Z</time>
      </trkpt>
      <trkpt lat="42.71304" lon="0.50238">
        <ele>2265.5</ele>
        <time>2012-07-03T06:31:17Z</time>
      </trkpt>
      <trkpt lat="42.71308" lon="0.50245">
        <ele>2266.5</ele>
        <time>2012-07-03T06:31:28Z</time>
      </trkpt>
      <trkpt lat="42.71309" lon="0.50248">
        <ele>2267.4</ele>
        <time>2012-07-03T06:31:42Z</time>
      </trkpt>
      <trkpt lat="42.71313" lon="0.50259">
        <ele>2269.3</ele>
        <time>2012-07-03T06:31:56Z</time>
      </trkpt>
      <trkpt lat="42.71317" lon="0.50265">
        <ele>2271.3</ele>
        <time>2012-07-03T06:32:08Z</time>
      </trkpt>
      <trkpt lat="42.71317" lon="0.50273">
        <ele>2273.7</ele>
        <time>2012-07-03T06:32:20Z</time>
      </trkpt>
      <trkpt lat="42.7132" lon="0.50277">
        <ele>2273.7</ele>
        <time>2012-07-03T06:32:27Z</time>
      </trkpt>
      <trkpt lat="42.71323" lon="0.50279">
        <ele>2274.1</ele>
        <time>2012-07-03T06:32:31Z</time>
      </trkpt>
      <trkpt lat="42.71323" lon="0.50287">
        <ele>2275.1</ele>
        <time>2012-07-03T06:32:42Z</time>
      </trkpt>
      <trkpt lat="42.71322" lon="0.50299">
        <ele>2276.5</ele>
        <time>2012-07-03T06:32:56Z</time>
      </trkpt>
      <trkpt lat="42.71321" lon="0.50306">
        <ele>2278.5</ele>
        <time>2012-07-03T06:33:09Z</time>
      </trkpt>
      <trkpt lat="42.71323" lon="0.50316">
        <ele>2281.4</ele>
        <time>2012-07-03T06:33:21Z</time>
      </trkpt>
      <trkpt lat="42.71325" lon="0.50324">
        <ele>2282.3</ele>
        <time>2012-07-03T06:33:36Z</time>
      </trkpt>
      <trkpt lat="42.71323" lon="0.50333">
        <ele>2284.2</ele>
        <time>2012-07-03T06:33:49Z</time>
      </trkpt>
      <trkpt lat="42.71324" lon="0.50344">
        <ele>2286.2</ele>
        <time>2012-07-03T06:34:02Z</time>
      </trkpt>
      <trkpt lat="42.71324" lon="0.50354">
        <ele>2287.6</ele>
        <time>2012-07-03T06:34:15Z</time>
      </trkpt>
      <trkpt lat="42.7132" lon="0.50359">
        <ele>2289.5</ele>
        <time>2012-07-03T06:34:28Z</time>
      </trkpt>
      <trkpt lat="42.71317" lon="0.50363">
        <ele>2291</ele>
        <time>2012-07-03T06:34:41Z</time>
      </trkpt>
      <trkpt lat="42.71315" lon="0.50369">
        <ele>2292.9</ele>
        <time>2012-07-03T06:34:52Z</time>
      </trkpt>
      <trkpt lat="42.7131" lon="0.50379">
        <ele>2295.3</ele>
        <time>2012-07-03T06:35:07Z</time>
      </trkpt>
      <trkpt lat="42.71307" lon="0.50389">
        <ele>2296.7</ele>
        <time>2012-07-03T06:35:20Z</time>
      </trkpt>
      <trkpt lat="42.71307" lon="0.50391">
        <ele>2298.2</ele>
        <time>2012-07-03T06:35:24Z</time>
      </trkpt>
      <trkpt lat="42.71303" lon="0.50401">
        <ele>2299.6</ele>
        <time>2012-07-03T06:35:37Z</time>
      </trkpt>
      <trkpt lat="42.71306" lon="0.50408">
        <ele>2301.1</ele>
        <time>2012-07-03T06:35:49Z</time>
      </trkpt>
      <trkpt lat="42.71312" lon="0.50412">
        <ele>2303</ele>
        <time>2012-07-03T06:36:03Z</time>
      </trkpt>
      <trkpt lat="42.71317" lon="0.50417">
        <ele>2304.4</ele>
        <time>2012-07-03T06:36:14Z</time>
      </trkpt>
      <trkpt lat="42.71315" lon="0.50425">
        <ele>2305.9</ele>
        <time>2012-07-03T06:36:26Z</time>
      </trkpt>
      <trkpt lat="42.71311" lon="0.50434">
        <ele>2307.8</ele>
        <time>2012-07-03T06:36:38Z</time>
      </trkpt>
      <trkpt lat="42.7131" lon="0.5044">
        <ele>2309.7</ele>
        <time>2012-07-03T06:36:51Z</time>
      </trkpt>
      <trkpt lat="42.71307" lon="0.50449">
        <ele>2311.6</ele>
        <time>2012-07-03T06:37:04Z</time>
      </trkpt>
      <trkpt lat="42.71305" lon="0.50458">
        <ele>2313.1</ele>
        <time>2012-07-03T06:37:16Z</time>
      </trkpt>
      <trkpt lat="42.71306" lon="0.50466">
        <ele>2314.5</ele>
        <time>2012-07-03T06:37:28Z</time>
      </trkpt>
      <trkpt lat="42.71306" lon="0.50475">
        <ele>2316</ele>
        <time>2012-07-03T06:37:39Z</time>
      </trkpt>
      <trkpt lat="42.71307" lon="0.50482">
        <ele>2317.9</ele>
        <time>2012-07-03T06:37:51Z</time>
      </trkpt>
      <trkpt lat="42.71308" lon="0.50491">
        <ele>2319.3</ele>
        <time>2012-07-03T06:38:03Z</time>
      </trkpt>
      <trkpt lat="42.71308" lon="0.50499">
        <ele>2321.2</ele>
        <time>2012-07-03T06:38:16Z</time>
      </trkpt>
      <trkpt lat="42.7131" lon="0.50509">
        <ele>2323.2</ele>
        <time>2012-07-03T06:38:30Z</time>
      </trkpt>
      <trkpt lat="42.71305" lon="0.5051">
        <ele>2324.1</ele>
        <time>2012-07-03T06:38:41Z</time>
      </trkpt>
      <trkpt lat="42.71299" lon="0.50509">
        <ele>2325.6</ele>
        <time>2012-07-03T06:38:51Z</time>
      </trkpt>
      <trkpt lat="42.71295" lon="0.50505">
        <ele>2327</ele>
        <time>2012-07-03T06:38:59Z</time>
      </trkpt>
      <trkpt lat="42.71291" lon="0.50505">
        <ele>2328.5</ele>
        <time>2012-07-03T06:39:12Z</time>
      </trkpt>
      <trkpt lat="42.71285" lon="0.50502">
        <ele>2331.8</ele>
        <time>2012-07-03T06:39:24Z</time>
      </trkpt>
      <trkpt lat="42.71279" lon="0.50498">
        <ele>2331.8</ele>
        <time>2012-07-03T06:39:37Z</time>
      </trkpt>
      <trkpt lat="42.71273" lon="0.50492">
        <ele>2334.2</ele>
        <time>2012-07-03T06:39:52Z</time>
      </trkpt>
      <trkpt lat="42.71269" lon="0.50485">
        <ele>2335.2</ele>
        <time>2012-07-03T06:40:05Z</time>
      </trkpt>
      <trkpt lat="42.71264" lon="0.5048">
        <ele>2337.6</ele>
        <time>2012-07-03T06:40:18Z</time>
      </trkpt>
      <trkpt lat="42.71256" lon="0.5048">
        <ele>2339</ele>
        <time>2012-07-03T06:40:30Z</time>
      </trkpt>
      <trkpt lat="42.71252" lon="0.50474">
        <ele>2341</ele>
        <time>2012-07-03T06:40:39Z</time>
      </trkpt>
      <trkpt lat="42.71246" lon="0.50466">
        <ele>2341.9</ele>
        <time>2012-07-03T06:40:53Z</time>
      </trkpt>
      <trkpt lat="42.71245" lon="0.50473">
        <ele>2344.3</ele>
        <time>2012-07-03T06:41:08Z</time>
      </trkpt>
      <trkpt lat="42.71238" lon="0.50472">
        <ele>2345.8</ele>
        <time>2012-07-03T06:41:20Z</time>
      </trkpt>
      <trkpt lat="42.71235" lon="0.50471">
        <ele>2347.7</ele>
        <time>2012-07-03T06:41:26Z</time>
      </trkpt>
      <trkpt lat="42.71229" lon="0.50473">
        <ele>2347.7</ele>
        <time>2012-07-03T06:41:38Z</time>
      </trkpt>
      <trkpt lat="42.71225" lon="0.50476">
        <ele>2349.6</ele>
        <time>2012-07-03T06:41:51Z</time>
      </trkpt>
      <trkpt lat="42.71223" lon="0.50478">
        <ele>2351.5</ele>
        <time>2012-07-03T06:42:03Z</time>
      </trkpt>
      <trkpt lat="42.71222" lon="0.50484">
        <ele>2352</ele>
        <time>2012-07-03T06:42:13Z</time>
      </trkpt>
      <trkpt lat="42.71215" lon="0.50485">
        <ele>2354.9</ele>
        <time>2012-07-03T06:42:28Z</time>
      </trkpt>
      <trkpt lat="42.71215" lon="0.50492">
        <ele>2357.8</ele>
        <time>2012-07-03T06:42:41Z</time>
      </trkpt>
      <trkpt lat="42.71217" lon="0.50499">
        <ele>2358.7</ele>
        <time>2012-07-03T06:42:52Z</time>
      </trkpt>
      <trkpt lat="42.71212" lon="0.505">
        <ele>2360.2</ele>
        <time>2012-07-03T06:43:04Z</time>
      </trkpt>
      <trkpt lat="42.71208" lon="0.50496">
        <ele>2362.1</ele>
        <time>2012-07-03T06:43:16Z</time>
      </trkpt>
      <trkpt lat="42.71203" lon="0.50492">
        <ele>2363.5</ele>
        <time>2012-07-03T06:43:27Z</time>
      </trkpt>
      <trkpt lat="42.71202" lon="0.50496">
        <ele>2365</ele>
        <time>2012-07-03T06:43:37Z</time>
      </trkpt>
      <trkpt lat="42.71201" lon="0.50505">
        <ele>2367.4</ele>
        <time>2012-07-03T06:43:50Z</time>
      </trkpt>
      <trkpt lat="42.71203" lon="0.50512">
        <ele>2368.4</ele>
        <time>2012-07-03T06:44:03Z</time>
      </trkpt>
      <trkpt lat="42.71201" lon="0.50512">
        <ele>2368.4</ele>
        <time>2012-07-03T06:44:06Z</time>
      </trkpt>
      <trkpt lat="42.712" lon="0.50508">
        <ele>2369.8</ele>
        <time>2012-07-03T06:44:09Z</time>
      </trkpt>
      <trkpt lat="42.71197" lon="0.50505">
        <ele>2371.2</ele>
        <time>2012-07-03T06:44:22Z</time>
      </trkpt>
      <trkpt lat="42.71194" lon="0.50499">
        <ele>2372.7</ele>
        <time>2012-07-03T06:44:31Z</time>
      </trkpt>
      <trkpt lat="42.71192" lon="0.50492">
        <ele>2374.6</ele>
        <time>2012-07-03T06:44:44Z</time>
      </trkpt>
      <trkpt lat="42.71184" lon="0.50491">
        <ele>2376</ele>
        <time>2012-07-03T06:44:57Z</time>
      </trkpt>
      <trkpt lat="42.71177" lon="0.50489">
        <ele>2377.5</ele>
        <time>2012-07-03T06:45:09Z</time>
      </trkpt>
      <trkpt lat="42.71171" lon="0.50492">
        <ele>2379.4</ele>
        <time>2012-07-03T06:45:22Z</time>
      </trkpt>
      <trkpt lat="42.71162" lon="0.50491">
        <ele>2380.4</ele>
        <time>2012-07-03T06:45:34Z</time>
      </trkpt>
      <trkpt lat="42.71159" lon="0.50492">
        <ele>2382.3</ele>
        <time>2012-07-03T06:45:42Z</time>
      </trkpt>
      <trkpt lat="42.71158" lon="0.50497">
        <ele>2383.7</ele>
        <time>2012-07-03T06:45:53Z</time>
      </trkpt>
      <trkpt lat="42.71158" lon="0.50508">
        <ele>2385.2</ele>
        <time>2012-07-03T06:46:05Z</time>
      </trkpt>
      <trkpt lat="42.71162" lon="0.50517">
        <ele>2387.1</ele>
        <time>2012-07-03T06:46:19Z</time>
      </trkpt>
      <trkpt lat="42.71163" lon="0.50522">
        <ele>2388.1</ele>
        <time>2012-07-03T06:46:30Z</time>
      </trkpt>
      <trkpt lat="42.71167" lon="0.50525">
        <ele>2389</ele>
        <time>2012-07-03T06:46:41Z</time>
      </trkpt>
      <trkpt lat="42.71162" lon="0.50529">
        <ele>2390.9</ele>
        <time>2012-07-03T06:46:53Z</time>
      </trkpt>
      <trkpt lat="42.71155" lon="0.5053">
        <ele>2392.4</ele>
        <time>2012-07-03T06:47:06Z</time>
      </trkpt>
      <trkpt lat="42.71154" lon="0.50532">
        <ele>2394.8</ele>
        <time>2012-07-03T06:47:17Z</time>
      </trkpt>
      <trkpt lat="42.71158" lon="0.50539">
        <ele>2396.7</ele>
        <time>2012-07-03T06:47:31Z</time>
      </trkpt>
      <trkpt lat="42.71158" lon="0.50544">
        <ele>2398.6</ele>
        <time>2012-07-03T06:47:45Z</time>
      </trkpt>
      <trkpt lat="42.71149" lon="0.50544">
        <ele>2401</ele>
        <time>2012-07-03T06:47:59Z</time>
      </trkpt>
      <trkpt lat="42.71145" lon="0.50546">
        <ele>2403</ele>
        <time>2012-07-03T06:48:12Z</time>
      </trkpt>
      <trkpt lat="42.71151" lon="0.50553">
        <ele>2404.9</ele>
        <time>2012-07-03T06:48:25Z</time>
      </trkpt>
      <trkpt lat="42.71154" lon="0.50555">
        <ele>2406.3</ele>
        <time>2012-07-03T06:48:34Z</time>
      </trkpt>
      <trkpt lat="42.71157" lon="0.50559">
        <ele>2407.8</ele>
        <time>2012-07-03T06:48:50Z</time>
      </trkpt>
      <trkpt lat="42.71157" lon="0.50559">
        <ele>2407.3</ele>
        <time>2012-07-03T06:49:17Z</time>
      </trkpt>
      <trkpt lat="42.71157" lon="0.5056">
        <ele>2407.8</ele>
        <time>2012-07-03T06:49:37Z</time>
      </trkpt>
      <trkpt lat="42.71157" lon="0.5056">
        <ele>2408.2</ele>
        <time>2012-07-03T06:49:57Z</time>
      </trkpt>
      <trkpt lat="42.71158" lon="0.5056">
        <ele>2408.2</ele>
        <time>2012-07-03T06:50:25Z</time>
      </trkpt>
      <trkpt lat="42.71159" lon="0.50564">
        <ele>2408.2</ele>
        <time>2012-07-03T06:50:31Z</time>
      </trkpt>
      <trkpt lat="42.71157" lon="0.50575">
        <ele>2410.2</ele>
        <time>2012-07-03T06:50:44Z</time>
      </trkpt>
      <trkpt lat="42.71158" lon="0.50577">
        <ele>2411.6</ele>
        <time>2012-07-03T06:50:47Z</time>
      </trkpt>
      <trkpt lat="42.7116" lon="0.50583">
        <ele>2411.6</ele>
        <time>2012-07-03T06:50:53Z</time>
      </trkpt>
      <trkpt lat="42.71158" lon="0.50583">
        <ele>2413.1</ele>
        <time>2012-07-03T06:50:58Z</time>
      </trkpt>
      <trkpt lat="42.71151" lon="0.5058">
        <ele>2414</ele>
        <time>2012-07-03T06:51:07Z</time>
      </trkpt>
      <trkpt lat="42.71143" lon="0.50574">
        <ele>2415.5</ele>
        <time>2012-07-03T06:51:21Z</time>
      </trkpt>
      <trkpt lat="42.71137" lon="0.50574">
        <ele>2417.4</ele>
        <time>2012-07-03T06:51:34Z</time>
      </trkpt>
      <trkpt lat="42.71137" lon="0.50575">
        <ele>2418.3</ele>
        <time>2012-07-03T06:51:48Z</time>
      </trkpt>
      <trkpt lat="42.71138" lon="0.50579">
        <ele>2419.3</ele>
        <time>2012-07-03T06:52:08Z</time>
      </trkpt>
      <trkpt lat="42.71139" lon="0.50582">
        <ele>2420.3</ele>
        <time>2012-07-03T06:52:15Z</time>
      </trkpt>
      <trkpt lat="42.71138" lon="0.50584">
        <ele>2422.7</ele>
        <time>2012-07-03T06:52:23Z</time>
      </trkpt>
      <trkpt lat="42.71132" lon="0.50582">
        <ele>2423.1</ele>
        <time>2012-07-03T06:52:37Z</time>
      </trkpt>
      <trkpt lat="42.71133" lon="0.5059">
        <ele>2424.6</ele>
        <time>2012-07-03T06:52:44Z</time>
      </trkpt>
      <trkpt lat="42.71136" lon="0.50593">
        <ele>2424.6</ele>
        <time>2012-07-03T06:52:48Z</time>
      </trkpt>
      <trkpt lat="42.71137" lon="0.50599">
        <ele>2424.6</ele>
        <time>2012-07-03T06:52:54Z</time>
      </trkpt>
      <trkpt lat="42.71139" lon="0.50602">
        <ele>2425.5</ele>
        <time>2012-07-03T06:52:57Z</time>
      </trkpt>
      <trkpt lat="42.71138" lon="0.50605">
        <ele>2426.5</ele>
        <time>2012-07-03T06:53:03Z</time>
      </trkpt>
      <trkpt lat="42.71132" lon="0.50603">
        <ele>2428</ele>
        <time>2012-07-03T06:53:14Z</time>
      </trkpt>
      <trkpt lat="42.71126" lon="0.50605">
        <ele>2429.9</ele>
        <time>2012-07-03T06:53:25Z</time>
      </trkpt>
      <trkpt lat="42.71121" lon="0.50602">
        <ele>2431.8</ele>
        <time>2012-07-03T06:53:36Z</time>
      </trkpt>
      <trkpt lat="42.71116" lon="0.50601">
        <ele>2433.7</ele>
        <time>2012-07-03T06:53:48Z</time>
      </trkpt>
      <trkpt lat="42.71114" lon="0.50602">
        <ele>2435.6</ele>
        <time>2012-07-03T06:54:01Z</time>
      </trkpt>
      <trkpt lat="42.71117" lon="0.50609">
        <ele>2437.1</ele>
        <time>2012-07-03T06:54:12Z</time>
      </trkpt>
      <trkpt lat="42.71117" lon="0.5061">
        <ele>2437.6</ele>
        <time>2012-07-03T06:54:13Z</time>
      </trkpt>
      <trkpt lat="42.71119" lon="0.5062">
        <ele>2439.5</ele>
        <time>2012-07-03T06:54:27Z</time>
      </trkpt>
      <trkpt lat="42.71115" lon="0.50624">
        <ele>2440.9</ele>
        <time>2012-07-03T06:54:39Z</time>
      </trkpt>
      <trkpt lat="42.7111" lon="0.5062">
        <ele>2442.9</ele>
        <time>2012-07-03T06:54:51Z</time>
      </trkpt>
      <trkpt lat="42.71106" lon="0.50616">
        <ele>2443.8</ele>
        <time>2012-07-03T06:55:02Z</time>
      </trkpt>
      <trkpt lat="42.71101" lon="0.50614">
        <ele>2445.7</ele>
        <time>2012-07-03T06:55:14Z</time>
      </trkpt>
      <trkpt lat="42.71098" lon="0.50608">
        <ele>2447.7</ele>
        <time>2012-07-03T06:55:27Z</time>
      </trkpt>
      <trkpt lat="42.71095" lon="0.50605">
        <ele>2449.1</ele>
        <time>2012-07-03T06:55:38Z</time>
      </trkpt>
      <trkpt lat="42.7109" lon="0.50602">
        <ele>2451.5</ele>
        <time>2012-07-03T06:55:50Z</time>
      </trkpt>
      <trkpt lat="42.71087" lon="0.50602">
        <ele>2452.5</ele>
        <time>2012-07-03T06:56:01Z</time>
      </trkpt>
      <trkpt lat="42.71087" lon="0.50605">
        <ele>2453.4</ele>
        <time>2012-07-03T06:56:14Z</time>
      </trkpt>
      <trkpt lat="42.71084" lon="0.50604">
        <ele>2454.9</ele>
        <time>2012-07-03T06:56:27Z</time>
      </trkpt>
      <trkpt lat="42.71084" lon="0.50604">
        <ele>2456.8</ele>
        <time>2012-07-03T06:56:39Z</time>
      </trkpt>
      <trkpt lat="42.71079" lon="0.50603">
        <ele>2458.2</ele>
        <time>2012-07-03T06:56:49Z</time>
      </trkpt>
      <trkpt lat="42.71079" lon="0.50605">
        <ele>2460.2</ele>
        <time>2012-07-03T06:57:02Z</time>
      </trkpt>
      <trkpt lat="42.71081" lon="0.50609">
        <ele>2460.2</ele>
        <time>2012-07-03T06:57:13Z</time>
      </trkpt>
      <trkpt lat="42.71081" lon="0.50614">
        <ele>2462.1</ele>
        <time>2012-07-03T06:57:26Z</time>
      </trkpt>
      <trkpt lat="42.71078" lon="0.50613">
        <ele>2463.5</ele>
        <time>2012-07-03T06:57:40Z</time>
      </trkpt>
      <trkpt lat="42.71074" lon="0.50615">
        <ele>2465.4</ele>
        <time>2012-07-03T06:57:52Z</time>
      </trkpt>
      <trkpt lat="42.71073" lon="0.50615">
        <ele>2467.8</ele>
        <time>2012-07-03T06:58:05Z</time>
      </trkpt>
      <trkpt lat="42.71071" lon="0.50622">
        <ele>2470.7</ele>
        <time>2012-07-03T06:58:20Z</time>
      </trkpt>
      <trkpt lat="42.71071" lon="0.50622">
        <ele>2473.1</ele>
        <time>2012-07-03T06:58:32Z</time>
      </trkpt>
      <trkpt lat="42.71068" lon="0.50628">
        <ele>2474.1</ele>
        <time>2012-07-03T06:58:42Z</time>
      </trkpt>
      <trkpt lat="42.71066" lon="0.5063">
        <ele>2474.1</ele>
        <time>2012-07-03T06:58:53Z</time>
      </trkpt>
      <trkpt lat="42.71058" lon="0.50632">
        <ele>2477</ele>
        <time>2012-07-03T06:59:03Z</time>
      </trkpt>
      <trkpt lat="42.71051" lon="0.50642">
        <ele>2477.9</ele>
        <time>2012-07-03T06:59:15Z</time>
      </trkpt>
      <trkpt lat="42.71048" lon="0.50646">
        <ele>2477.9</ele>
        <time>2012-07-03T06:59:27Z</time>
      </trkpt>
      <trkpt lat="42.7104" lon="0.50654">
        <ele>2479.4</ele>
        <time>2012-07-03T06:59:39Z</time>
      </trkpt>
      <trkpt lat="42.71035" lon="0.50657">
        <ele>2480.3</ele>
        <time>2012-07-03T06:59:49Z</time>
      </trkpt>
      <trkpt lat="42.71033" lon="0.50656">
        <ele>2481.3</ele>
        <time>2012-07-03T06:59:59Z</time>
      </trkpt>
      <trkpt lat="42.71027" lon="0.5066">
        <ele>2482.7</ele>
        <time>2012-07-03T07:00:13Z</time>
      </trkpt>
      <trkpt lat="42.71022" lon="0.50665">
        <ele>2484.2</ele>
        <time>2012-07-03T07:00:26Z</time>
      </trkpt>
      <trkpt lat="42.71015" lon="0.50671">
        <ele>2486.6</ele>
        <time>2012-07-03T07:00:38Z</time>
      </trkpt>
      <trkpt lat="42.71011" lon="0.50674">
        <ele>2486.6</ele>
        <time>2012-07-03T07:00:43Z</time>
      </trkpt>
      <trkpt lat="42.71006" lon="0.50682">
        <ele>2487.6</ele>
        <time>2012-07-03T07:00:54Z</time>
      </trkpt>
      <trkpt lat="42.70998" lon="0.50688">
        <ele>2488.5</ele>
        <time>2012-07-03T07:01:06Z</time>
      </trkpt>
      <trkpt lat="42.70989" lon="0.50692">
        <ele>2490.4</ele>
        <time>2012-07-03T07:01:19Z</time>
      </trkpt>
      <trkpt lat="42.70981" lon="0.50693">
        <ele>2491.9</ele>
        <time>2012-07-03T07:01:31Z</time>
      </trkpt>
      <trkpt lat="42.70973" lon="0.50696">
        <ele>2493.3</ele>
        <time>2012-07-03T07:01:43Z</time>
      </trkpt>
      <trkpt lat="42.7097" lon="0.50697">
        <ele>2494.3</ele>
        <time>2012-07-03T07:01:57Z</time>
      </trkpt>
      <trkpt lat="42.70966" lon="0.50703">
        <ele>2496.2</ele>
        <time>2012-07-03T07:02:07Z</time>
      </trkpt>
      <trkpt lat="42.70962" lon="0.50703">
        <ele>2498.6</ele>
        <time>2012-07-03T07:02:18Z</time>
      </trkpt>
      <trkpt lat="42.70953" lon="0.50702">
        <ele>2499.6</ele>
        <time>2012-07-03T07:02:31Z</time>
      </trkpt>
      <trkpt lat="42.70945" lon="0.50697">
        <ele>2500.5</ele>
        <time>2012-07-03T07:02:41Z</time>
      </trkpt>
      <trkpt lat="42.70937" lon="0.50698">
        <ele>2501</ele>
        <time>2012-07-03T07:02:50Z</time>
      </trkpt>
      <trkpt lat="42.70927" lon="0.507">
        <ele>2501.5</ele>
        <time>2012-07-03T07:03:03Z</time>
      </trkpt>
      <trkpt lat="42.70918" lon="0.50703">
        <ele>2502.5</ele>
        <time>2012-07-03T07:03:17Z</time>
      </trkpt>
      <trkpt lat="42.70911" lon="0.50705">
        <ele>2504.4</ele>
        <time>2012-07-03T07:03:30Z</time>
      </trkpt>
      <trkpt lat="42.709" lon="0.5071">
        <ele>2503.4</ele>
        <time>2012-07-03T07:03:43Z</time>
      </trkpt>
      <trkpt lat="42.70899" lon="0.50711">
        <ele>2502.9</ele>
        <time>2012-07-03T07:03:44Z</time>
      </trkpt>
      <trkpt lat="42.7089" lon="0.5072">
        <ele>2504.4</ele>
        <time>2012-07-03T07:03:58Z</time>
      </trkpt>
      <trkpt lat="42.70882" lon="0.50718">
        <ele>2506.8</ele>
        <time>2012-07-03T07:04:12Z</time>
      </trkpt>
      <trkpt lat="42.70876" lon="0.50717">
        <ele>2507.3</ele>
        <time>2012-07-03T07:04:22Z</time>
      </trkpt>
      <trkpt lat="42.70871" lon="0.50719">
        <ele>2507.3</ele>
        <time>2012-07-03T07:04:27Z</time>
      </trkpt>
      <trkpt lat="42.7086" lon="0.50723">
        <ele>2509.7</ele>
        <time>2012-07-03T07:04:41Z</time>
      </trkpt>
      <trkpt lat="42.70853" lon="0.50726">
        <ele>2511.1</ele>
        <time>2012-07-03T07:04:52Z</time>
      </trkpt>
      <trkpt lat="42.70851" lon="0.50726">
        <ele>2511.6</ele>
        <time>2012-07-03T07:04:54Z</time>
      </trkpt>
      <trkpt lat="42.70846" lon="0.50727">
        <ele>2513</ele>
        <time>2012-07-03T07:05:07Z</time>
      </trkpt>
      <trkpt lat="42.70846" lon="0.50727">
        <ele>2513.5</ele>
        <time>2012-07-03T07:05:34Z</time>
      </trkpt>
      <trkpt lat="42.70846" lon="0.50727">
        <ele>2513.5</ele>
        <time>2012-07-03T07:05:39Z</time>
      </trkpt>
      <trkpt lat="42.70842" lon="0.50729">
        <ele>2513.5</ele>
        <time>2012-07-03T07:05:56Z</time>
      </trkpt>
      <trkpt lat="42.70841" lon="0.50729">
        <ele>2513.5</ele>
        <time>2012-07-03T07:05:57Z</time>
      </trkpt>
      <trkpt lat="42.70832" lon="0.50728">
        <ele>2515</ele>
        <time>2012-07-03T07:06:09Z</time>
      </trkpt>
      <trkpt lat="42.70831" lon="0.50728">
        <ele>2515</ele>
        <time>2012-07-03T07:06:10Z</time>
      </trkpt>
      <trkpt lat="42.70826" lon="0.50726">
        <ele>2515</ele>
        <time>2012-07-03T07:06:15Z</time>
      </trkpt>
      <trkpt lat="42.70823" lon="0.50728">
        <ele>2514.5</ele>
        <time>2012-07-03T07:06:18Z</time>
      </trkpt>
      <trkpt lat="42.70818" lon="0.50728">
        <ele>2515.4</ele>
        <time>2012-07-03T07:06:24Z</time>
      </trkpt>
      <trkpt lat="42.70814" lon="0.50728">
        <ele>2514.5</ele>
        <time>2012-07-03T07:06:29Z</time>
      </trkpt>
      <trkpt lat="42.70812" lon="0.50728">
        <ele>2515</ele>
        <time>2012-07-03T07:06:31Z</time>
      </trkpt>
      <trkpt lat="42.70805" lon="0.50729">
        <ele>2517.4</ele>
        <time>2012-07-03T07:06:46Z</time>
      </trkpt>
      <trkpt lat="42.70805" lon="0.50729">
        <ele>2517.4</ele>
        <time>2012-07-03T07:06:50Z</time>
      </trkpt>
      <trkpt lat="42.70803" lon="0.50713">
        <ele>2517.4</ele>
        <time>2012-07-03T07:07:01Z</time>
      </trkpt>
      <trkpt lat="42.70798" lon="0.50702">
        <ele>2518.8</ele>
        <time>2012-07-03T07:07:13Z</time>
      </trkpt>
      <trkpt lat="42.7079" lon="0.50696">
        <ele>2520.7</ele>
        <time>2012-07-03T07:07:27Z</time>
      </trkpt>
      <trkpt lat="42.70782" lon="0.5069">
        <ele>2521.7</ele>
        <time>2012-07-03T07:07:41Z</time>
      </trkpt>
      <trkpt lat="42.70778" lon="0.5069">
        <ele>2522.2</ele>
        <time>2012-07-03T07:07:52Z</time>
      </trkpt>
      <trkpt lat="42.70778" lon="0.5069">
        <ele>2522.2</ele>
        <time>2012-07-03T07:08:16Z</time>
      </trkpt>
      <trkpt lat="42.70777" lon="0.5069">
        <ele>2522.2</ele>
        <time>2012-07-03T07:08:32Z</time>
      </trkpt>
      <trkpt lat="42.70774" lon="0.5069">
        <ele>2521.7</ele>
        <time>2012-07-03T07:08:36Z</time>
      </trkpt>
      <trkpt lat="42.70765" lon="0.50692">
        <ele>2519.8</ele>
        <time>2012-07-03T07:08:47Z</time>
      </trkpt>
      <trkpt lat="42.70757" lon="0.50695">
        <ele>2516.9</ele>
        <time>2012-07-03T07:08:58Z</time>
      </trkpt>
      <trkpt lat="42.70749" lon="0.50695">
        <ele>2514</ele>
        <time>2012-07-03T07:09:09Z</time>
      </trkpt>
      <trkpt lat="42.70748" lon="0.50694">
        <ele>2513.5</ele>
        <time>2012-07-03T07:09:12Z</time>
      </trkpt>
      <trkpt lat="42.70744" lon="0.50692">
        <ele>2513.5</ele>
        <time>2012-07-03T07:09:16Z</time>
      </trkpt>
      <trkpt lat="42.70738" lon="0.50687">
        <ele>2513</ele>
        <time>2012-07-03T07:09:23Z</time>
      </trkpt>
      <trkpt lat="42.70735" lon="0.50683">
        <ele>2513</ele>
        <time>2012-07-03T07:09:39Z</time>
      </trkpt>
      <trkpt lat="42.70734" lon="0.50684">
        <ele>2513</ele>
        <time>2012-07-03T07:09:42Z</time>
      </trkpt>
      <trkpt lat="42.70733" lon="0.50681">
        <ele>2512.5</ele>
        <time>2012-07-03T07:09:45Z</time>
      </trkpt>
      <trkpt lat="42.70727" lon="0.5068">
        <ele>2511.6</ele>
        <time>2012-07-03T07:10:01Z</time>
      </trkpt>
      <trkpt lat="42.70721" lon="0.50679">
        <ele>2511.1</ele>
        <time>2012-07-03T07:10:06Z</time>
      </trkpt>
      <trkpt lat="42.70715" lon="0.50676">
        <ele>2510.1</ele>
        <time>2012-07-03T07:10:19Z</time>
      </trkpt>
      <trkpt lat="42.70709" lon="0.50672">
        <ele>2510.1</ele>
        <time>2012-07-03T07:10:29Z</time>
      </trkpt>
      <trkpt lat="42.70708" lon="0.50666">
        <ele>2510.1</ele>
        <time>2012-07-03T07:10:41Z</time>
      </trkpt>
      <trkpt lat="42.70701" lon="0.50659">
        <ele>2511.6</ele>
        <time>2012-07-03T07:10:53Z</time>
      </trkpt>
      <trkpt lat="42.70695" lon="0.50656">
        <ele>2512.1</ele>
        <time>2012-07-03T07:11:05Z</time>
      </trkpt>
      <trkpt lat="42.70692" lon="0.50654">
        <ele>2513.5</ele>
        <time>2012-07-03T07:11:11Z</time>
      </trkpt>
      <trkpt lat="42.70684" lon="0.50653">
        <ele>2515.4</ele>
        <time>2012-07-03T07:11:23Z</time>
      </trkpt>
      <trkpt lat="42.70678" lon="0.5065">
        <ele>2516.9</ele>
        <time>2012-07-03T07:11:37Z</time>
      </trkpt>
      <trkpt lat="42.70678" lon="0.5065">
        <ele>2516.4</ele>
        <time>2012-07-03T07:11:39Z</time>
      </trkpt>
      <trkpt lat="42.70673" lon="0.5065">
        <ele>2516.9</ele>
        <time>2012-07-03T07:11:48Z</time>
      </trkpt>
      <trkpt lat="42.70666" lon="0.50652">
        <ele>2517.4</ele>
        <time>2012-07-03T07:12:01Z</time>
      </trkpt>
      <trkpt lat="42.70663" lon="0.50659">
        <ele>2516.4</ele>
        <time>2012-07-03T07:12:14Z</time>
      </trkpt>
      <trkpt lat="42.70656" lon="0.50663">
        <ele>2515.4</ele>
        <time>2012-07-03T07:12:26Z</time>
      </trkpt>
      <trkpt lat="42.70653" lon="0.50665">
        <ele>2515</ele>
        <time>2012-07-03T07:12:39Z</time>
      </trkpt>
      <trkpt lat="42.70649" lon="0.50668">
        <ele>2514.5</ele>
        <time>2012-07-03T07:12:51Z</time>
      </trkpt>
      <trkpt lat="42.70647" lon="0.50671">
        <ele>2513.5</ele>
        <time>2012-07-03T07:13:02Z</time>
      </trkpt>
      <trkpt lat="42.70642" lon="0.5068">
        <ele>2511.6</ele>
        <time>2012-07-03T07:13:14Z</time>
      </trkpt>
      <trkpt lat="42.70636" lon="0.50687">
        <ele>2511.1</ele>
        <time>2012-07-03T07:13:25Z</time>
      </trkpt>
      <trkpt lat="42.70633" lon="0.50692">
        <ele>2511.1</ele>
        <time>2012-07-03T07:13:31Z</time>
      </trkpt>
      <trkpt lat="42.70631" lon="0.50695">
        <ele>2511.1</ele>
        <time>2012-07-03T07:13:34Z</time>
      </trkpt>
      <trkpt lat="42.70623" lon="0.50706">
        <ele>2513</ele>
        <time>2012-07-03T07:13:47Z</time>
      </trkpt>
      <trkpt lat="42.7062" lon="0.50708">
        <ele>2513.5</ele>
        <time>2012-07-03T07:13:51Z</time>
      </trkpt>
      <trkpt lat="42.70612" lon="0.50713">
        <ele>2515.4</ele>
        <time>2012-07-03T07:14:02Z</time>
      </trkpt>
      <trkpt lat="42.70609" lon="0.50714">
        <ele>2515.4</ele>
        <time>2012-07-03T07:14:06Z</time>
      </trkpt>
      <trkpt lat="42.70605" lon="0.50718">
        <ele>2516.4</ele>
        <time>2012-07-03T07:14:11Z</time>
      </trkpt>
      <trkpt lat="42.706" lon="0.50718">
        <ele>2515.9</ele>
        <time>2012-07-03T07:14:15Z</time>
      </trkpt>
      <trkpt lat="42.70592" lon="0.50724">
        <ele>2516.9</ele>
        <time>2012-07-03T07:14:24Z</time>
      </trkpt>
      <trkpt lat="42.7059" lon="0.5073">
        <ele>2516.9</ele>
        <time>2012-07-03T07:14:29Z</time>
      </trkpt>
      <trkpt lat="42.70588" lon="0.50733">
        <ele>2516.4</ele>
        <time>2012-07-03T07:14:32Z</time>
      </trkpt>
      <trkpt lat="42.70584" lon="0.50735">
        <ele>2516.4</ele>
        <time>2012-07-03T07:14:37Z</time>
      </trkpt>
      <trkpt lat="42.70581" lon="0.50742">
        <ele>2515.9</ele>
        <time>2012-07-03T07:14:42Z</time>
      </trkpt>
      <trkpt lat="42.7058" lon="0.50745">
        <ele>2515.9</ele>
        <time>2012-07-03T07:14:44Z</time>
      </trkpt>
      <trkpt lat="42.70569" lon="0.50751">
        <ele>2517.8</ele>
        <time>2012-07-03T07:14:58Z</time>
      </trkpt>
      <trkpt lat="42.70562" lon="0.50751">
        <ele>2520.2</ele>
        <time>2012-07-03T07:15:08Z</time>
      </trkpt>
      <trkpt lat="42.70557" lon="0.50751">
        <ele>2522.6</ele>
        <time>2012-07-03T07:15:20Z</time>
      </trkpt>
      <trkpt lat="42.70557" lon="0.50748">
        <ele>2523.1</ele>
        <time>2012-07-03T07:15:23Z</time>
      </trkpt>
      <trkpt lat="42.70552" lon="0.50745">
        <ele>2525</ele>
        <time>2012-07-03T07:15:34Z</time>
      </trkpt>
      <trkpt lat="42.70548" lon="0.50743">
        <ele>2527.9</ele>
        <time>2012-07-03T07:15:40Z</time>
      </trkpt>
      <trkpt lat="42.70545" lon="0.5074">
        <ele>2529.4</ele>
        <time>2012-07-03T07:15:51Z</time>
      </trkpt>
      <trkpt lat="42.70544" lon="0.5074">
        <ele>2529.9</ele>
        <time>2012-07-03T07:15:53Z</time>
      </trkpt>
      <trkpt lat="42.70543" lon="0.50742">
        <ele>2530.3</ele>
        <time>2012-07-03T07:16:00Z</time>
      </trkpt>
      <trkpt lat="42.70541" lon="0.50744">
        <ele>2530.3</ele>
        <time>2012-07-03T07:16:03Z</time>
      </trkpt>
      <trkpt lat="42.70539" lon="0.50746">
        <ele>2530.3</ele>
        <time>2012-07-03T07:16:05Z</time>
      </trkpt>
      <trkpt lat="42.70537" lon="0.50748">
        <ele>2530.8</ele>
        <time>2012-07-03T07:16:08Z</time>
      </trkpt>
      <trkpt lat="42.70532" lon="0.50756">
        <ele>2530.3</ele>
        <time>2012-07-03T07:16:17Z</time>
      </trkpt>
      <trkpt lat="42.7052" lon="0.50765">
        <ele>2528.9</ele>
        <time>2012-07-03T07:16:31Z</time>
      </trkpt>
      <trkpt lat="42.70519" lon="0.50766">
        <ele>2529.9</ele>
        <time>2012-07-03T07:16:32Z</time>
      </trkpt>
      <trkpt lat="42.70511" lon="0.50771">
        <ele>2528.4</ele>
        <time>2012-07-03T07:16:41Z</time>
      </trkpt>
      <trkpt lat="42.7051" lon="0.50774">
        <ele>2528.4</ele>
        <time>2012-07-03T07:16:44Z</time>
      </trkpt>
      <trkpt lat="42.70506" lon="0.50778">
        <ele>2527.9</ele>
        <time>2012-07-03T07:16:50Z</time>
      </trkpt>
      <trkpt lat="42.70499" lon="0.50783">
        <ele>2527.4</ele>
        <time>2012-07-03T07:16:57Z</time>
      </trkpt>
      <trkpt lat="42.70491" lon="0.50784">
        <ele>2527.9</ele>
        <time>2012-07-03T07:17:04Z</time>
      </trkpt>
      <trkpt lat="42.70487" lon="0.50783">
        <ele>2528.9</ele>
        <time>2012-07-03T07:17:16Z</time>
      </trkpt>
      <trkpt lat="42.70482" lon="0.50774">
        <ele>2529.4</ele>
        <time>2012-07-03T07:17:28Z</time>
      </trkpt>
      <trkpt lat="42.70474" lon="0.50768">
        <ele>2531.8</ele>
        <time>2012-07-03T07:17:39Z</time>
      </trkpt>
      <trkpt lat="42.70473" lon="0.50769">
        <ele>2531.8</ele>
        <time>2012-07-03T07:17:40Z</time>
      </trkpt>
      <trkpt lat="42.70468" lon="0.50772">
        <ele>2531.3</ele>
        <time>2012-07-03T07:17:45Z</time>
      </trkpt>
      <trkpt lat="42.70466" lon="0.50771">
        <ele>2531.3</ele>
        <time>2012-07-03T07:17:47Z</time>
      </trkpt>
      <trkpt lat="42.70463" lon="0.50774">
        <ele>2531.3</ele>
        <time>2012-07-03T07:17:58Z</time>
      </trkpt>
      <trkpt lat="42.70463" lon="0.50773">
        <ele>2531.3</ele>
        <time>2012-07-03T07:18:18Z</time>
      </trkpt>
      <trkpt lat="42.70463" lon="0.50773">
        <ele>2531.3</ele>
        <time>2012-07-03T07:18:40Z</time>
      </trkpt>
      <trkpt lat="42.70461" lon="0.50775">
        <ele>2531.3</ele>
        <time>2012-07-03T07:18:49Z</time>
      </trkpt>
      <trkpt lat="42.70459" lon="0.5078">
        <ele>2531.3</ele>
        <time>2012-07-03T07:19:00Z</time>
      </trkpt>
      <trkpt lat="42.70457" lon="0.50781">
        <ele>2531.3</ele>
        <time>2012-07-03T07:19:02Z</time>
      </trkpt>
      <trkpt lat="42.70453" lon="0.50783">
        <ele>2531.3</ele>
        <time>2012-07-03T07:19:05Z</time>
      </trkpt>
      <trkpt lat="42.70442" lon="0.50783">
        <ele>2532.7</ele>
        <time>2012-07-03T07:19:17Z</time>
      </trkpt>
      <trkpt lat="42.70435" lon="0.50787">
        <ele>2534.7</ele>
        <time>2012-07-03T07:19:31Z</time>
      </trkpt>
      <trkpt lat="42.70429" lon="0.50792">
        <ele>2538.5</ele>
        <time>2012-07-03T07:19:42Z</time>
      </trkpt>
      <trkpt lat="42.70424" lon="0.50789">
        <ele>2539.5</ele>
        <time>2012-07-03T07:19:53Z</time>
      </trkpt>
      <trkpt lat="42.70423" lon="0.5078">
        <ele>2541.4</ele>
        <time>2012-07-03T07:20:05Z</time>
      </trkpt>
      <trkpt lat="42.70422" lon="0.50776">
        <ele>2543.8</ele>
        <time>2012-07-03T07:20:17Z</time>
      </trkpt>
      <trkpt lat="42.70422" lon="0.50774">
        <ele>2545.2</ele>
        <time>2012-07-03T07:20:31Z</time>
      </trkpt>
      <trkpt lat="42.70424" lon="0.50768">
        <ele>2547.6</ele>
        <time>2012-07-03T07:20:44Z</time>
      </trkpt>
      <trkpt lat="42.7042" lon="0.50769">
        <ele>2550</ele>
        <time>2012-07-03T07:20:55Z</time>
      </trkpt>
      <trkpt lat="42.70414" lon="0.50772">
        <ele>2551.5</ele>
        <time>2012-07-03T07:21:06Z</time>
      </trkpt>
      <trkpt lat="42.70408" lon="0.50775">
        <ele>2552</ele>
        <time>2012-07-03T07:21:13Z</time>
      </trkpt>
      <trkpt lat="42.70405" lon="0.50778">
        <ele>2552.4</ele>
        <time>2012-07-03T07:21:17Z</time>
      </trkpt>
      <trkpt lat="42.70398" lon="0.50787">
        <ele>2554.8</ele>
        <time>2012-07-03T07:21:28Z</time>
      </trkpt>
      <trkpt lat="42.70395" lon="0.50801">
        <ele>2554.4</ele>
        <time>2012-07-03T07:21:39Z</time>
      </trkpt>
      <trkpt lat="42.70394" lon="0.50807">
        <ele>2555.3</ele>
        <time>2012-07-03T07:21:43Z</time>
      </trkpt>
      <trkpt lat="42.7039" lon="0.50816">
        <ele>2554.4</ele>
        <time>2012-07-03T07:21:58Z</time>
      </trkpt>
      <trkpt lat="42.70386" lon="0.50815">
        <ele>2553.4</ele>
        <time>2012-07-03T07:22:12Z</time>
      </trkpt>
      <trkpt lat="42.70386" lon="0.50815">
        <ele>2553.9</ele>
        <time>2012-07-03T07:22:33Z</time>
      </trkpt>
      <trkpt lat="42.70386" lon="0.50816">
        <ele>2552.9</ele>
        <time>2012-07-03T07:22:40Z</time>
      </trkpt>
      <trkpt lat="42.70378" lon="0.50808">
        <ele>2550</ele>
        <time>2012-07-03T08:06:36Z</time>
      </trkpt>
      <trkpt lat="42.7039" lon="0.50817">
        <ele>2550.5</ele>
        <time>2012-07-03T08:07:05Z</time>
      </trkpt>
      <trkpt lat="42.7039" lon="0.50815">
        <ele>2550.5</ele>
        <time>2012-07-03T08:07:28Z</time>
      </trkpt>
      <trkpt lat="42.70386" lon="0.50815">
        <ele>2550.5</ele>
        <time>2012-07-03T08:07:51Z</time>
      </trkpt>
      <trkpt lat="42.70385" lon="0.50816">
        <ele>2550.5</ele>
        <time>2012-07-03T08:08:16Z</time>
      </trkpt>
      <trkpt lat="42.70385" lon="0.50816">
        <ele>2550</ele>
        <time>2012-07-03T08:08:33Z</time>
      </trkpt>
      <trkpt lat="42.70385" lon="0.50816">
        <ele>2550.5</ele>
        <time>2012-07-03T08:08:36Z</time>
      </trkpt>
      <trkpt lat="42.70384" lon="0.50815">
        <ele>2550.5</ele>
        <time>2012-07-03T08:08:48Z</time>
      </trkpt>
      <trkpt lat="42.70384" lon="0.50815">
        <ele>2550</ele>
        <time>2012-07-03T08:09:18Z</time>
      </trkpt>
      <trkpt lat="42.70384" lon="0.50816">
        <ele>2550.5</ele>
        <time>2012-07-03T08:09:44Z</time>
      </trkpt>
      <trkpt lat="42.70383" lon="0.50814">
        <ele>2550.5</ele>
        <time>2012-07-03T08:10:12Z</time>
      </trkpt>
      <trkpt lat="42.70383" lon="0.50814">
        <ele>2550.5</ele>
        <time>2012-07-03T08:10:37Z</time>
      </trkpt>
      <trkpt lat="42.70384" lon="0.50815">
        <ele>2550.5</ele>
        <time>2012-07-03T08:11:09Z</time>
      </trkpt>
      <trkpt lat="42.70384" lon="0.50815">
        <ele>2550.5</ele>
        <time>2012-07-03T08:11:41Z</time>
      </trkpt>
      <trkpt lat="42.70385" lon="0.50815">
        <ele>2550.5</ele>
        <time>2012-07-03T08:12:13Z</time>
      </trkpt>
      <trkpt lat="42.70385" lon="0.50815">
        <ele>2550.5</ele>
        <time>2012-07-03T08:12:41Z</time>
      </trkpt>
      <trkpt lat="42.70384" lon="0.50816">
        <ele>2550.5</ele>
        <time>2012-07-03T08:13:11Z</time>
      </trkpt>
      <trkpt lat="42.70384" lon="0.50816">
        <ele>2551.5</ele>
        <time>2012-07-03T08:13:26Z</time>
      </trkpt>
      <trkpt lat="42.70385" lon="0.50817">
        <ele>2551.5</ele>
        <time>2012-07-03T08:13:40Z</time>
      </trkpt>
      <trkpt lat="42.70385" lon="0.50817">
        <ele>2554.8</ele>
        <time>2012-07-03T08:13:53Z</time>
      </trkpt>
      <trkpt lat="42.70385" lon="0.50817">
        <ele>2558.2</ele>
        <time>2012-07-03T08:14:00Z</time>
      </trkpt>
      <trkpt lat="42.70385" lon="0.50817">
        <ele>2561.1</ele>
        <time>2012-07-03T08:14:09Z</time>
      </trkpt>
      <trkpt lat="42.70385" lon="0.50817">
        <ele>2564.5</ele>
        <time>2012-07-03T08:14:23Z</time>
      </trkpt>
      <trkpt lat="42.70385" lon="0.50816">
        <ele>2566.4</ele>
        <time>2012-07-03T08:14:48Z</time>
      </trkpt>
      <trkpt lat="42.70385" lon="0.50816">
        <ele>2566.4</ele>
        <time>2012-07-03T08:15:09Z</time>
      </trkpt>
      <trkpt lat="42.70385" lon="0.50816">
        <ele>2566.4</ele>
        <time>2012-07-03T08:15:17Z</time>
      </trkpt>
      <trkpt lat="42.70381" lon="0.50826">
        <ele>2565.9</ele>
        <time>2012-07-03T08:15:29Z</time>
      </trkpt>
      <trkpt lat="42.7038" lon="0.50828">
        <ele>2565.9</ele>
        <time>2012-07-03T08:15:32Z</time>
      </trkpt>
      <trkpt lat="42.70376" lon="0.50833">
        <ele>2565.4</ele>
        <time>2012-07-03T08:15:41Z</time>
      </trkpt>
      <trkpt lat="42.70377" lon="0.50831">
        <ele>2565.4</ele>
        <time>2012-07-03T08:15:58Z</time>
      </trkpt>
      <trkpt lat="42.70377" lon="0.50827">
        <ele>2565.4</ele>
        <time>2012-07-03T08:16:11Z</time>
      </trkpt>
      <trkpt lat="42.70373" lon="0.50836">
        <ele>2564.9</ele>
        <time>2012-07-03T08:16:27Z</time>
      </trkpt>
      <trkpt lat="42.70365" lon="0.50842">
        <ele>2565.4</ele>
        <time>2012-07-03T08:16:39Z</time>
      </trkpt>
      <trkpt lat="42.70355" lon="0.50842">
        <ele>2566.9</ele>
        <time>2012-07-03T08:16:51Z</time>
      </trkpt>
      <trkpt lat="42.7035" lon="0.50833">
        <ele>2567.8</ele>
        <time>2012-07-03T08:17:02Z</time>
      </trkpt>
      <trkpt lat="42.70344" lon="0.50828">
        <ele>2567.3</ele>
        <time>2012-07-03T08:17:14Z</time>
      </trkpt>
      <trkpt lat="42.70343" lon="0.5083">
        <ele>2567.3</ele>
        <time>2012-07-03T08:17:24Z</time>
      </trkpt>
      <trkpt lat="42.70345" lon="0.50835">
        <ele>2567.3</ele>
        <time>2012-07-03T08:17:41Z</time>
      </trkpt>
      <trkpt lat="42.70347" lon="0.50852">
        <ele>2567.3</ele>
        <time>2012-07-03T08:17:53Z</time>
      </trkpt>
      <trkpt lat="42.70347" lon="0.50856">
        <ele>2567.3</ele>
        <time>2012-07-03T08:17:55Z</time>
      </trkpt>
      <trkpt lat="42.70347" lon="0.50859">
        <ele>2567.3</ele>
        <time>2012-07-03T08:17:57Z</time>
      </trkpt>
      <trkpt lat="42.70348" lon="0.50878">
        <ele>2567.3</ele>
        <time>2012-07-03T08:18:11Z</time>
      </trkpt>
      <trkpt lat="42.70348" lon="0.50879">
        <ele>2567.8</ele>
        <time>2012-07-03T08:18:29Z</time>
      </trkpt>
      <trkpt lat="42.70347" lon="0.50879">
        <ele>2567.8</ele>
        <time>2012-07-03T08:18:55Z</time>
      </trkpt>
      <trkpt lat="42.70348" lon="0.5088">
        <ele>2567.8</ele>
        <time>2012-07-03T08:19:15Z</time>
      </trkpt>
      <trkpt lat="42.70348" lon="0.5088">
        <ele>2567.8</ele>
        <time>2012-07-03T08:19:24Z</time>
      </trkpt>
      <trkpt lat="42.70347" lon="0.50883">
        <ele>2567.3</ele>
        <time>2012-07-03T08:19:26Z</time>
      </trkpt>
      <trkpt lat="42.70348" lon="0.50889">
        <ele>2567.3</ele>
        <time>2012-07-03T08:19:30Z</time>
      </trkpt>
      <trkpt lat="42.70347" lon="0.50898">
        <ele>2567.8</ele>
        <time>2012-07-03T08:19:36Z</time>
      </trkpt>
      <trkpt lat="42.70348" lon="0.50905">
        <ele>2567.8</ele>
        <time>2012-07-03T08:19:53Z</time>
      </trkpt>
      <trkpt lat="42.70348" lon="0.50906">
        <ele>2567.8</ele>
        <time>2012-07-03T08:19:54Z</time>
      </trkpt>
      <trkpt lat="42.70349" lon="0.50923">
        <ele>2567.8</ele>
        <time>2012-07-03T08:20:07Z</time>
      </trkpt>
      <trkpt lat="42.70348" lon="0.50934">
        <ele>2567.8</ele>
        <time>2012-07-03T08:20:15Z</time>
      </trkpt>
      <trkpt lat="42.70349" lon="0.50948">
        <ele>2567.8</ele>
        <time>2012-07-03T08:20:25Z</time>
      </trkpt>
      <trkpt lat="42.70349" lon="0.50958">
        <ele>2567.8</ele>
        <time>2012-07-03T08:20:33Z</time>
      </trkpt>
      <trkpt lat="42.7035" lon="0.50982">
        <ele>2567.3</ele>
        <time>2012-07-03T08:20:48Z</time>
      </trkpt>
      <trkpt lat="42.7035" lon="0.50984">
        <ele>2567.3</ele>
        <time>2012-07-03T08:20:49Z</time>
      </trkpt>
      <trkpt lat="42.7035" lon="0.5099">
        <ele>2567.8</ele>
        <time>2012-07-03T08:20:55Z</time>
      </trkpt>
      <trkpt lat="42.7035" lon="0.50993">
        <ele>2566.9</ele>
        <time>2012-07-03T08:20:57Z</time>
      </trkpt>
      <trkpt lat="42.70351" lon="0.51001">
        <ele>2567.3</ele>
        <time>2012-07-03T08:21:06Z</time>
      </trkpt>
      <trkpt lat="42.70354" lon="0.51007">
        <ele>2567.3</ele>
        <time>2012-07-03T08:21:12Z</time>
      </trkpt>
      <trkpt lat="42.70355" lon="0.51018">
        <ele>2567.8</ele>
        <time>2012-07-03T08:21:20Z</time>
      </trkpt>
      <trkpt lat="42.70355" lon="0.51021">
        <ele>2567.3</ele>
        <time>2012-07-03T08:21:22Z</time>
      </trkpt>
      <trkpt lat="42.70357" lon="0.51027">
        <ele>2567.8</ele>
        <time>2012-07-03T08:21:26Z</time>
      </trkpt>
      <trkpt lat="42.70359" lon="0.51034">
        <ele>2567.8</ele>
        <time>2012-07-03T08:21:30Z</time>
      </trkpt>
      <trkpt lat="42.70361" lon="0.51053">
        <ele>2567.3</ele>
        <time>2012-07-03T08:21:43Z</time>
      </trkpt>
      <trkpt lat="42.70363" lon="0.51064">
        <ele>2567.3</ele>
        <time>2012-07-03T08:21:51Z</time>
      </trkpt>
      <trkpt lat="42.70362" lon="0.51066">
        <ele>2567.8</ele>
        <time>2012-07-03T08:22:04Z</time>
      </trkpt>
      <trkpt lat="42.70362" lon="0.51066">
        <ele>2566.9</ele>
        <time>2012-07-03T08:22:36Z</time>
      </trkpt>
      <trkpt lat="42.70361" lon="0.51066">
        <ele>2567.8</ele>
        <time>2012-07-03T08:23:01Z</time>
      </trkpt>
      <trkpt lat="42.70361" lon="0.51066">
        <ele>2567.8</ele>
        <time>2012-07-03T08:23:19Z</time>
      </trkpt>
      <trkpt lat="42.70362" lon="0.51066">
        <ele>2567.8</ele>
        <time>2012-07-03T08:23:41Z</time>
      </trkpt>
      <trkpt lat="42.70363" lon="0.51073">
        <ele>2567.8</ele>
        <time>2012-07-03T08:23:48Z</time>
      </trkpt>
      <trkpt lat="42.70366" lon="0.51083">
        <ele>2568.3</ele>
        <time>2012-07-03T08:23:55Z</time>
      </trkpt>
      <trkpt lat="42.70367" lon="0.51095">
        <ele>2568.8</ele>
        <time>2012-07-03T08:24:09Z</time>
      </trkpt>
      <trkpt lat="42.70366" lon="0.51098">
        <ele>2569.7</ele>
        <time>2012-07-03T08:24:22Z</time>
      </trkpt>
      <trkpt lat="42.70364" lon="0.51098">
        <ele>2571.2</ele>
        <time>2012-07-03T08:24:36Z</time>
      </trkpt>
      <trkpt lat="42.70355" lon="0.51098">
        <ele>2572.6</ele>
        <time>2012-07-03T08:24:50Z</time>
      </trkpt>
      <trkpt lat="42.70353" lon="0.511">
        <ele>2572.6</ele>
        <time>2012-07-03T08:24:54Z</time>
      </trkpt>
      <trkpt lat="42.70348" lon="0.51102">
        <ele>2572.6</ele>
        <time>2012-07-03T08:25:02Z</time>
      </trkpt>
      <trkpt lat="42.70343" lon="0.51103">
        <ele>2571.7</ele>
        <time>2012-07-03T08:25:09Z</time>
      </trkpt>
      <trkpt lat="42.70335" lon="0.51105">
        <ele>2572.6</ele>
        <time>2012-07-03T08:25:22Z</time>
      </trkpt>
      <trkpt lat="42.70332" lon="0.51106">
        <ele>2574.6</ele>
        <time>2012-07-03T08:25:33Z</time>
      </trkpt>
      <trkpt lat="42.70329" lon="0.51108">
        <ele>2575.5</ele>
        <time>2012-07-03T08:25:44Z</time>
      </trkpt>
      <trkpt lat="42.70329" lon="0.5111">
        <ele>2576</ele>
        <time>2012-07-03T08:25:47Z</time>
      </trkpt>
      <trkpt lat="42.70321" lon="0.51116">
        <ele>2576.5</ele>
        <time>2012-07-03T08:25:59Z</time>
      </trkpt>
      <trkpt lat="42.70319" lon="0.51116">
        <ele>2576</ele>
        <time>2012-07-03T08:26:02Z</time>
      </trkpt>
      <trkpt lat="42.70309" lon="0.51117">
        <ele>2576.5</ele>
        <time>2012-07-03T08:26:15Z</time>
      </trkpt>
      <trkpt lat="42.70309" lon="0.51119">
        <ele>2577.4</ele>
        <time>2012-07-03T08:26:30Z</time>
      </trkpt>
      <trkpt lat="42.70309" lon="0.51119">
        <ele>2577.4</ele>
        <time>2012-07-03T08:26:57Z</time>
      </trkpt>
      <trkpt lat="42.70308" lon="0.5112">
        <ele>2577</ele>
        <time>2012-07-03T08:27:07Z</time>
      </trkpt>
      <trkpt lat="42.70304" lon="0.51122">
        <ele>2576.5</ele>
        <time>2012-07-03T08:27:12Z</time>
      </trkpt>
      <trkpt lat="42.70297" lon="0.51131">
        <ele>2577</ele>
        <time>2012-07-03T08:27:23Z</time>
      </trkpt>
      <trkpt lat="42.70297" lon="0.5114">
        <ele>2579.4</ele>
        <time>2012-07-03T08:27:36Z</time>
      </trkpt>
      <trkpt lat="42.70298" lon="0.51145">
        <ele>2580.3</ele>
        <time>2012-07-03T08:27:44Z</time>
      </trkpt>
      <trkpt lat="42.70295" lon="0.51149">
        <ele>2579.8</ele>
        <time>2012-07-03T08:27:55Z</time>
      </trkpt>
      <trkpt lat="42.70295" lon="0.51149">
        <ele>2579.8</ele>
        <time>2012-07-03T08:27:57Z</time>
      </trkpt>
      <trkpt lat="42.70296" lon="0.51152">
        <ele>2578.9</ele>
        <time>2012-07-03T08:28:00Z</time>
      </trkpt>
      <trkpt lat="42.70296" lon="0.51162">
        <ele>2578.9</ele>
        <time>2012-07-03T08:28:11Z</time>
      </trkpt>
      <trkpt lat="42.70293" lon="0.51171">
        <ele>2580.3</ele>
        <time>2012-07-03T08:28:24Z</time>
      </trkpt>
      <trkpt lat="42.70289" lon="0.51181">
        <ele>2581.8</ele>
        <time>2012-07-03T08:28:36Z</time>
      </trkpt>
      <trkpt lat="42.7029" lon="0.51184">
        <ele>2583.2</ele>
        <time>2012-07-03T08:28:48Z</time>
      </trkpt>
      <trkpt lat="42.70291" lon="0.51184">
        <ele>2584.2</ele>
        <time>2012-07-03T08:29:05Z</time>
      </trkpt>
      <trkpt lat="42.70295" lon="0.5118">
        <ele>2586.1</ele>
        <time>2012-07-03T08:29:17Z</time>
      </trkpt>
      <trkpt lat="42.703" lon="0.5118">
        <ele>2588</ele>
        <time>2012-07-03T08:29:28Z</time>
      </trkpt>
      <trkpt lat="42.70301" lon="0.51189">
        <ele>2590.4</ele>
        <time>2012-07-03T08:29:42Z</time>
      </trkpt>
      <trkpt lat="42.703" lon="0.51198">
        <ele>2592.3</ele>
        <time>2012-07-03T08:29:55Z</time>
      </trkpt>
      <trkpt lat="42.70302" lon="0.51209">
        <ele>2594.7</ele>
        <time>2012-07-03T08:30:10Z</time>
      </trkpt>
      <trkpt lat="42.70299" lon="0.51216">
        <ele>2596.7</ele>
        <time>2012-07-03T08:30:22Z</time>
      </trkpt>
      <trkpt lat="42.70296" lon="0.51227">
        <ele>2598.6</ele>
        <time>2012-07-03T08:30:36Z</time>
      </trkpt>
      <trkpt lat="42.70296" lon="0.51233">
        <ele>2600</ele>
        <time>2012-07-03T08:30:47Z</time>
      </trkpt>
      <trkpt lat="42.70297" lon="0.5124">
        <ele>2601.5</ele>
        <time>2012-07-03T08:31:01Z</time>
      </trkpt>
      <trkpt lat="42.70295" lon="0.51245">
        <ele>2603.4</ele>
        <time>2012-07-03T08:31:11Z</time>
      </trkpt>
      <trkpt lat="42.70293" lon="0.51246">
        <ele>2603.9</ele>
        <time>2012-07-03T08:31:21Z</time>
      </trkpt>
      <trkpt lat="42.70293" lon="0.51247">
        <ele>2604.8</ele>
        <time>2012-07-03T08:31:31Z</time>
      </trkpt>
      <trkpt lat="42.70292" lon="0.51253">
        <ele>2606.8</ele>
        <time>2012-07-03T08:31:42Z</time>
      </trkpt>
      <trkpt lat="42.70291" lon="0.51259">
        <ele>2608.2</ele>
        <time>2012-07-03T08:31:53Z</time>
      </trkpt>
      <trkpt lat="42.70291" lon="0.51259">
        <ele>2608.2</ele>
        <time>2012-07-03T08:32:22Z</time>
      </trkpt>
      <trkpt lat="42.70291" lon="0.51259">
        <ele>2608.2</ele>
        <time>2012-07-03T08:32:50Z</time>
      </trkpt>
      <trkpt lat="42.70291" lon="0.51269">
        <ele>2609.2</ele>
        <time>2012-07-03T08:33:07Z</time>
      </trkpt>
      <trkpt lat="42.70292" lon="0.51273">
        <ele>2611.6</ele>
        <time>2012-07-03T08:33:20Z</time>
      </trkpt>
      <trkpt lat="42.70291" lon="0.51279">
        <ele>2612.5</ele>
        <time>2012-07-03T08:33:30Z</time>
      </trkpt>
      <trkpt lat="42.7029" lon="0.51289">
        <ele>2614.9</ele>
        <time>2012-07-03T08:33:43Z</time>
      </trkpt>
      <trkpt lat="42.7029" lon="0.5129">
        <ele>2616.9</ele>
        <time>2012-07-03T08:33:58Z</time>
      </trkpt>
      <trkpt lat="42.7029" lon="0.5129">
        <ele>2618.8</ele>
        <time>2012-07-03T08:34:11Z</time>
      </trkpt>
      <trkpt lat="42.7029" lon="0.5129">
        <ele>2620.7</ele>
        <time>2012-07-03T08:34:21Z</time>
      </trkpt>
      <trkpt lat="42.70289" lon="0.51298">
        <ele>2621.2</ele>
        <time>2012-07-03T08:34:34Z</time>
      </trkpt>
      <trkpt lat="42.70291" lon="0.51308">
        <ele>2622.6</ele>
        <time>2012-07-03T08:34:46Z</time>
      </trkpt>
      <trkpt lat="42.70292" lon="0.51316">
        <ele>2625</ele>
        <time>2012-07-03T08:35:00Z</time>
      </trkpt>
      <trkpt lat="42.70293" lon="0.51322">
        <ele>2626</ele>
        <time>2012-07-03T08:35:12Z</time>
      </trkpt>
      <trkpt lat="42.70293" lon="0.51325">
        <ele>2626.9</ele>
        <time>2012-07-03T08:35:22Z</time>
      </trkpt>
      <trkpt lat="42.70293" lon="0.51328">
        <ele>2628.9</ele>
        <time>2012-07-03T08:35:34Z</time>
      </trkpt>
      <trkpt lat="42.70293" lon="0.51321">
        <ele>2630.8</ele>
        <time>2012-07-03T08:35:45Z</time>
      </trkpt>
      <trkpt lat="42.70293" lon="0.51318">
        <ele>2632.7</ele>
        <time>2012-07-03T08:35:58Z</time>
      </trkpt>
      <trkpt lat="42.70296" lon="0.51325">
        <ele>2634.6</ele>
        <time>2012-07-03T08:36:12Z</time>
      </trkpt>
      <trkpt lat="42.70297" lon="0.51324">
        <ele>2636.1</ele>
        <time>2012-07-03T08:36:26Z</time>
      </trkpt>
      <trkpt lat="42.70299" lon="0.51331">
        <ele>2638</ele>
        <time>2012-07-03T08:36:36Z</time>
      </trkpt>
      <trkpt lat="42.703" lon="0.51336">
        <ele>2639.9</ele>
        <time>2012-07-03T08:36:46Z</time>
      </trkpt>
      <trkpt lat="42.70298" lon="0.51339">
        <ele>2641.8</ele>
        <time>2012-07-03T08:36:58Z</time>
      </trkpt>
      <trkpt lat="42.70298" lon="0.51339">
        <ele>2643.8</ele>
        <time>2012-07-03T08:37:13Z</time>
      </trkpt>
      <trkpt lat="42.70297" lon="0.51348">
        <ele>2645.7</ele>
        <time>2012-07-03T08:37:26Z</time>
      </trkpt>
      <trkpt lat="42.70299" lon="0.51354">
        <ele>2647.6</ele>
        <time>2012-07-03T08:37:39Z</time>
      </trkpt>
      <trkpt lat="42.70299" lon="0.51356">
        <ele>2649.5</ele>
        <time>2012-07-03T08:37:51Z</time>
      </trkpt>
      <trkpt lat="42.70297" lon="0.5136">
        <ele>2650</ele>
        <time>2012-07-03T08:38:08Z</time>
      </trkpt>
      <trkpt lat="42.70297" lon="0.5136">
        <ele>2650</ele>
        <time>2012-07-03T08:38:33Z</time>
      </trkpt>
      <trkpt lat="42.70296" lon="0.51358">
        <ele>2649.5</ele>
        <time>2012-07-03T08:38:49Z</time>
      </trkpt>
      <trkpt lat="42.70296" lon="0.51358">
        <ele>2649.5</ele>
        <time>2012-07-03T08:39:04Z</time>
      </trkpt>
      <trkpt lat="42.70295" lon="0.51373">
        <ele>2651.5</ele>
        <time>2012-07-03T08:39:17Z</time>
      </trkpt>
      <trkpt lat="42.70295" lon="0.51376">
        <ele>2652.4</ele>
        <time>2012-07-03T08:39:32Z</time>
      </trkpt>
      <trkpt lat="42.70293" lon="0.51385">
        <ele>2654.3</ele>
        <time>2012-07-03T08:39:44Z</time>
      </trkpt>
      <trkpt lat="42.70293" lon="0.51385">
        <ele>2654.3</ele>
        <time>2012-07-03T08:39:46Z</time>
      </trkpt>
      <trkpt lat="42.70292" lon="0.51389">
        <ele>2655.3</ele>
        <time>2012-07-03T08:40:01Z</time>
      </trkpt>
      <trkpt lat="42.70291" lon="0.51399">
        <ele>2655.8</ele>
        <time>2012-07-03T08:40:15Z</time>
      </trkpt>
      <trkpt lat="42.7029" lon="0.51412">
        <ele>2657.7</ele>
        <time>2012-07-03T08:40:29Z</time>
      </trkpt>
      <trkpt lat="42.7029" lon="0.51418">
        <ele>2659.6</ele>
        <time>2012-07-03T08:40:43Z</time>
      </trkpt>
      <trkpt lat="42.7029" lon="0.51418">
        <ele>2660.1</ele>
        <time>2012-07-03T08:41:03Z</time>
      </trkpt>
      <trkpt lat="42.70291" lon="0.51426">
        <ele>2661.6</ele>
        <time>2012-07-03T08:41:14Z</time>
      </trkpt>
      <trkpt lat="42.70291" lon="0.51426">
        <ele>2661.6</ele>
        <time>2012-07-03T08:41:17Z</time>
      </trkpt>
      <trkpt lat="42.70289" lon="0.51436">
        <ele>2663</ele>
        <time>2012-07-03T08:41:29Z</time>
      </trkpt>
      <trkpt lat="42.70285" lon="0.51449">
        <ele>2665.4</ele>
        <time>2012-07-03T08:41:42Z</time>
      </trkpt>
      <trkpt lat="42.70284" lon="0.51457">
        <ele>2666.8</ele>
        <time>2012-07-03T08:41:54Z</time>
      </trkpt>
      <trkpt lat="42.70283" lon="0.5146">
        <ele>2668.8</ele>
        <time>2012-07-03T08:42:07Z</time>
      </trkpt>
      <trkpt lat="42.70281" lon="0.5147">
        <ele>2670.2</ele>
        <time>2012-07-03T08:42:20Z</time>
      </trkpt>
      <trkpt lat="42.70279" lon="0.51475">
        <ele>2670.7</ele>
        <time>2012-07-03T08:42:25Z</time>
      </trkpt>
      <trkpt lat="42.70277" lon="0.51482">
        <ele>2672.6</ele>
        <time>2012-07-03T08:42:39Z</time>
      </trkpt>
      <trkpt lat="42.70277" lon="0.51482">
        <ele>2674.5</ele>
        <time>2012-07-03T08:42:50Z</time>
      </trkpt>
      <trkpt lat="42.70276" lon="0.51482">
        <ele>2676.5</ele>
        <time>2012-07-03T08:43:03Z</time>
      </trkpt>
      <trkpt lat="42.70281" lon="0.51496">
        <ele>2678.4</ele>
        <time>2012-07-03T08:43:15Z</time>
      </trkpt>
      <trkpt lat="42.70281" lon="0.51504">
        <ele>2679.3</ele>
        <time>2012-07-03T08:43:26Z</time>
      </trkpt>
      <trkpt lat="42.70281" lon="0.51506">
        <ele>2680.8</ele>
        <time>2012-07-03T08:43:39Z</time>
      </trkpt>
      <trkpt lat="42.70281" lon="0.51507">
        <ele>2681.7</ele>
        <time>2012-07-03T08:43:48Z</time>
      </trkpt>
      <trkpt lat="42.70281" lon="0.51507">
        <ele>2683.2</ele>
        <time>2012-07-03T08:44:00Z</time>
      </trkpt>
      <trkpt lat="42.70281" lon="0.51507">
        <ele>2685.1</ele>
        <time>2012-07-03T08:44:14Z</time>
      </trkpt>
      <trkpt lat="42.70285" lon="0.5153">
        <ele>2687.5</ele>
        <time>2012-07-03T08:44:29Z</time>
      </trkpt>
      <trkpt lat="42.70287" lon="0.51538">
        <ele>2688.9</ele>
        <time>2012-07-03T08:44:39Z</time>
      </trkpt>
      <trkpt lat="42.70288" lon="0.51545">
        <ele>2690.9</ele>
        <time>2012-07-03T08:44:53Z</time>
      </trkpt>
      <trkpt lat="42.70288" lon="0.51546">
        <ele>2693.3</ele>
        <time>2012-07-03T08:45:05Z</time>
      </trkpt>
      <trkpt lat="42.70288" lon="0.5155">
        <ele>2694.7</ele>
        <time>2012-07-03T08:45:16Z</time>
      </trkpt>
      <trkpt lat="42.70288" lon="0.5155">
        <ele>2696.6</ele>
        <time>2012-07-03T08:45:30Z</time>
      </trkpt>
      <trkpt lat="42.70289" lon="0.51556">
        <ele>2698.1</ele>
        <time>2012-07-03T08:45:41Z</time>
      </trkpt>
      <trkpt lat="42.70291" lon="0.51557">
        <ele>2700</ele>
        <time>2012-07-03T08:45:56Z</time>
      </trkpt>
      <trkpt lat="42.70294" lon="0.51565">
        <ele>2701.9</ele>
        <time>2012-07-03T08:46:08Z</time>
      </trkpt>
      <trkpt lat="42.70295" lon="0.51569">
        <ele>2703.4</ele>
        <time>2012-07-03T08:46:20Z</time>
      </trkpt>
      <trkpt lat="42.70298" lon="0.51569">
        <ele>2704.8</ele>
        <time>2012-07-03T08:46:34Z</time>
      </trkpt>
      <trkpt lat="42.70297" lon="0.51569">
        <ele>2704.8</ele>
        <time>2012-07-03T08:47:06Z</time>
      </trkpt>
      <trkpt lat="42.703" lon="0.51572">
        <ele>2706.3</ele>
        <time>2012-07-03T08:47:21Z</time>
      </trkpt>
      <trkpt lat="42.70309" lon="0.51576">
        <ele>2708.2</ele>
        <time>2012-07-03T08:47:34Z</time>
      </trkpt>
      <trkpt lat="42.70311" lon="0.51581">
        <ele>2710.6</ele>
        <time>2012-07-03T08:47:48Z</time>
      </trkpt>
      <trkpt lat="42.70312" lon="0.51586">
        <ele>2713</ele>
        <time>2012-07-03T08:48:01Z</time>
      </trkpt>
      <trkpt lat="42.70316" lon="0.51585">
        <ele>2714.4</ele>
        <time>2012-07-03T08:48:15Z</time>
      </trkpt>
      <trkpt lat="42.70318" lon="0.51587">
        <ele>2716.3</ele>
        <time>2012-07-03T08:48:27Z</time>
      </trkpt>
      <trkpt lat="42.70321" lon="0.51591">
        <ele>2718.3</ele>
        <time>2012-07-03T08:48:38Z</time>
      </trkpt>
      <trkpt lat="42.70321" lon="0.51596">
        <ele>2719.7</ele>
        <time>2012-07-03T08:48:53Z</time>
      </trkpt>
      <trkpt lat="42.70318" lon="0.516">
        <ele>2720.7</ele>
        <time>2012-07-03T08:49:07Z</time>
      </trkpt>
      <trkpt lat="42.70315" lon="0.51604">
        <ele>2722.6</ele>
        <time>2012-07-03T08:49:19Z</time>
      </trkpt>
      <trkpt lat="42.70314" lon="0.51609">
        <ele>2724</ele>
        <time>2012-07-03T08:49:32Z</time>
      </trkpt>
      <trkpt lat="42.70314" lon="0.51609">
        <ele>2726</ele>
        <time>2012-07-03T08:49:46Z</time>
      </trkpt>
      <trkpt lat="42.70319" lon="0.5161">
        <ele>2727.4</ele>
        <time>2012-07-03T08:50:01Z</time>
      </trkpt>
      <trkpt lat="42.70319" lon="0.51618">
        <ele>2728.8</ele>
        <time>2012-07-03T08:50:12Z</time>
      </trkpt>
      <trkpt lat="42.70319" lon="0.51618">
        <ele>2730.8</ele>
        <time>2012-07-03T08:50:22Z</time>
      </trkpt>
      <trkpt lat="42.70319" lon="0.51621">
        <ele>2732.2</ele>
        <time>2012-07-03T08:50:31Z</time>
      </trkpt>
      <trkpt lat="42.70319" lon="0.51627">
        <ele>2733.2</ele>
        <time>2012-07-03T08:50:42Z</time>
      </trkpt>
      <trkpt lat="42.70319" lon="0.5163">
        <ele>2733.7</ele>
        <time>2012-07-03T08:50:47Z</time>
      </trkpt>
      <trkpt lat="42.70316" lon="0.51634">
        <ele>2735.6</ele>
        <time>2012-07-03T08:51:00Z</time>
      </trkpt>
      <trkpt lat="42.70312" lon="0.51637">
        <ele>2736.1</ele>
        <time>2012-07-03T08:51:04Z</time>
      </trkpt>
      <trkpt lat="42.70304" lon="0.51649">
        <ele>2737.5</ele>
        <time>2012-07-03T08:51:19Z</time>
      </trkpt>
      <trkpt lat="42.70304" lon="0.5165">
        <ele>2737</ele>
        <time>2012-07-03T08:51:20Z</time>
      </trkpt>
      <trkpt lat="42.70301" lon="0.51658">
        <ele>2738.9</ele>
        <time>2012-07-03T08:51:33Z</time>
      </trkpt>
      <trkpt lat="42.70301" lon="0.51664">
        <ele>2740.4</ele>
        <time>2012-07-03T08:51:43Z</time>
      </trkpt>
      <trkpt lat="42.70298" lon="0.5167">
        <ele>2741.3</ele>
        <time>2012-07-03T08:51:56Z</time>
      </trkpt>
      <trkpt lat="42.70298" lon="0.51671">
        <ele>2742.3</ele>
        <time>2012-07-03T08:51:58Z</time>
      </trkpt>
      <trkpt lat="42.70295" lon="0.51682">
        <ele>2742.8</ele>
        <time>2012-07-03T08:52:10Z</time>
      </trkpt>
      <trkpt lat="42.70292" lon="0.51687">
        <ele>2742.8</ele>
        <time>2012-07-03T08:52:23Z</time>
      </trkpt>
      <trkpt lat="42.70293" lon="0.51696">
        <ele>2743.3</ele>
        <time>2012-07-03T08:52:41Z</time>
      </trkpt>
      <trkpt lat="42.70292" lon="0.51699">
        <ele>2744.2</ele>
        <time>2012-07-03T08:52:49Z</time>
      </trkpt>
      <trkpt lat="42.7029" lon="0.51714">
        <ele>2745.7</ele>
        <time>2012-07-03T08:53:03Z</time>
      </trkpt>
      <trkpt lat="42.70286" lon="0.51724">
        <ele>2747.1</ele>
        <time>2012-07-03T08:53:16Z</time>
      </trkpt>
      <trkpt lat="42.70285" lon="0.51734">
        <ele>2749.5</ele>
        <time>2012-07-03T08:53:29Z</time>
      </trkpt>
      <trkpt lat="42.70283" lon="0.51746">
        <ele>2751</ele>
        <time>2012-07-03T08:53:43Z</time>
      </trkpt>
      <trkpt lat="42.70282" lon="0.51756">
        <ele>2752.4</ele>
        <time>2012-07-03T08:53:57Z</time>
      </trkpt>
      <trkpt lat="42.70285" lon="0.51765">
        <ele>2754.3</ele>
        <time>2012-07-03T08:54:10Z</time>
      </trkpt>
      <trkpt lat="42.70285" lon="0.51766">
        <ele>2754.8</ele>
        <time>2012-07-03T08:54:24Z</time>
      </trkpt>
      <trkpt lat="42.70285" lon="0.51766">
        <ele>2755.3</ele>
        <time>2012-07-03T08:54:42Z</time>
      </trkpt>
      <trkpt lat="42.70285" lon="0.51766">
        <ele>2754.8</ele>
        <time>2012-07-03T08:55:00Z</time>
      </trkpt>
      <trkpt lat="42.70285" lon="0.51766">
        <ele>2755.3</ele>
        <time>2012-07-03T08:55:22Z</time>
      </trkpt>
      <trkpt lat="42.70289" lon="0.51776">
        <ele>2756.7</ele>
        <time>2012-07-03T08:55:35Z</time>
      </trkpt>
      <trkpt lat="42.70289" lon="0.51777">
        <ele>2756.7</ele>
        <time>2012-07-03T08:55:36Z</time>
      </trkpt>
      <trkpt lat="42.70292" lon="0.51783">
        <ele>2756.7</ele>
        <time>2012-07-03T08:55:41Z</time>
      </trkpt>
      <trkpt lat="42.70292" lon="0.51786">
        <ele>2756.7</ele>
        <time>2012-07-03T08:55:43Z</time>
      </trkpt>
      <trkpt lat="42.70296" lon="0.51798">
        <ele>2757.7</ele>
        <time>2012-07-03T08:55:55Z</time>
      </trkpt>
      <trkpt lat="42.70296" lon="0.51809">
        <ele>2759.6</ele>
        <time>2012-07-03T08:56:08Z</time>
      </trkpt>
      <trkpt lat="42.70295" lon="0.51811">
        <ele>2760.1</ele>
        <time>2012-07-03T08:56:11Z</time>
      </trkpt>
      <trkpt lat="42.70294" lon="0.51813">
        <ele>2760.1</ele>
        <time>2012-07-03T08:56:13Z</time>
      </trkpt>
      <trkpt lat="42.70289" lon="0.51823">
        <ele>2761.5</ele>
        <time>2012-07-03T08:56:28Z</time>
      </trkpt>
      <trkpt lat="42.70285" lon="0.5183">
        <ele>2763.5</ele>
        <time>2012-07-03T08:56:40Z</time>
      </trkpt>
      <trkpt lat="42.70287" lon="0.51838">
        <ele>2765.4</ele>
        <time>2012-07-03T08:56:53Z</time>
      </trkpt>
      <trkpt lat="42.70287" lon="0.51849">
        <ele>2765.4</ele>
        <time>2012-07-03T08:57:05Z</time>
      </trkpt>
      <trkpt lat="42.70288" lon="0.5185">
        <ele>2765.4</ele>
        <time>2012-07-03T08:57:06Z</time>
      </trkpt>
      <trkpt lat="42.70287" lon="0.51862">
        <ele>2766.3</ele>
        <time>2012-07-03T08:57:20Z</time>
      </trkpt>
      <trkpt lat="42.70287" lon="0.51872">
        <ele>2768.7</ele>
        <time>2012-07-03T08:57:34Z</time>
      </trkpt>
      <trkpt lat="42.70287" lon="0.51876">
        <ele>2769.2</ele>
        <time>2012-07-03T08:57:40Z</time>
      </trkpt>
      <trkpt lat="42.70285" lon="0.5189">
        <ele>2770.7</ele>
        <time>2012-07-03T08:57:54Z</time>
      </trkpt>
      <trkpt lat="42.70286" lon="0.51897">
        <ele>2771.1</ele>
        <time>2012-07-03T08:58:04Z</time>
      </trkpt>
      <trkpt lat="42.70289" lon="0.51903">
        <ele>2770.7</ele>
        <time>2012-07-03T08:58:11Z</time>
      </trkpt>
      <trkpt lat="42.70289" lon="0.51915">
        <ele>2771.1</ele>
        <time>2012-07-03T08:58:22Z</time>
      </trkpt>
      <trkpt lat="42.70285" lon="0.51927">
        <ele>2771.6</ele>
        <time>2012-07-03T08:58:34Z</time>
      </trkpt>
      <trkpt lat="42.70279" lon="0.5194">
        <ele>2772.6</ele>
        <time>2012-07-03T08:58:48Z</time>
      </trkpt>
      <trkpt lat="42.70277" lon="0.5195">
        <ele>2773.5</ele>
        <time>2012-07-03T08:59:01Z</time>
      </trkpt>
      <trkpt lat="42.70275" lon="0.51957">
        <ele>2775</ele>
        <time>2012-07-03T08:59:14Z</time>
      </trkpt>
      <trkpt lat="42.70273" lon="0.51965">
        <ele>2775.9</ele>
        <time>2012-07-03T08:59:25Z</time>
      </trkpt>
      <trkpt lat="42.70272" lon="0.51974">
        <ele>2777.4</ele>
        <time>2012-07-03T08:59:39Z</time>
      </trkpt>
      <trkpt lat="42.7027" lon="0.51981">
        <ele>2779.3</ele>
        <time>2012-07-03T08:59:53Z</time>
      </trkpt>
      <trkpt lat="42.7027" lon="0.51987">
        <ele>2781.2</ele>
        <time>2012-07-03T09:00:08Z</time>
      </trkpt>
      <trkpt lat="42.70268" lon="0.51993">
        <ele>2782.7</ele>
        <time>2012-07-03T09:00:20Z</time>
      </trkpt>
      <trkpt lat="42.70266" lon="0.52001">
        <ele>2784.1</ele>
        <time>2012-07-03T09:00:33Z</time>
      </trkpt>
      <trkpt lat="42.70262" lon="0.52008">
        <ele>2785.6</ele>
        <time>2012-07-03T09:00:44Z</time>
      </trkpt>
      <trkpt lat="42.70262" lon="0.52013">
        <ele>2788</ele>
        <time>2012-07-03T09:01:00Z</time>
      </trkpt>
      <trkpt lat="42.70262" lon="0.52015">
        <ele>2789.4</ele>
        <time>2012-07-03T09:01:12Z</time>
      </trkpt>
      <trkpt lat="42.70264" lon="0.52024">
        <ele>2790.8</ele>
        <time>2012-07-03T09:01:27Z</time>
      </trkpt>
      <trkpt lat="42.70262" lon="0.52031">
        <ele>2792.3</ele>
        <time>2012-07-03T09:01:41Z</time>
      </trkpt>
      <trkpt lat="42.70265" lon="0.52035">
        <ele>2794.2</ele>
        <time>2012-07-03T09:01:54Z</time>
      </trkpt>
      <trkpt lat="42.70263" lon="0.5204">
        <ele>2796.1</ele>
        <time>2012-07-03T09:02:07Z</time>
      </trkpt>
      <trkpt lat="42.70262" lon="0.52048">
        <ele>2796.1</ele>
        <time>2012-07-03T09:02:18Z</time>
      </trkpt>
      <trkpt lat="42.70264" lon="0.52054">
        <ele>2798.5</ele>
        <time>2012-07-03T09:02:32Z</time>
      </trkpt>
      <trkpt lat="42.70265" lon="0.52054">
        <ele>2800</ele>
        <time>2012-07-03T09:02:51Z</time>
      </trkpt>
      <trkpt lat="42.70264" lon="0.52061">
        <ele>2801.9</ele>
        <time>2012-07-03T09:03:08Z</time>
      </trkpt>
      <trkpt lat="42.70263" lon="0.52069">
        <ele>2803.3</ele>
        <time>2012-07-03T09:03:21Z</time>
      </trkpt>
      <trkpt lat="42.70256" lon="0.52075">
        <ele>2803.8</ele>
        <time>2012-07-03T09:03:32Z</time>
      </trkpt>
      <trkpt lat="42.70252" lon="0.5208">
        <ele>2805.8</ele>
        <time>2012-07-03T09:03:45Z</time>
      </trkpt>
      <trkpt lat="42.7025" lon="0.52087">
        <ele>2806.7</ele>
        <time>2012-07-03T09:03:56Z</time>
      </trkpt>
      <trkpt lat="42.70248" lon="0.52094">
        <ele>2808.6</ele>
        <time>2012-07-03T09:04:10Z</time>
      </trkpt>
      <trkpt lat="42.70244" lon="0.52104">
        <ele>2810.1</ele>
        <time>2012-07-03T09:04:23Z</time>
      </trkpt>
      <trkpt lat="42.70242" lon="0.5211">
        <ele>2811.5</ele>
        <time>2012-07-03T09:04:36Z</time>
      </trkpt>
      <trkpt lat="42.7024" lon="0.52114">
        <ele>2813</ele>
        <time>2012-07-03T09:04:48Z</time>
      </trkpt>
      <trkpt lat="42.70239" lon="0.52117">
        <ele>2813.9</ele>
        <time>2012-07-03T09:05:12Z</time>
      </trkpt>
      <trkpt lat="42.70238" lon="0.52123">
        <ele>2814.9</ele>
        <time>2012-07-03T09:05:26Z</time>
      </trkpt>
      <trkpt lat="42.70235" lon="0.5213">
        <ele>2816.8</ele>
        <time>2012-07-03T09:05:37Z</time>
      </trkpt>
      <trkpt lat="42.70233" lon="0.52133">
        <ele>2818.2</ele>
        <time>2012-07-03T09:05:48Z</time>
      </trkpt>
      <trkpt lat="42.70234" lon="0.52143">
        <ele>2820.2</ele>
        <time>2012-07-03T09:06:03Z</time>
      </trkpt>
      <trkpt lat="42.70235" lon="0.52152">
        <ele>2822.6</ele>
        <time>2012-07-03T09:06:18Z</time>
      </trkpt>
      <trkpt lat="42.70234" lon="0.52161">
        <ele>2824.5</ele>
        <time>2012-07-03T09:06:32Z</time>
      </trkpt>
      <trkpt lat="42.70232" lon="0.52162">
        <ele>2825.9</ele>
        <time>2012-07-03T09:06:47Z</time>
      </trkpt>
      <trkpt lat="42.70232" lon="0.52162">
        <ele>2826.9</ele>
        <time>2012-07-03T09:07:02Z</time>
      </trkpt>
      <trkpt lat="42.7023" lon="0.52167">
        <ele>2828.3</ele>
        <time>2012-07-03T09:07:13Z</time>
      </trkpt>
      <trkpt lat="42.70229" lon="0.52177">
        <ele>2830.7</ele>
        <time>2012-07-03T09:07:29Z</time>
      </trkpt>
      <trkpt lat="42.7023" lon="0.5218">
        <ele>2831.7</ele>
        <time>2012-07-03T09:07:42Z</time>
      </trkpt>
      <trkpt lat="42.70229" lon="0.52185">
        <ele>2833.1</ele>
        <time>2012-07-03T09:07:53Z</time>
      </trkpt>
      <trkpt lat="42.70228" lon="0.52191">
        <ele>2835.1</ele>
        <time>2012-07-03T09:08:06Z</time>
      </trkpt>
      <trkpt lat="42.70227" lon="0.52193">
        <ele>2837</ele>
        <time>2012-07-03T09:08:18Z</time>
      </trkpt>
      <trkpt lat="42.70228" lon="0.52195">
        <ele>2838.9</ele>
        <time>2012-07-03T09:08:31Z</time>
      </trkpt>
      <trkpt lat="42.70227" lon="0.52203">
        <ele>2840.4</ele>
        <time>2012-07-03T09:08:42Z</time>
      </trkpt>
      <trkpt lat="42.70227" lon="0.52206">
        <ele>2841.3</ele>
        <time>2012-07-03T09:08:54Z</time>
      </trkpt>
      <trkpt lat="42.70225" lon="0.52208">
        <ele>2843.2</ele>
        <time>2012-07-03T09:09:07Z</time>
      </trkpt>
      <trkpt lat="42.70224" lon="0.52209">
        <ele>2845.6</ele>
        <time>2012-07-03T09:09:21Z</time>
      </trkpt>
      <trkpt lat="42.70216" lon="0.52219">
        <ele>2848.5</ele>
        <time>2012-07-03T09:09:37Z</time>
      </trkpt>
      <trkpt lat="42.70214" lon="0.52221">
        <ele>2849.5</ele>
        <time>2012-07-03T09:09:50Z</time>
      </trkpt>
      <trkpt lat="42.70214" lon="0.52221">
        <ele>2849.5</ele>
        <time>2012-07-03T09:09:58Z</time>
      </trkpt>
      <trkpt lat="42.70214" lon="0.52221">
        <ele>2849</ele>
        <time>2012-07-03T09:10:15Z</time>
      </trkpt>
      <trkpt lat="42.70214" lon="0.52221">
        <ele>2848.5</ele>
        <time>2012-07-03T09:10:32Z</time>
      </trkpt>
      <trkpt lat="42.70214" lon="0.52221">
        <ele>2848.5</ele>
        <time>2012-07-03T09:10:39Z</time>
      </trkpt>
      <trkpt lat="42.70216" lon="0.52221">
        <ele>2849.5</ele>
        <time>2012-07-03T09:10:50Z</time>
      </trkpt>
      <trkpt lat="42.70216" lon="0.52221">
        <ele>2849.5</ele>
        <time>2012-07-03T09:11:17Z</time>
      </trkpt>
      <trkpt lat="42.70216" lon="0.52221">
        <ele>2849.5</ele>
        <time>2012-07-03T09:11:43Z</time>
      </trkpt>
      <trkpt lat="42.70216" lon="0.5222">
        <ele>2850</ele>
        <time>2012-07-03T09:11:59Z</time>
      </trkpt>
      <trkpt lat="42.70216" lon="0.5222">
        <ele>2850.9</ele>
        <time>2012-07-03T09:12:11Z</time>
      </trkpt>
      <trkpt lat="42.70216" lon="0.52223">
        <ele>2852.9</ele>
        <time>2012-07-03T09:12:26Z</time>
      </trkpt>
      <trkpt lat="42.70218" lon="0.52233">
        <ele>2855.3</ele>
        <time>2012-07-03T09:12:39Z</time>
      </trkpt>
      <trkpt lat="42.70218" lon="0.52238">
        <ele>2857.2</ele>
        <time>2012-07-03T09:12:52Z</time>
      </trkpt>
      <trkpt lat="42.7022" lon="0.52244">
        <ele>2859.1</ele>
        <time>2012-07-03T09:13:05Z</time>
      </trkpt>
      <trkpt lat="42.70221" lon="0.52245">
        <ele>2860.5</ele>
        <time>2012-07-03T09:13:18Z</time>
      </trkpt>
      <trkpt lat="42.70221" lon="0.52245">
        <ele>2862</ele>
        <time>2012-07-03T09:13:34Z</time>
      </trkpt>
      <trkpt lat="42.7022" lon="0.52245">
        <ele>2862</ele>
        <time>2012-07-03T09:13:54Z</time>
      </trkpt>
      <trkpt lat="42.70221" lon="0.52251">
        <ele>2862</ele>
        <time>2012-07-03T09:14:14Z</time>
      </trkpt>
      <trkpt lat="42.70223" lon="0.52252">
        <ele>2863.4</ele>
        <time>2012-07-03T09:14:26Z</time>
      </trkpt>
      <trkpt lat="42.70224" lon="0.52255">
        <ele>2864.9</ele>
        <time>2012-07-03T09:14:42Z</time>
      </trkpt>
      <trkpt lat="42.70225" lon="0.52258">
        <ele>2866.3</ele>
        <time>2012-07-03T09:14:56Z</time>
      </trkpt>
      <trkpt lat="42.70225" lon="0.52258">
        <ele>2868.2</ele>
        <time>2012-07-03T09:15:09Z</time>
      </trkpt>
      <trkpt lat="42.70223" lon="0.52262">
        <ele>2869.2</ele>
        <time>2012-07-03T09:15:23Z</time>
      </trkpt>
      <trkpt lat="42.7022" lon="0.52267">
        <ele>2870.6</ele>
        <time>2012-07-03T09:15:33Z</time>
      </trkpt>
      <trkpt lat="42.7022" lon="0.52278">
        <ele>2872.6</ele>
        <time>2012-07-03T09:15:46Z</time>
      </trkpt>
      <trkpt lat="42.70221" lon="0.52279">
        <ele>2875</ele>
        <time>2012-07-03T09:16:01Z</time>
      </trkpt>
      <trkpt lat="42.70221" lon="0.52279">
        <ele>2876.9</ele>
        <time>2012-07-03T09:16:15Z</time>
      </trkpt>
      <trkpt lat="42.70224" lon="0.5229">
        <ele>2878.8</ele>
        <time>2012-07-03T09:16:29Z</time>
      </trkpt>
      <trkpt lat="42.70225" lon="0.52299">
        <ele>2880.7</ele>
        <time>2012-07-03T09:16:41Z</time>
      </trkpt>
      <trkpt lat="42.70221" lon="0.52303">
        <ele>2881.7</ele>
        <time>2012-07-03T09:16:52Z</time>
      </trkpt>
      <trkpt lat="42.70221" lon="0.52306">
        <ele>2882.2</ele>
        <time>2012-07-03T09:17:04Z</time>
      </trkpt>
      <trkpt lat="42.70221" lon="0.52305">
        <ele>2882.2</ele>
        <time>2012-07-03T09:17:17Z</time>
      </trkpt>
      <trkpt lat="42.70222" lon="0.52305">
        <ele>2881.7</ele>
        <time>2012-07-03T09:17:40Z</time>
      </trkpt>
      <trkpt lat="42.70223" lon="0.52304">
        <ele>2882.2</ele>
        <time>2012-07-03T09:17:53Z</time>
      </trkpt>
      <trkpt lat="42.70223" lon="0.52304">
        <ele>2882.7</ele>
        <time>2012-07-03T09:18:12Z</time>
      </trkpt>
      <trkpt lat="42.70223" lon="0.52304">
        <ele>2882.7</ele>
        <time>2012-07-03T09:18:31Z</time>
      </trkpt>
      <trkpt lat="42.70223" lon="0.52304">
        <ele>2883.1</ele>
        <time>2012-07-03T09:18:45Z</time>
      </trkpt>
      <trkpt lat="42.70224" lon="0.52305">
        <ele>2884.1</ele>
        <time>2012-07-03T09:18:59Z</time>
      </trkpt>
      <trkpt lat="42.70224" lon="0.52305">
        <ele>2887</ele>
        <time>2012-07-03T09:19:11Z</time>
      </trkpt>
      <trkpt lat="42.70223" lon="0.52309">
        <ele>2888.9</ele>
        <time>2012-07-03T09:19:20Z</time>
      </trkpt>
      <trkpt lat="42.7022" lon="0.52314">
        <ele>2891.3</ele>
        <time>2012-07-03T09:19:33Z</time>
      </trkpt>
      <trkpt lat="42.70216" lon="0.52321">
        <ele>2893.2</ele>
        <time>2012-07-03T09:19:44Z</time>
      </trkpt>
      <trkpt lat="42.70214" lon="0.52325">
        <ele>2895.2</ele>
        <time>2012-07-03T09:19:55Z</time>
      </trkpt>
      <trkpt lat="42.70214" lon="0.52329">
        <ele>2897.1</ele>
        <time>2012-07-03T09:20:09Z</time>
      </trkpt>
      <trkpt lat="42.70215" lon="0.52335">
        <ele>2899.5</ele>
        <time>2012-07-03T09:20:22Z</time>
      </trkpt>
      <trkpt lat="42.70215" lon="0.52338">
        <ele>2900.9</ele>
        <time>2012-07-03T09:20:34Z</time>
      </trkpt>
      <trkpt lat="42.70214" lon="0.52343">
        <ele>2903.3</ele>
        <time>2012-07-03T09:20:47Z</time>
      </trkpt>
      <trkpt lat="42.70212" lon="0.52344">
        <ele>2905.2</ele>
        <time>2012-07-03T09:20:59Z</time>
      </trkpt>
      <trkpt lat="42.70216" lon="0.52348">
        <ele>2907.2</ele>
        <time>2012-07-03T09:21:13Z</time>
      </trkpt>
      <trkpt lat="42.70215" lon="0.52353">
        <ele>2909.6</ele>
        <time>2012-07-03T09:21:25Z</time>
      </trkpt>
      <trkpt lat="42.70215" lon="0.52359">
        <ele>2911.5</ele>
        <time>2012-07-03T09:21:37Z</time>
      </trkpt>
      <trkpt lat="42.70215" lon="0.52363">
        <ele>2913.4</ele>
        <time>2012-07-03T09:21:48Z</time>
      </trkpt>
      <trkpt lat="42.70209" lon="0.52369">
        <ele>2914.9</ele>
        <time>2012-07-03T09:21:59Z</time>
      </trkpt>
      <trkpt lat="42.7021" lon="0.52369">
        <ele>2914.9</ele>
        <time>2012-07-03T09:22:14Z</time>
      </trkpt>
      <trkpt lat="42.7021" lon="0.52369">
        <ele>2913.9</ele>
        <time>2012-07-03T09:22:32Z</time>
      </trkpt>
      <trkpt lat="42.7021" lon="0.52369">
        <ele>2913.9</ele>
        <time>2012-07-03T09:23:03Z</time>
      </trkpt>
      <trkpt lat="42.70209" lon="0.52368">
        <ele>2913.9</ele>
        <time>2012-07-03T09:23:36Z</time>
      </trkpt>
      <trkpt lat="42.70208" lon="0.52368">
        <ele>2914.9</ele>
        <time>2012-07-03T09:24:09Z</time>
      </trkpt>
      <trkpt lat="42.70209" lon="0.52367">
        <ele>2914.9</ele>
        <time>2012-07-03T09:24:45Z</time>
      </trkpt>
      <trkpt lat="42.70209" lon="0.52367">
        <ele>2914.9</ele>
        <time>2012-07-03T09:25:14Z</time>
      </trkpt>
      <trkpt lat="42.70208" lon="0.52367">
        <ele>2914.9</ele>
        <time>2012-07-03T09:25:51Z</time>
      </trkpt>
      <trkpt lat="42.70208" lon="0.52367">
        <ele>2914.9</ele>
        <time>2012-07-03T09:26:27Z</time>
      </trkpt>
      <trkpt lat="42.70208" lon="0.52367">
        <ele>2914.9</ele>
        <time>2012-07-03T09:26:46Z</time>
      </trkpt>
      <trkpt lat="42.70207" lon="0.52368">
        <ele>2916.8</ele>
        <time>2012-07-03T09:26:56Z</time>
      </trkpt>
      <trkpt lat="42.70206" lon="0.52369">
        <ele>2916.8</ele>
        <time>2012-07-03T09:27:14Z</time>
      </trkpt>
      <trkpt lat="42.70207" lon="0.52369">
        <ele>2917.3</ele>
        <time>2012-07-03T09:27:40Z</time>
      </trkpt>
      <trkpt lat="42.70207" lon="0.52369">
        <ele>2916.3</ele>
        <time>2012-07-03T09:28:03Z</time>
      </trkpt>
      <trkpt lat="42.70207" lon="0.52368">
        <ele>2916.8</ele>
        <time>2012-07-03T09:28:27Z</time>
      </trkpt>
      <trkpt lat="42.70207" lon="0.52367">
        <ele>2916.3</ele>
        <time>2012-07-03T09:28:43Z</time>
      </trkpt>
      <trkpt lat="42.70207" lon="0.52367">
        <ele>2916.8</ele>
        <time>2012-07-03T09:28:59Z</time>
      </trkpt>
      <trkpt lat="42.70207" lon="0.52367">
        <ele>2917.3</ele>
        <time>2012-07-03T09:29:27Z</time>
      </trkpt>
      <trkpt lat="42.70207" lon="0.52367">
        <ele>2917.7</ele>
        <time>2012-07-03T09:29:56Z</time>
      </trkpt>
      <trkpt lat="42.70207" lon="0.52367">
        <ele>2917.7</ele>
        <time>2012-07-03T09:30:17Z</time>
      </trkpt>
      <trkpt lat="42.70207" lon="0.52367">
        <ele>2918.2</ele>
        <time>2012-07-03T09:30:38Z</time>
      </trkpt>
      <trkpt lat="42.70208" lon="0.52369">
        <ele>2920.1</ele>
        <time>2012-07-03T09:30:51Z</time>
      </trkpt>
      <trkpt lat="42.70208" lon="0.52369">
        <ele>2921.1</ele>
        <time>2012-07-03T09:31:02Z</time>
      </trkpt>
      <trkpt lat="42.70208" lon="0.52369">
        <ele>2923</ele>
        <time>2012-07-03T09:31:09Z</time>
      </trkpt>
      <trkpt lat="42.70214" lon="0.52374">
        <ele>2924</ele>
        <time>2012-07-03T09:31:20Z</time>
      </trkpt>
      <trkpt lat="42.70216" lon="0.52377">
        <ele>2925.4</ele>
        <time>2012-07-03T09:31:32Z</time>
      </trkpt>
      <trkpt lat="42.70219" lon="0.5238">
        <ele>2926.9</ele>
        <time>2012-07-03T09:31:47Z</time>
      </trkpt>
      <trkpt lat="42.70219" lon="0.5238">
        <ele>2928.8</ele>
        <time>2012-07-03T09:32:01Z</time>
      </trkpt>
      <trkpt lat="42.70219" lon="0.5238">
        <ele>2929.3</ele>
        <time>2012-07-03T09:32:13Z</time>
      </trkpt>
      <trkpt lat="42.70221" lon="0.52384">
        <ele>2929.3</ele>
        <time>2012-07-03T09:32:27Z</time>
      </trkpt>
      <trkpt lat="42.7022" lon="0.52384">
        <ele>2929.3</ele>
        <time>2012-07-03T09:32:39Z</time>
      </trkpt>
      <trkpt lat="42.70222" lon="0.52385">
        <ele>2928.3</ele>
        <time>2012-07-03T09:32:54Z</time>
      </trkpt>
      <trkpt lat="42.70222" lon="0.52385">
        <ele>2928.3</ele>
        <time>2012-07-03T09:33:06Z</time>
      </trkpt>
      <trkpt lat="42.70224" lon="0.52386">
        <ele>2929.3</ele>
        <time>2012-07-03T09:33:17Z</time>
      </trkpt>
      <trkpt lat="42.70224" lon="0.52386">
        <ele>2929.8</ele>
        <time>2012-07-03T09:33:36Z</time>
      </trkpt>
      <trkpt lat="42.70229" lon="0.52398">
        <ele>2932.2</ele>
        <time>2012-07-03T09:33:49Z</time>
      </trkpt>
      <trkpt lat="42.70229" lon="0.52399">
        <ele>2933.6</ele>
        <time>2012-07-03T09:34:02Z</time>
      </trkpt>
      <trkpt lat="42.70231" lon="0.52406">
        <ele>2936</ele>
        <time>2012-07-03T09:34:17Z</time>
      </trkpt>
      <trkpt lat="42.70236" lon="0.52422">
        <ele>2937.9</ele>
        <time>2012-07-03T09:34:30Z</time>
      </trkpt>
      <trkpt lat="42.70236" lon="0.52422">
        <ele>2939.9</ele>
        <time>2012-07-03T09:34:43Z</time>
      </trkpt>
      <trkpt lat="42.70238" lon="0.52428">
        <ele>2941.8</ele>
        <time>2012-07-03T09:34:54Z</time>
      </trkpt>
      <trkpt lat="42.70239" lon="0.52437">
        <ele>2942.7</ele>
        <time>2012-07-03T09:35:07Z</time>
      </trkpt>
      <trkpt lat="42.70239" lon="0.52437">
        <ele>2942.7</ele>
        <time>2012-07-03T09:35:28Z</time>
      </trkpt>
      <trkpt lat="42.70244" lon="0.52442">
        <ele>2944.7</ele>
        <time>2012-07-03T09:35:42Z</time>
      </trkpt>
      <trkpt lat="42.70247" lon="0.52443">
        <ele>2946.1</ele>
        <time>2012-07-03T09:35:59Z</time>
      </trkpt>
      <trkpt lat="42.70254" lon="0.52445">
        <ele>2947.1</ele>
        <time>2012-07-03T09:36:12Z</time>
      </trkpt>
      <trkpt lat="42.70255" lon="0.52445">
        <ele>2948.5</ele>
        <time>2012-07-03T09:36:28Z</time>
      </trkpt>
      <trkpt lat="42.70259" lon="0.52446">
        <ele>2949</ele>
        <time>2012-07-03T09:36:41Z</time>
      </trkpt>
      <trkpt lat="42.70267" lon="0.52447">
        <ele>2949.9</ele>
        <time>2012-07-03T09:36:54Z</time>
      </trkpt>
      <trkpt lat="42.7027" lon="0.52443">
        <ele>2949.9</ele>
        <time>2012-07-03T09:37:06Z</time>
      </trkpt>
      <trkpt lat="42.70272" lon="0.52444">
        <ele>2950.4</ele>
        <time>2012-07-03T09:37:19Z</time>
      </trkpt>
      <trkpt lat="42.70272" lon="0.52444">
        <ele>2950.4</ele>
        <time>2012-07-03T09:37:20Z</time>
      </trkpt>
      <trkpt lat="42.70272" lon="0.52445">
        <ele>2949.5</ele>
        <time>2012-07-03T09:37:30Z</time>
      </trkpt>
      <trkpt lat="42.70276" lon="0.52448">
        <ele>2949.9</ele>
        <time>2012-07-03T09:37:47Z</time>
      </trkpt>
      <trkpt lat="42.70277" lon="0.52445">
        <ele>2950.4</ele>
        <time>2012-07-03T09:37:51Z</time>
      </trkpt>
      <trkpt lat="42.70277" lon="0.52443">
        <ele>2950.9</ele>
        <time>2012-07-03T09:38:03Z</time>
      </trkpt>
      <trkpt lat="42.70277" lon="0.52443">
        <ele>2950.9</ele>
        <time>2012-07-03T09:38:18Z</time>
      </trkpt>
      <trkpt lat="42.70277" lon="0.52443">
        <ele>2950.9</ele>
        <time>2012-07-03T09:38:21Z</time>
      </trkpt>
      <trkpt lat="42.70276" lon="0.52443">
        <ele>2953.3</ele>
        <time>2012-07-03T09:38:32Z</time>
      </trkpt>
      <trkpt lat="42.70279" lon="0.5245">
        <ele>2955.2</ele>
        <time>2012-07-03T09:38:43Z</time>
      </trkpt>
      <trkpt lat="42.7028" lon="0.52455">
        <ele>2958.1</ele>
        <time>2012-07-03T09:38:57Z</time>
      </trkpt>
      <trkpt lat="42.70285" lon="0.52457">
        <ele>2960</ele>
        <time>2012-07-03T09:39:09Z</time>
      </trkpt>
      <trkpt lat="42.70284" lon="0.52461">
        <ele>2962</ele>
        <time>2012-07-03T09:39:20Z</time>
      </trkpt>
      <trkpt lat="42.70289" lon="0.52462">
        <ele>2963.4</ele>
        <time>2012-07-03T09:39:33Z</time>
      </trkpt>
      <trkpt lat="42.70289" lon="0.52463">
        <ele>2964.4</ele>
        <time>2012-07-03T09:39:47Z</time>
      </trkpt>
      <trkpt lat="42.7029" lon="0.52466">
        <ele>2965.3</ele>
        <time>2012-07-03T09:39:52Z</time>
      </trkpt>
      <trkpt lat="42.7029" lon="0.52465">
        <ele>2966.8</ele>
        <time>2012-07-03T09:40:06Z</time>
      </trkpt>
      <trkpt lat="42.7029" lon="0.52465">
        <ele>2968.2</ele>
        <time>2012-07-03T09:40:23Z</time>
      </trkpt>
      <trkpt lat="42.7029" lon="0.5247">
        <ele>2969.7</ele>
        <time>2012-07-03T09:40:35Z</time>
      </trkpt>
      <trkpt lat="42.70289" lon="0.52472">
        <ele>2969.7</ele>
        <time>2012-07-03T09:40:43Z</time>
      </trkpt>
      <trkpt lat="42.70286" lon="0.52471">
        <ele>2970.6</ele>
        <time>2012-07-03T09:40:57Z</time>
      </trkpt>
      <trkpt lat="42.70286" lon="0.52471">
        <ele>2970.6</ele>
        <time>2012-07-03T09:41:10Z</time>
      </trkpt>
      <trkpt lat="42.70285" lon="0.52472">
        <ele>2970.1</ele>
        <time>2012-07-03T09:41:28Z</time>
      </trkpt>
      <trkpt lat="42.70284" lon="0.52473">
        <ele>2969.2</ele>
        <time>2012-07-03T09:41:39Z</time>
      </trkpt>
      <trkpt lat="42.70283" lon="0.52472">
        <ele>2969.7</ele>
        <time>2012-07-03T09:41:48Z</time>
      </trkpt>
      <trkpt lat="42.70282" lon="0.52475">
        <ele>2970.1</ele>
        <time>2012-07-03T09:42:01Z</time>
      </trkpt>
      <trkpt lat="42.70282" lon="0.52475">
        <ele>2970.6</ele>
        <time>2012-07-03T09:42:19Z</time>
      </trkpt>
      <trkpt lat="42.70282" lon="0.52475">
        <ele>2972.1</ele>
        <time>2012-07-03T09:42:37Z</time>
      </trkpt>
      <trkpt lat="42.70282" lon="0.52478">
        <ele>2974</ele>
        <time>2012-07-03T09:42:48Z</time>
      </trkpt>
      <trkpt lat="42.70282" lon="0.52478">
        <ele>2974.5</ele>
        <time>2012-07-03T09:43:02Z</time>
      </trkpt>
      <trkpt lat="42.70283" lon="0.52481">
        <ele>2976.4</ele>
        <time>2012-07-03T09:43:16Z</time>
      </trkpt>
      <trkpt lat="42.70283" lon="0.52482">
        <ele>2978.3</ele>
        <time>2012-07-03T09:43:28Z</time>
      </trkpt>
      <trkpt lat="42.70283" lon="0.52482">
        <ele>2978.8</ele>
        <time>2012-07-03T09:43:45Z</time>
      </trkpt>
      <trkpt lat="42.70283" lon="0.52482">
        <ele>2979.7</ele>
        <time>2012-07-03T09:43:58Z</time>
      </trkpt>
      <trkpt lat="42.70282" lon="0.52488">
        <ele>2981.7</ele>
        <time>2012-07-03T09:44:07Z</time>
      </trkpt>
      <trkpt lat="42.70282" lon="0.5249">
        <ele>2983.1</ele>
        <time>2012-07-03T09:44:23Z</time>
      </trkpt>
      <trkpt lat="42.70283" lon="0.525">
        <ele>2984.1</ele>
        <time>2012-07-03T09:44:37Z</time>
      </trkpt>
      <trkpt lat="42.70283" lon="0.525">
        <ele>2986</ele>
        <time>2012-07-03T09:44:49Z</time>
      </trkpt>
      <trkpt lat="42.70284" lon="0.525">
        <ele>2988.4</ele>
        <time>2012-07-03T09:45:01Z</time>
      </trkpt>
      <trkpt lat="42.70285" lon="0.525">
        <ele>2990.3</ele>
        <time>2012-07-03T09:45:14Z</time>
      </trkpt>
      <trkpt lat="42.70286" lon="0.52502">
        <ele>2989.8</ele>
        <time>2012-07-03T09:45:29Z</time>
      </trkpt>
      <trkpt lat="42.70285" lon="0.52505">
        <ele>2992.2</ele>
        <time>2012-07-03T09:45:42Z</time>
      </trkpt>
      <trkpt lat="42.70285" lon="0.52505">
        <ele>2991.8</ele>
        <time>2012-07-03T09:45:56Z</time>
      </trkpt>
      <trkpt lat="42.70285" lon="0.52506">
        <ele>2993.2</ele>
        <time>2012-07-03T09:46:09Z</time>
      </trkpt>
      <trkpt lat="42.70285" lon="0.52512">
        <ele>2994.2</ele>
        <time>2012-07-03T09:46:22Z</time>
      </trkpt>
      <trkpt lat="42.70285" lon="0.52512">
        <ele>2996.6</ele>
        <time>2012-07-03T09:46:36Z</time>
      </trkpt>
      <trkpt lat="42.70283" lon="0.52515">
        <ele>2997.5</ele>
        <time>2012-07-03T09:46:57Z</time>
      </trkpt>
      <trkpt lat="42.70284" lon="0.52518">
        <ele>2998.5</ele>
        <time>2012-07-03T09:47:14Z</time>
      </trkpt>
      <trkpt lat="42.70284" lon="0.52518">
        <ele>3000.9</ele>
        <time>2012-07-03T09:47:30Z</time>
      </trkpt>
      <trkpt lat="42.70286" lon="0.52518">
        <ele>3001.9</ele>
        <time>2012-07-03T09:47:43Z</time>
      </trkpt>
      <trkpt lat="42.70288" lon="0.52521">
        <ele>3003.3</ele>
        <time>2012-07-03T09:47:55Z</time>
      </trkpt>
      <trkpt lat="42.70289" lon="0.52522">
        <ele>3005.2</ele>
        <time>2012-07-03T09:48:08Z</time>
      </trkpt>
      <trkpt lat="42.7029" lon="0.52524">
        <ele>3006.7</ele>
        <time>2012-07-03T09:48:21Z</time>
      </trkpt>
      <trkpt lat="42.70287" lon="0.52523">
        <ele>3008.6</ele>
        <time>2012-07-03T09:48:35Z</time>
      </trkpt>
      <trkpt lat="42.70289" lon="0.52526">
        <ele>3010.5</ele>
        <time>2012-07-03T09:48:48Z</time>
      </trkpt>
      <trkpt lat="42.70289" lon="0.52526">
        <ele>3010</ele>
        <time>2012-07-03T09:49:14Z</time>
      </trkpt>
      <trkpt lat="42.70289" lon="0.52526">
        <ele>3009.1</ele>
        <time>2012-07-03T09:49:38Z</time>
      </trkpt>
      <trkpt lat="42.70289" lon="0.52526">
        <ele>3010</ele>
        <time>2012-07-03T09:50:07Z</time>
      </trkpt>
      <trkpt lat="42.7029" lon="0.52526">
        <ele>3010.5</ele>
        <time>2012-07-03T09:50:30Z</time>
      </trkpt>
      <trkpt lat="42.7029" lon="0.52529">
        <ele>3010.5</ele>
        <time>2012-07-03T09:50:46Z</time>
      </trkpt>
      <trkpt lat="42.70289" lon="0.52533">
        <ele>3010.5</ele>
        <time>2012-07-03T09:51:02Z</time>
      </trkpt>
      <trkpt lat="42.70288" lon="0.52535">
        <ele>3011.5</ele>
        <time>2012-07-03T09:51:18Z</time>
      </trkpt>
      <trkpt lat="42.70287" lon="0.52535">
        <ele>3011.5</ele>
        <time>2012-07-03T09:51:35Z</time>
      </trkpt>
      <trkpt lat="42.70287" lon="0.52537">
        <ele>3012.9</ele>
        <time>2012-07-03T09:51:51Z</time>
      </trkpt>
      <trkpt lat="42.70287" lon="0.52537">
        <ele>3015.3</ele>
        <time>2012-07-03T09:52:05Z</time>
      </trkpt>
      <trkpt lat="42.70286" lon="0.52539">
        <ele>3016.3</ele>
        <time>2012-07-03T09:52:19Z</time>
      </trkpt>
      <trkpt lat="42.70286" lon="0.52539">
        <ele>3016.8</ele>
        <time>2012-07-03T09:52:20Z</time>
      </trkpt>
      <trkpt lat="42.70287" lon="0.52542">
        <ele>3018.2</ele>
        <time>2012-07-03T09:52:34Z</time>
      </trkpt>
      <trkpt lat="42.70288" lon="0.52546">
        <ele>3018.7</ele>
        <time>2012-07-03T09:52:47Z</time>
      </trkpt>
      <trkpt lat="42.70288" lon="0.52546">
        <ele>3018.7</ele>
        <time>2012-07-03T09:53:10Z</time>
      </trkpt>
      <trkpt lat="42.70288" lon="0.52547">
        <ele>3018.7</ele>
        <time>2012-07-03T09:53:29Z</time>
      </trkpt>
      <trkpt lat="42.70288" lon="0.52548">
        <ele>3021.1</ele>
        <time>2012-07-03T09:53:42Z</time>
      </trkpt>
      <trkpt lat="42.70287" lon="0.52552">
        <ele>3022.5</ele>
        <time>2012-07-03T09:53:55Z</time>
      </trkpt>
      <trkpt lat="42.70287" lon="0.52552">
        <ele>3022.5</ele>
        <time>2012-07-03T09:53:59Z</time>
      </trkpt>
      <trkpt lat="42.70292" lon="0.52554">
        <ele>3024</ele>
        <time>2012-07-03T09:54:07Z</time>
      </trkpt>
      <trkpt lat="42.70292" lon="0.52554">
        <ele>3024.4</ele>
        <time>2012-07-03T09:54:26Z</time>
      </trkpt>
      <trkpt lat="42.70292" lon="0.52553">
        <ele>3024.4</ele>
        <time>2012-07-03T09:54:54Z</time>
      </trkpt>
      <trkpt lat="42.70292" lon="0.52553">
        <ele>3024.4</ele>
        <time>2012-07-03T09:55:18Z</time>
      </trkpt>
      <trkpt lat="42.70292" lon="0.52554">
        <ele>3024.9</ele>
        <time>2012-07-03T09:55:34Z</time>
      </trkpt>
      <trkpt lat="42.7029" lon="0.52553">
        <ele>3025.4</ele>
        <time>2012-07-03T09:55:49Z</time>
      </trkpt>
      <trkpt lat="42.7029" lon="0.52555">
        <ele>3026.9</ele>
        <time>2012-07-03T09:56:04Z</time>
      </trkpt>
      <trkpt lat="42.70289" lon="0.52556">
        <ele>3027.3</ele>
        <time>2012-07-03T09:56:12Z</time>
      </trkpt>
      <trkpt lat="42.70288" lon="0.52555">
        <ele>3027.8</ele>
        <time>2012-07-03T09:56:16Z</time>
      </trkpt>
      <trkpt lat="42.70285" lon="0.52558">
        <ele>3029.7</ele>
        <time>2012-07-03T09:56:27Z</time>
      </trkpt>
      <trkpt lat="42.70286" lon="0.52559">
        <ele>3029.7</ele>
        <time>2012-07-03T09:56:41Z</time>
      </trkpt>
      <trkpt lat="42.70287" lon="0.5256">
        <ele>3030.2</ele>
        <time>2012-07-03T09:56:55Z</time>
      </trkpt>
      <trkpt lat="42.70289" lon="0.52562">
        <ele>3029.7</ele>
        <time>2012-07-03T09:57:12Z</time>
      </trkpt>
      <trkpt lat="42.70289" lon="0.52562">
        <ele>3029.7</ele>
        <time>2012-07-03T09:57:30Z</time>
      </trkpt>
      <trkpt lat="42.70291" lon="0.52563">
        <ele>3029.3</ele>
        <time>2012-07-03T09:57:50Z</time>
      </trkpt>
      <trkpt lat="42.70291" lon="0.52563">
        <ele>3029.3</ele>
        <time>2012-07-03T09:58:07Z</time>
      </trkpt>
      <trkpt lat="42.7029" lon="0.52561">
        <ele>3029.7</ele>
        <time>2012-07-03T09:58:22Z</time>
      </trkpt>
      <trkpt lat="42.70291" lon="0.52559">
        <ele>3028.8</ele>
        <time>2012-07-03T09:58:34Z</time>
      </trkpt>
      <trkpt lat="42.70291" lon="0.52559">
        <ele>3027.3</ele>
        <time>2012-07-03T09:58:48Z</time>
      </trkpt>
      <trkpt lat="42.70289" lon="0.52559">
        <ele>3025.4</ele>
        <time>2012-07-03T09:59:00Z</time>
      </trkpt>
      <trkpt lat="42.70289" lon="0.52557">
        <ele>3023</ele>
        <time>2012-07-03T09:59:12Z</time>
      </trkpt>
      <trkpt lat="42.7029" lon="0.52552">
        <ele>3022.5</ele>
        <time>2012-07-03T09:59:25Z</time>
      </trkpt>
      <trkpt lat="42.7029" lon="0.52552">
        <ele>3022.5</ele>
        <time>2012-07-03T09:59:27Z</time>
      </trkpt>
      <trkpt lat="42.7029" lon="0.52549">
        <ele>3023</ele>
        <time>2012-07-03T09:59:37Z</time>
      </trkpt>
      <trkpt lat="42.70291" lon="0.52548">
        <ele>3023.5</ele>
        <time>2012-07-03T09:59:52Z</time>
      </trkpt>
      <trkpt lat="42.70293" lon="0.52549">
        <ele>3026.4</ele>
        <time>2012-07-03T10:00:04Z</time>
      </trkpt>
      <trkpt lat="42.70293" lon="0.52549">
        <ele>3026.4</ele>
        <time>2012-07-03T10:00:16Z</time>
      </trkpt>
      <trkpt lat="42.70293" lon="0.52548">
        <ele>3025.9</ele>
        <time>2012-07-03T10:00:33Z</time>
      </trkpt>
      <trkpt lat="42.70294" lon="0.52549">
        <ele>3028.8</ele>
        <time>2012-07-03T10:00:46Z</time>
      </trkpt>
      <trkpt lat="42.70295" lon="0.5255">
        <ele>3031.7</ele>
        <time>2012-07-03T10:01:01Z</time>
      </trkpt>
      <trkpt lat="42.70294" lon="0.52551">
        <ele>3032.1</ele>
        <time>2012-07-03T10:01:21Z</time>
      </trkpt>
      <trkpt lat="42.70293" lon="0.52551">
        <ele>3035</ele>
        <time>2012-07-03T10:01:44Z</time>
      </trkpt>
      <trkpt lat="42.70291" lon="0.52553">
        <ele>3035.5</ele>
        <time>2012-07-03T10:01:57Z</time>
      </trkpt>
      <trkpt lat="42.70288" lon="0.52553">
        <ele>3036.9</ele>
        <time>2012-07-03T10:02:14Z</time>
      </trkpt>
      <trkpt lat="42.70288" lon="0.52553">
        <ele>3039.4</ele>
        <time>2012-07-03T10:02:29Z</time>
      </trkpt>
      <trkpt lat="42.7029" lon="0.52553">
        <ele>3040.3</ele>
        <time>2012-07-03T10:02:45Z</time>
      </trkpt>
      <trkpt lat="42.7029" lon="0.52556">
        <ele>3042.2</ele>
        <time>2012-07-03T10:03:00Z</time>
      </trkpt>
      <trkpt lat="42.70291" lon="0.5256">
        <ele>3043.7</ele>
        <time>2012-07-03T10:03:11Z</time>
      </trkpt>
      <trkpt lat="42.7029" lon="0.52563">
        <ele>3044.2</ele>
        <time>2012-07-03T10:03:22Z</time>
      </trkpt>
      <trkpt lat="42.70286" lon="0.52563">
        <ele>3043.2</ele>
        <time>2012-07-03T10:03:37Z</time>
      </trkpt>
      <trkpt lat="42.70284" lon="0.52564">
        <ele>3041.8</ele>
        <time>2012-07-03T10:03:53Z</time>
      </trkpt>
      <trkpt lat="42.70284" lon="0.52563">
        <ele>3042.2</ele>
        <time>2012-07-03T10:04:08Z</time>
      </trkpt>
      <trkpt lat="42.70283" lon="0.52563">
        <ele>3044.2</ele>
        <time>2012-07-03T10:04:22Z</time>
      </trkpt>
      <trkpt lat="42.70284" lon="0.52566">
        <ele>3047</ele>
        <time>2012-07-03T10:04:35Z</time>
      </trkpt>
      <trkpt lat="42.70283" lon="0.52568">
        <ele>3049</ele>
        <time>2012-07-03T10:04:47Z</time>
      </trkpt>
      <trkpt lat="42.70281" lon="0.52569">
        <ele>3050.9</ele>
        <time>2012-07-03T10:05:04Z</time>
      </trkpt>
      <trkpt lat="42.70281" lon="0.5257">
        <ele>3050.9</ele>
        <time>2012-07-03T10:05:22Z</time>
      </trkpt>
      <trkpt lat="42.7028" lon="0.52569">
        <ele>3051.8</ele>
        <time>2012-07-03T10:05:39Z</time>
      </trkpt>
      <trkpt lat="42.70281" lon="0.52572">
        <ele>3052.8</ele>
        <time>2012-07-03T10:05:57Z</time>
      </trkpt>
      <trkpt lat="42.7028" lon="0.52574">
        <ele>3054.3</ele>
        <time>2012-07-03T10:06:12Z</time>
      </trkpt>
      <trkpt lat="42.7028" lon="0.52574">
        <ele>3054.7</ele>
        <time>2012-07-03T10:06:27Z</time>
      </trkpt>
      <trkpt lat="42.7028" lon="0.52574">
        <ele>3055.2</ele>
        <time>2012-07-03T10:06:45Z</time>
      </trkpt>
      <trkpt lat="42.70279" lon="0.52575">
        <ele>3057.6</ele>
        <time>2012-07-03T10:07:03Z</time>
      </trkpt>
      <trkpt lat="42.70278" lon="0.52577">
        <ele>3057.6</ele>
        <time>2012-07-03T10:07:15Z</time>
      </trkpt>
      <trkpt lat="42.70279" lon="0.5258">
        <ele>3057.6</ele>
        <time>2012-07-03T10:07:31Z</time>
      </trkpt>
      <trkpt lat="42.7028" lon="0.5258">
        <ele>3059.5</ele>
        <time>2012-07-03T10:07:44Z</time>
      </trkpt>
      <trkpt lat="42.7028" lon="0.52581">
        <ele>3061</ele>
        <time>2012-07-03T10:07:55Z</time>
      </trkpt>
      <trkpt lat="42.70282" lon="0.52584">
        <ele>3063.9</ele>
        <time>2012-07-03T10:08:05Z</time>
      </trkpt>
      <trkpt lat="42.70283" lon="0.52585">
        <ele>3065.8</ele>
        <time>2012-07-03T10:08:16Z</time>
      </trkpt>
      <trkpt lat="42.70285" lon="0.52589">
        <ele>3065.3</ele>
        <time>2012-07-03T10:08:32Z</time>
      </trkpt>
      <trkpt lat="42.70286" lon="0.52589">
        <ele>3065.8</ele>
        <time>2012-07-03T10:08:55Z</time>
      </trkpt>
      <trkpt lat="42.70286" lon="0.52589">
        <ele>3068.7</ele>
        <time>2012-07-03T10:09:11Z</time>
      </trkpt>
      <trkpt lat="42.70285" lon="0.52589">
        <ele>3070.6</ele>
        <time>2012-07-03T10:09:21Z</time>
      </trkpt>
      <trkpt lat="42.70285" lon="0.52589">
        <ele>3072</ele>
        <time>2012-07-03T10:09:39Z</time>
      </trkpt>
      <trkpt lat="42.70285" lon="0.52589">
        <ele>3075.4</ele>
        <time>2012-07-03T10:09:42Z</time>
      </trkpt>
      <trkpt lat="42.70285" lon="0.5259">
        <ele>3072</ele>
        <time>2012-07-03T10:09:50Z</time>
      </trkpt>
      <trkpt lat="42.70285" lon="0.5259">
        <ele>3072</ele>
        <time>2012-07-03T10:09:51Z</time>
      </trkpt>
      <trkpt lat="42.70283" lon="0.52592">
        <ele>3071.1</ele>
        <time>2012-07-03T10:10:06Z</time>
      </trkpt>
      <trkpt lat="42.70285" lon="0.52597">
        <ele>3072</ele>
        <time>2012-07-03T10:10:24Z</time>
      </trkpt>
      <trkpt lat="42.70285" lon="0.52602">
        <ele>3071.6</ele>
        <time>2012-07-03T10:10:39Z</time>
      </trkpt>
      <trkpt lat="42.70287" lon="0.52608">
        <ele>3072.5</ele>
        <time>2012-07-03T10:10:53Z</time>
      </trkpt>
      <trkpt lat="42.70287" lon="0.52612">
        <ele>3074</ele>
        <time>2012-07-03T10:11:06Z</time>
      </trkpt>
      <trkpt lat="42.70287" lon="0.52616">
        <ele>3075.9</ele>
        <time>2012-07-03T10:11:23Z</time>
      </trkpt>
      <trkpt lat="42.70287" lon="0.52619">
        <ele>3076.4</ele>
        <time>2012-07-03T10:11:36Z</time>
      </trkpt>
      <trkpt lat="42.70287" lon="0.52624">
        <ele>3080.2</ele>
        <time>2012-07-03T10:11:50Z</time>
      </trkpt>
      <trkpt lat="42.70287" lon="0.52625">
        <ele>3080.2</ele>
        <time>2012-07-03T10:11:51Z</time>
      </trkpt>
      <trkpt lat="42.70287" lon="0.52624">
        <ele>3080.2</ele>
        <time>2012-07-03T10:12:06Z</time>
      </trkpt>
      <trkpt lat="42.70287" lon="0.52624">
        <ele>3085</ele>
        <time>2012-07-03T10:12:12Z</time>
      </trkpt>
      <trkpt lat="42.70287" lon="0.52624">
        <ele>3083.6</ele>
        <time>2012-07-03T10:12:13Z</time>
      </trkpt>
      <trkpt lat="42.70285" lon="0.52621">
        <ele>3083.1</ele>
        <time>2012-07-03T10:12:15Z</time>
      </trkpt>
      <trkpt lat="42.70284" lon="0.52621">
        <ele>3084.5</ele>
        <time>2012-07-03T10:12:24Z</time>
      </trkpt>
      <trkpt lat="42.70284" lon="0.52622">
        <ele>3086</ele>
        <time>2012-07-03T10:12:27Z</time>
      </trkpt>
      <trkpt lat="42.70283" lon="0.52627">
        <ele>3086.5</ele>
        <time>2012-07-03T10:12:39Z</time>
      </trkpt>
      <trkpt lat="42.70283" lon="0.52627">
        <ele>3087.9</ele>
        <time>2012-07-03T10:12:59Z</time>
      </trkpt>
      <trkpt lat="42.70283" lon="0.52627">
        <ele>3089.3</ele>
        <time>2012-07-03T10:13:02Z</time>
      </trkpt>
      <trkpt lat="42.70282" lon="0.52632">
        <ele>3090.8</ele>
        <time>2012-07-03T10:13:15Z</time>
      </trkpt>
      <trkpt lat="42.70282" lon="0.52632">
        <ele>3090.3</ele>
        <time>2012-07-03T10:13:30Z</time>
      </trkpt>
      <trkpt lat="42.70282" lon="0.52632">
        <ele>3090.3</ele>
        <time>2012-07-03T10:13:50Z</time>
      </trkpt>
      <trkpt lat="42.70282" lon="0.52632">
        <ele>3089.8</ele>
        <time>2012-07-03T10:14:09Z</time>
      </trkpt>
      <trkpt lat="42.70281" lon="0.52637">
        <ele>3090.8</ele>
        <time>2012-07-03T10:14:14Z</time>
      </trkpt>
      <trkpt lat="42.70279" lon="0.5264">
        <ele>3090.8</ele>
        <time>2012-07-03T10:14:28Z</time>
      </trkpt>
      <trkpt lat="42.70279" lon="0.5264">
        <ele>3091.3</ele>
        <time>2012-07-03T10:14:38Z</time>
      </trkpt>
      <trkpt lat="42.70279" lon="0.5264">
        <ele>3092.2</ele>
        <time>2012-07-03T10:14:49Z</time>
      </trkpt>
      <trkpt lat="42.70279" lon="0.52641">
        <ele>3093.2</ele>
        <time>2012-07-03T10:15:02Z</time>
      </trkpt>
      <trkpt lat="42.70279" lon="0.52641">
        <ele>3094.1</ele>
        <time>2012-07-03T10:15:14Z</time>
      </trkpt>
      <trkpt lat="42.70279" lon="0.52641">
        <ele>3092.7</ele>
        <time>2012-07-03T10:15:27Z</time>
      </trkpt>
      <trkpt lat="42.70277" lon="0.52644">
        <ele>3091.7</ele>
        <time>2012-07-03T10:15:48Z</time>
      </trkpt>
      <trkpt lat="42.70277" lon="0.52644">
        <ele>3087.4</ele>
        <time>2012-07-03T10:16:02Z</time>
      </trkpt>
      <trkpt lat="42.70277" lon="0.52644">
        <ele>3095.6</ele>
        <time>2012-07-03T10:16:03Z</time>
      </trkpt>
      <trkpt lat="42.70277" lon="0.52644">
        <ele>3091.7</ele>
        <time>2012-07-03T10:16:04Z</time>
      </trkpt>
      <trkpt lat="42.70277" lon="0.52645">
        <ele>3092.2</ele>
        <time>2012-07-03T10:16:35Z</time>
      </trkpt>
      <trkpt lat="42.70277" lon="0.52645">
        <ele>3091.7</ele>
        <time>2012-07-03T10:16:57Z</time>
      </trkpt>
      <trkpt lat="42.70273" lon="0.52653">
        <ele>3092.2</ele>
        <time>2012-07-03T10:17:26Z</time>
      </trkpt>
      <trkpt lat="42.7027" lon="0.52658">
        <ele>3092.7</ele>
        <time>2012-07-03T10:17:58Z</time>
      </trkpt>
      <trkpt lat="42.70268" lon="0.52661">
        <ele>3092.7</ele>
        <time>2012-07-03T10:18:31Z</time>
      </trkpt>
      <trkpt lat="42.70266" lon="0.52663">
        <ele>3092.2</ele>
        <time>2012-07-03T10:19:10Z</time>
      </trkpt>
      <trkpt lat="42.70266" lon="0.52664">
        <ele>3092.2</ele>
        <time>2012-07-03T10:19:48Z</time>
      </trkpt>
      <trkpt lat="42.70265" lon="0.52665">
        <ele>3092.2</ele>
        <time>2012-07-03T10:20:25Z</time>
      </trkpt>
      <trkpt lat="42.70265" lon="0.52665">
        <ele>3092.7</ele>
        <time>2012-07-03T10:21:02Z</time>
      </trkpt>
      <trkpt lat="42.70264" lon="0.52666">
        <ele>3092.2</ele>
        <time>2012-07-03T10:21:43Z</time>
      </trkpt>
      <trkpt lat="42.70264" lon="0.52666">
        <ele>3092.2</ele>
        <time>2012-07-03T10:22:15Z</time>
      </trkpt>
      <trkpt lat="42.70264" lon="0.52666">
        <ele>3091.7</ele>
        <time>2012-07-03T10:22:53Z</time>
      </trkpt>
      <trkpt lat="42.70264" lon="0.52666">
        <ele>3092.2</ele>
        <time>2012-07-03T10:23:20Z</time>
      </trkpt>
      <trkpt lat="42.70263" lon="0.52666">
        <ele>3092.7</ele>
        <time>2012-07-03T10:23:54Z</time>
      </trkpt>
      <trkpt lat="42.70263" lon="0.52666">
        <ele>3092.7</ele>
        <time>2012-07-03T10:24:25Z</time>
      </trkpt>
      <trkpt lat="42.70263" lon="0.52666">
        <ele>3092.2</ele>
        <time>2012-07-03T10:25:02Z</time>
      </trkpt>
      <trkpt lat="42.70263" lon="0.52666">
        <ele>3092.7</ele>
        <time>2012-07-03T10:25:41Z</time>
      </trkpt>
      <trkpt lat="42.70263" lon="0.52666">
        <ele>3092.7</ele>
        <time>2012-07-03T10:26:15Z</time>
      </trkpt>
      <trkpt lat="42.70263" lon="0.52666">
        <ele>3093.2</ele>
        <time>2012-07-03T10:26:36Z</time>
      </trkpt>
      <trkpt lat="42.70262" lon="0.52667">
        <ele>3093.7</ele>
        <time>2012-07-03T10:27:05Z</time>
      </trkpt>
    </trkseg>
  </trk>
</gpx>